Wetterdaten: aktuell Dienstag, 01.09.2026 00:25
Datum Zeit Temp. A. Feuchte A. Luftdruck Regen Wind Richtung Richtung Taupunkt Windchill Windböen Empfang
01.09.2026 00:25 17,1 °C 78 % 1019,2 hPa 0,0 l/m² 1,6 km/h (1 Bft) SW 225 ° 13,2 °C 17,1 °C 1,6 km/h (1 Bft) 95,65 %
01.09.2026 00:24 17,1 °C 78 % 1019,2 hPa 0,0 l/m² 1,6 km/h (1 Bft) SW 225 ° 13,2 °C 17,1 °C 1,6 km/h (1 Bft) 100,00 %
01.09.2026 00:23 17,1 °C 78 % 1019,2 hPa 0,0 l/m² 1,6 km/h (1 Bft) SW 225 ° 13,2 °C 17,1 °C 4,8 km/h (1 Bft) 100,00 %
01.09.2026 00:22 17,1 °C 77 % 1019,2 hPa 0,0 l/m² 4,8 km/h (1 Bft) SW 225 ° 13,0 °C 17,1 °C 6,4 km/h (2 Bft) 100,00 %
01.09.2026 00:21 17,1 °C 77 % 1019,2 hPa 0,0 l/m² 4,8 km/h (1 Bft) SW 225 ° 13,0 °C 17,1 °C 6,4 km/h (2 Bft) 100,00 %
01.09.2026 00:20 17,1 °C 77 % 1019,2 hPa 0,0 l/m² 4,8 km/h (1 Bft) S-SW 202 ° 13,0 °C 17,1 °C 6,4 km/h (2 Bft) 100,00 %
01.09.2026 00:19 17,1 °C 77 % 1019,1 hPa 0,0 l/m² 4,8 km/h (1 Bft) S-SW 202 ° 13,0 °C 17,1 °C 4,8 km/h (1 Bft) 100,00 %
01.09.2026 00:18 17,1 °C 77 % 1019,2 hPa 0,0 l/m² 4,8 km/h (1 Bft) SW 225 ° 13,0 °C 17,1 °C 6,4 km/h (2 Bft) 95,65 %
01.09.2026 00:17 17,1 °C 77 % 1019,1 hPa 0,0 l/m² 4,8 km/h (1 Bft) SW 225 ° 13,0 °C 17,1 °C 8,0 km/h (2 Bft) 100,00 %
01.09.2026 00:16 17,1 °C 77 % 1019,2 hPa 0,0 l/m² 6,4 km/h (2 Bft) SW 225 ° 13,0 °C 17,1 °C 6,4 km/h (2 Bft) 95,65 %
01.09.2026 00:15 17,1 °C 77 % 1019,2 hPa 0,0 l/m² 4,8 km/h (1 Bft) SW 225 ° 13,0 °C 17,1 °C 6,4 km/h (2 Bft) 100,00 %
01.09.2026 00:14 17,2 °C 77 % 1019,1 hPa 0,0 l/m² 4,8 km/h (1 Bft) SW 225 ° 13,1 °C 17,2 °C 4,8 km/h (1 Bft) 100,00 %
01.09.2026 00:13 17,2 °C 77 % 1019,1 hPa 0,0 l/m² 4,8 km/h (1 Bft) S-SW 202 ° 13,1 °C 17,2 °C 6,4 km/h (2 Bft) 100,00 %
01.09.2026 00:12 17,2 °C 77 % 1019,1 hPa 0,0 l/m² 4,8 km/h (1 Bft) S-SW 202 ° 13,1 °C 17,2 °C 4,8 km/h (1 Bft) 100,00 %
01.09.2026 00:11 17,2 °C 77 % 1019,1 hPa 0,0 l/m² 4,8 km/h (1 Bft) S-SW 202 ° 13,1 °C 17,2 °C 6,4 km/h (2 Bft) 95,65 %
01.09.2026 00:10 17,2 °C 77 % 1019,1 hPa 0,0 l/m² 4,8 km/h (1 Bft) S-SW 202 ° 13,1 °C 17,2 °C 6,4 km/h (2 Bft) 100,00 %
01.09.2026 00:09 17,2 °C 77 % 1019,1 hPa 0,0 l/m² 4,8 km/h (1 Bft) S-SW 202 ° 13,1 °C 17,2 °C 6,4 km/h (2 Bft) 100,00 %
01.09.2026 00:08 17,3 °C 77 % 1019,1 hPa 0,0 l/m² 4,8 km/h (1 Bft) S-SW 202 ° 13,2 °C 17,3 °C 6,4 km/h (2 Bft) 100,00 %
01.09.2026 00:07 17,3 °C 77 % 1019,1 hPa 0,0 l/m² 6,4 km/h (2 Bft) S-SW 202 ° 13,2 °C 17,3 °C 8,0 km/h (2 Bft) 100,00 %
01.09.2026 00:06 17,3 °C 77 % 1019,1 hPa 0,0 l/m² 4,8 km/h (1 Bft) S-SW 202 ° 13,2 °C 17,3 °C 6,4 km/h (2 Bft) 95,65 %
01.09.2026 00:05 17,3 °C 77 % 1019,0 hPa 0,0 l/m² 6,4 km/h (2 Bft) SW 225 ° 13,2 °C 17,3 °C 8,0 km/h (2 Bft) 100,00 %
01.09.2026 00:04 17,3 °C 77 % 1019,1 hPa 0,0 l/m² 6,4 km/h (2 Bft) S-SW 202 ° 13,2 °C 17,3 °C 8,0 km/h (2 Bft) 100,00 %
01.09.2026 00:03 17,3 °C 77 % 1019,0 hPa 0,0 l/m² 6,4 km/h (2 Bft) S-SW 202 ° 13,2 °C 17,3 °C 6,4 km/h (2 Bft) 100,00 %
01.09.2026 00:02 17,3 °C 77 % 1019,1 hPa 0,0 l/m² 6,4 km/h (2 Bft) S-SW 202 ° 13,2 °C 17,3 °C 9,7 km/h (2 Bft) 100,00 %
01.09.2026 00:01 17,3 °C 77 % 1019,1 hPa 0,0 l/m² 6,4 km/h (2 Bft) SW 225 ° 13,2 °C 17,3 °C 8,0 km/h (2 Bft) 95,65 %
31.08.2026 23:59 17,3 °C 77 % 1019,0 hPa 0,0 l/m² 6,4 km/h (2 Bft) SW 225 ° 13,2 °C 17,3 °C 8,0 km/h (2 Bft) 100,00 %
31.08.2026 23:58 17,3 °C 77 % 1019,0 hPa 0,0 l/m² 6,4 km/h (2 Bft) S-SW 202 ° 13,2 °C 17,3 °C 6,4 km/h (2 Bft) 100,00 %
31.08.2026 23:57 17,3 °C 77 % 1019,0 hPa 0,0 l/m² 6,4 km/h (2 Bft) SW 225 ° 13,2 °C 17,3 °C 9,7 km/h (2 Bft) 100,00 %
31.08.2026 23:56 17,3 °C 78 % 1019,1 hPa 0,0 l/m² 6,4 km/h (2 Bft) SW 225 ° 13,4 °C 17,3 °C 6,4 km/h (2 Bft) 100,00 %
31.08.2026 23:55 17,3 °C 78 % 1019,1 hPa 0,0 l/m² 6,4 km/h (2 Bft) SW 225 ° 13,4 °C 17,3 °C 8,0 km/h (2 Bft) 100,00 %
31.08.2026 23:54 17,3 °C 78 % 1019,1 hPa 0,0 l/m² 4,8 km/h (1 Bft) SW 225 ° 13,4 °C 17,3 °C 8,0 km/h (2 Bft) 100,00 %
31.08.2026 23:53 17,2 °C 78 % 1019,0 hPa 0,0 l/m² 6,4 km/h (2 Bft) SW 225 ° 13,3 °C 17,2 °C 9,7 km/h (2 Bft) 100,00 %
31.08.2026 23:52 17,3 °C 77 % 1019,1 hPa 0,0 l/m² 8,0 km/h (2 Bft) SW 225 ° 13,2 °C 16,5 °C 9,7 km/h (2 Bft) 100,00 %
31.08.2026 23:51 17,3 °C 77 % 1019,0 hPa 0,0 l/m² 8,0 km/h (2 Bft) S-SW 202 ° 13,2 °C 16,5 °C 9,7 km/h (2 Bft) 95,65 %
31.08.2026 23:50 17,3 °C 77 % 1019,0 hPa 0,0 l/m² 8,0 km/h (2 Bft) S-SW 202 ° 13,2 °C 16,5 °C 8,0 km/h (2 Bft) 100,00 %
31.08.2026 23:49 17,3 °C 77 % 1019,0 hPa 0,0 l/m² 8,0 km/h (2 Bft) S-SW 202 ° 13,2 °C 16,5 °C 8,0 km/h (2 Bft) 100,00 %
31.08.2026 23:48 17,3 °C 77 % 1019,0 hPa 0,0 l/m² 6,4 km/h (2 Bft) SW 225 ° 13,2 °C 17,3 °C 11,3 km/h (2 Bft) 100,00 %
31.08.2026 23:47 17,3 °C 77 % 1019,0 hPa 0,0 l/m² 6,4 km/h (2 Bft) SW 225 ° 13,2 °C 17,3 °C 6,4 km/h (2 Bft) 100,00 %
31.08.2026 23:46 17,2 °C 77 % 1018,9 hPa 0,0 l/m² 6,4 km/h (2 Bft) SW 225 ° 13,1 °C 17,2 °C 9,7 km/h (2 Bft) 95,65 %
31.08.2026 23:45 17,2 °C 77 % 1018,9 hPa 0,0 l/m² 3,2 km/h (1 Bft) SW 225 ° 13,1 °C 17,2 °C 6,4 km/h (2 Bft) 100,00 %
31.08.2026 23:44 17,2 °C 77 % 1018,9 hPa 0,0 l/m² 3,2 km/h (1 Bft) SW 225 ° 13,1 °C 17,2 °C 6,4 km/h (2 Bft) 100,00 %
31.08.2026 23:43 17,2 °C 77 % 1018,9 hPa 0,0 l/m² 4,8 km/h (1 Bft) SW 225 ° 13,1 °C 17,2 °C 6,4 km/h (2 Bft) 100,00 %
31.08.2026 23:42 17,3 °C 77 % 1018,9 hPa 0,0 l/m² 6,4 km/h (2 Bft) S-SW 202 ° 13,2 °C 17,3 °C 8,0 km/h (2 Bft) 100,00 %
31.08.2026 23:41 17,3 °C 77 % 1019,0 hPa 0,0 l/m² 4,8 km/h (1 Bft) S-SW 202 ° 13,2 °C 17,3 °C 6,4 km/h (2 Bft) 100,00 %
31.08.2026 23:40 17,3 °C 77 % 1018,8 hPa 0,0 l/m² 4,8 km/h (1 Bft) S-SW 202 ° 13,2 °C 17,3 °C 6,4 km/h (2 Bft) 100,00 %
31.08.2026 23:39 17,3 °C 77 % 1018,9 hPa 0,0 l/m² 4,8 km/h (1 Bft) S-SW 202 ° 13,2 °C 17,3 °C 6,4 km/h (2 Bft) 95,65 %
31.08.2026 23:38 17,3 °C 77 % 1018,9 hPa 0,0 l/m² 6,4 km/h (2 Bft) S-SW 202 ° 13,2 °C 17,3 °C 8,0 km/h (2 Bft) 100,00 %
31.08.2026 23:37 17,3 °C 77 % 1018,8 hPa 0,0 l/m² 4,8 km/h (1 Bft) S-SW 202 ° 13,2 °C 17,3 °C 8,0 km/h (2 Bft) 95,65 %
31.08.2026 23:36 17,4 °C 77 % 1018,8 hPa 0,0 l/m² 4,8 km/h (1 Bft) S-SW 202 ° 13,3 °C 17,4 °C 6,4 km/h (2 Bft) 100,00 %
31.08.2026 23:35 17,4 °C 77 % 1018,8 hPa 0,0 l/m² 4,8 km/h (1 Bft) S-SW 202 ° 13,3 °C 17,4 °C 6,4 km/h (2 Bft) 100,00 %
31.08.2026 23:34 17,4 °C 77 % 1018,8 hPa 0,0 l/m² 6,4 km/h (2 Bft) S-SW 202 ° 13,3 °C 17,4 °C 8,0 km/h (2 Bft) 95,65 %
31.08.2026 23:33 17,4 °C 76 % 1018,8 hPa 0,0 l/m² 6,4 km/h (2 Bft) S-SW 202 ° 13,1 °C 17,4 °C 9,7 km/h (2 Bft) 100,00 %
31.08.2026 23:32 17,5 °C 77 % 1018,8 hPa 0,0 l/m² 4,8 km/h (1 Bft) S-SW 202 ° 13,4 °C 17,5 °C 6,4 km/h (2 Bft) 100,00 %
31.08.2026 23:31 17,5 °C 76 % 1018,8 hPa 0,0 l/m² 6,4 km/h (2 Bft) S-SW 202 ° 13,2 °C 17,5 °C 8,0 km/h (2 Bft) 100,00 %
31.08.2026 23:30 17,5 °C 76 % 1018,9 hPa 0,0 l/m² 6,4 km/h (2 Bft) S-SW 202 ° 13,2 °C 17,5 °C 8,0 km/h (2 Bft) 100,00 %
31.08.2026 23:29 17,6 °C 76 % 1018,8 hPa 0,0 l/m² 6,4 km/h (2 Bft) S-SW 202 ° 13,3 °C 17,6 °C 8,0 km/h (2 Bft) 100,00 %
31.08.2026 23:28 17,6 °C 76 % 1018,8 hPa 0,0 l/m² 6,4 km/h (2 Bft) S-SW 202 ° 13,3 °C 17,6 °C 6,4 km/h (2 Bft) 100,00 %
31.08.2026 23:27 17,6 °C 76 % 1018,8 hPa 0,0 l/m² 6,4 km/h (2 Bft) S-SW 202 ° 13,3 °C 17,6 °C 8,0 km/h (2 Bft) 100,00 %
31.08.2026 23:26 17,7 °C 76 % 1018,8 hPa 0,0 l/m² 8,0 km/h (2 Bft) S-SW 202 ° 13,4 °C 16,9 °C 11,3 km/h (2 Bft) 100,00 %
31.08.2026 23:25 17,7 °C 76 % 1018,8 hPa 0,0 l/m² 6,4 km/h (2 Bft) S-SW 202 ° 13,4 °C 17,7 °C 9,7 km/h (2 Bft) 100,00 %
31.08.2026 23:24 17,7 °C 76 % 1018,8 hPa 0,0 l/m² 8,0 km/h (2 Bft) S-SW 202 ° 13,4 °C 16,9 °C 11,3 km/h (2 Bft) 100,00 %
31.08.2026 23:23 17,7 °C 76 % 1018,8 hPa 0,0 l/m² 6,4 km/h (2 Bft) S-SW 202 ° 13,4 °C 17,7 °C 8,0 km/h (2 Bft) 100,00 %
31.08.2026 23:22 17,7 °C 76 % 1018,8 hPa 0,0 l/m² 6,4 km/h (2 Bft) S-SW 202 ° 13,4 °C 17,7 °C 6,4 km/h (2 Bft) 100,00 %
31.08.2026 23:21 17,8 °C 76 % 1018,8 hPa 0,0 l/m² 8,0 km/h (2 Bft) S-SW 202 ° 13,5 °C 17,0 °C 9,7 km/h (2 Bft) 100,00 %
31.08.2026 23:20 17,8 °C 76 % 1018,9 hPa 0,0 l/m² 6,4 km/h (2 Bft) S-SW 202 ° 13,5 °C 17,8 °C 8,0 km/h (2 Bft) 100,00 %
31.08.2026 23:19 17,8 °C 76 % 1018,8 hPa 0,0 l/m² 8,0 km/h (2 Bft) S-SW 202 ° 13,5 °C 17,0 °C 11,3 km/h (2 Bft) 100,00 %
31.08.2026 23:18 17,8 °C 76 % 1018,9 hPa 0,0 l/m² 4,8 km/h (1 Bft) S-SW 202 ° 13,5 °C 17,8 °C 6,4 km/h (2 Bft) 95,65 %
31.08.2026 23:17 17,8 °C 76 % 1018,7 hPa 0,0 l/m² 6,4 km/h (2 Bft) S-SW 202 ° 13,5 °C 17,8 °C 9,7 km/h (2 Bft) 100,00 %
31.08.2026 23:16 17,8 °C 76 % 1018,7 hPa 0,0 l/m² 8,0 km/h (2 Bft) S-SW 202 ° 13,5 °C 17,0 °C 9,7 km/h (2 Bft) 100,00 %
31.08.2026 23:15 17,9 °C 76 % 1018,7 hPa 0,0 l/m² 8,0 km/h (2 Bft) S-SW 202 ° 13,6 °C 17,1 °C 8,0 km/h (2 Bft) 100,00 %
31.08.2026 23:14 17,9 °C 76 % 1018,7 hPa 0,0 l/m² 8,0 km/h (2 Bft) S-SW 202 ° 13,6 °C 17,1 °C 11,3 km/h (2 Bft) 100,00 %
31.08.2026 23:13 17,9 °C 76 % 1018,7 hPa 0,0 l/m² 8,0 km/h (2 Bft) S-SW 202 ° 13,6 °C 17,1 °C 11,3 km/h (2 Bft) 100,00 %
31.08.2026 23:12 17,9 °C 76 % 1018,8 hPa 0,0 l/m² 8,0 km/h (2 Bft) S-SW 202 ° 13,6 °C 17,1 °C 9,7 km/h (2 Bft) 100,00 %
31.08.2026 23:11 17,9 °C 76 % 1018,8 hPa 0,0 l/m² 9,7 km/h (2 Bft) S-SW 202 ° 13,6 °C 16,4 °C 11,3 km/h (2 Bft) 100,00 %
31.08.2026 23:10 18,0 °C 76 % 1018,8 hPa 0,0 l/m² 6,4 km/h (2 Bft) S-SW 202 ° 13,7 °C 18,0 °C 8,0 km/h (2 Bft) 95,65 %
31.08.2026 23:09 18,0 °C 76 % 1018,7 hPa 0,0 l/m² 8,0 km/h (2 Bft) S-SW 202 ° 13,7 °C 17,3 °C 8,0 km/h (2 Bft) 100,00 %
31.08.2026 23:08 18,1 °C 76 % 1018,8 hPa 0,0 l/m² 8,0 km/h (2 Bft) S-SW 202 ° 13,8 °C 17,4 °C 8,0 km/h (2 Bft) 100,00 %
31.08.2026 23:07 18,1 °C 76 % 1018,8 hPa 0,0 l/m² 9,7 km/h (2 Bft) S-SW 202 ° 13,8 °C 16,7 °C 11,3 km/h (2 Bft) 100,00 %
31.08.2026 23:06 18,1 °C 76 % 1018,8 hPa 0,0 l/m² 9,7 km/h (2 Bft) S-SW 202 ° 13,8 °C 16,7 °C 11,3 km/h (2 Bft) 95,65 %
31.08.2026 23:05 18,1 °C 76 % 1018,8 hPa 0,0 l/m² 9,7 km/h (2 Bft) S-SW 202 ° 13,8 °C 16,7 °C 12,9 km/h (3 Bft) 100,00 %
31.08.2026 23:04 18,1 °C 76 % 1018,8 hPa 0,0 l/m² 8,0 km/h (2 Bft) S-SW 202 ° 13,8 °C 17,4 °C 9,7 km/h (2 Bft) 95,65 %
31.08.2026 23:03 18,2 °C 76 % 1018,8 hPa 0,0 l/m² 11,3 km/h (2 Bft) S-SW 202 ° 13,9 °C 16,2 °C 14,5 km/h (3 Bft) 95,65 %
31.08.2026 23:02 18,2 °C 76 % 1018,8 hPa 0,0 l/m² 9,7 km/h (2 Bft) S-SW 202 ° 13,9 °C 16,8 °C 14,5 km/h (3 Bft) 100,00 %
31.08.2026 23:01 18,2 °C 76 % 1018,8 hPa 0,0 l/m² 14,5 km/h (3 Bft) S-SW 202 ° 13,9 °C 15,2 °C 16,1 km/h (3 Bft) 95,65 %
31.08.2026 23:00 18,2 °C 76 % 1018,8 hPa 0,0 l/m² 12,9 km/h (3 Bft) S-SW 202 ° 13,9 °C 15,7 °C 16,1 km/h (3 Bft) 100,00 %
31.08.2026 22:59 18,2 °C 76 % 1018,8 hPa 0,0 l/m² 9,7 km/h (2 Bft) S-SW 202 ° 13,9 °C 16,8 °C 12,9 km/h (3 Bft) 95,65 %
31.08.2026 22:58 18,2 °C 76 % 1018,8 hPa 0,0 l/m² 8,0 km/h (2 Bft) S-SW 202 ° 13,9 °C 17,5 °C 9,7 km/h (2 Bft) 100,00 %
31.08.2026 22:57 18,2 °C 76 % 1018,8 hPa 0,0 l/m² 8,0 km/h (2 Bft) S-SW 202 ° 13,9 °C 17,5 °C 11,3 km/h (2 Bft) 100,00 %
31.08.2026 22:56 18,2 °C 76 % 1018,8 hPa 0,0 l/m² 9,7 km/h (2 Bft) S-SW 202 ° 13,9 °C 16,8 °C 11,3 km/h (2 Bft) 95,65 %
31.08.2026 22:55 18,3 °C 76 % 1018,8 hPa 0,0 l/m² 8,0 km/h (2 Bft) S-SW 202 ° 14,0 °C 17,6 °C 9,7 km/h (2 Bft) 100,00 %
31.08.2026 22:54 18,3 °C 76 % 1018,7 hPa 0,0 l/m² 8,0 km/h (2 Bft) S-SW 202 ° 14,0 °C 17,6 °C 9,7 km/h (2 Bft) 95,65 %
31.08.2026 22:53 18,3 °C 76 % 1018,8 hPa 0,0 l/m² 8,0 km/h (2 Bft) S-SW 202 ° 14,0 °C 17,6 °C 9,7 km/h (2 Bft) 100,00 %
31.08.2026 22:52 18,4 °C 76 % 1018,8 hPa 0,0 l/m² 8,0 km/h (2 Bft) S-SW 202 ° 14,1 °C 17,7 °C 9,7 km/h (2 Bft) 100,00 %
31.08.2026 22:51 18,4 °C 76 % 1018,8 hPa 0,0 l/m² 8,0 km/h (2 Bft) S-SW 202 ° 14,1 °C 17,7 °C 9,7 km/h (2 Bft) 100,00 %
31.08.2026 22:50 18,4 °C 76 % 1018,8 hPa 0,0 l/m² 9,7 km/h (2 Bft) S-SW 202 ° 14,1 °C 17,0 °C 12,9 km/h (3 Bft) 95,65 %
31.08.2026 22:49 18,4 °C 75 % 1018,8 hPa 0,0 l/m² 8,0 km/h (2 Bft) S-SW 202 ° 13,9 °C 17,7 °C 11,3 km/h (2 Bft) 95,65 %
31.08.2026 22:48 18,4 °C 75 % 1018,8 hPa 0,0 l/m² 9,7 km/h (2 Bft) S-SW 202 ° 13,9 °C 17,0 °C 12,9 km/h (3 Bft) 100,00 %
31.08.2026 22:47 18,4 °C 75 % 1018,7 hPa 0,0 l/m² 9,7 km/h (2 Bft) S-SW 202 ° 13,9 °C 17,0 °C 12,9 km/h (3 Bft) 100,00 %
31.08.2026 22:46 18,5 °C 75 % 1018,7 hPa 0,0 l/m² 8,0 km/h (2 Bft) S-SW 202 ° 14,0 °C 17,8 °C 9,7 km/h (2 Bft) 100,00 %
31.08.2026 22:45 18,5 °C 76 % 1018,7 hPa 0,0 l/m² 12,9 km/h (3 Bft) S-SW 202 ° 14,2 °C 16,0 °C 16,1 km/h (3 Bft) 95,65 %
31.08.2026 22:44 18,5 °C 76 % 1018,7 hPa 0,0 l/m² 9,7 km/h (2 Bft) S-SW 202 ° 14,2 °C 17,1 °C 12,9 km/h (3 Bft) 100,00 %
31.08.2026 22:43 18,6 °C 76 % 1018,7 hPa 0,0 l/m² 9,7 km/h (2 Bft) S-SW 202 ° 14,3 °C 17,2 °C 12,9 km/h (3 Bft) 100,00 %
31.08.2026 22:42 18,6 °C 76 % 1018,7 hPa 0,0 l/m² 9,7 km/h (2 Bft) S-SW 202 ° 14,3 °C 17,2 °C 14,5 km/h (3 Bft) 100,00 %
31.08.2026 22:41 18,6 °C 76 % 1018,6 hPa 0,0 l/m² 11,3 km/h (2 Bft) S-SW 202 ° 14,3 °C 16,6 °C 17,7 km/h (3 Bft) 100,00 %
31.08.2026 22:40 18,6 °C 75 % 1018,5 hPa 0,0 l/m² 9,7 km/h (2 Bft) S-SW 202 ° 14,1 °C 17,2 °C 14,5 km/h (3 Bft) 100,00 %
31.08.2026 22:39 18,6 °C 76 % 1018,5 hPa 0,0 l/m² 12,9 km/h (3 Bft) S-SW 202 ° 14,3 °C 16,1 °C 19,3 km/h (3 Bft) 100,00 %
31.08.2026 22:38 18,6 °C 75 % 1018,4 hPa 0,0 l/m² 9,7 km/h (2 Bft) S-SW 202 ° 14,1 °C 17,2 °C 12,9 km/h (3 Bft) 100,00 %
31.08.2026 22:37 18,6 °C 75 % 1018,3 hPa 0,0 l/m² 12,9 km/h (3 Bft) S 180 ° 14,1 °C 16,1 °C 17,7 km/h (3 Bft) 100,00 %
31.08.2026 22:36 18,6 °C 75 % 1018,4 hPa 0,0 l/m² 9,7 km/h (2 Bft) S-SW 202 ° 14,1 °C 17,2 °C 16,1 km/h (3 Bft) 95,65 %
31.08.2026 22:35 18,6 °C 75 % 1018,4 hPa 0,0 l/m² 9,7 km/h (2 Bft) S-SW 202 ° 14,1 °C 17,2 °C 11,3 km/h (2 Bft) 95,65 %
31.08.2026 22:34 18,6 °C 75 % 1018,3 hPa 0,0 l/m² 8,0 km/h (2 Bft) S-SW 202 ° 14,1 °C 17,9 °C 9,7 km/h (2 Bft) 95,65 %
31.08.2026 22:33 18,7 °C 75 % 1018,2 hPa 0,0 l/m² 8,0 km/h (2 Bft) S-SW 202 ° 14,2 °C 18,0 °C 11,3 km/h (2 Bft) 100,00 %
31.08.2026 22:32 18,7 °C 75 % 1018,2 hPa 0,0 l/m² 8,0 km/h (2 Bft) S-SW 202 ° 14,2 °C 18,0 °C 9,7 km/h (2 Bft) 100,00 %
31.08.2026 22:31 18,7 °C 75 % 1018,2 hPa 0,0 l/m² 9,7 km/h (2 Bft) S-SW 202 ° 14,2 °C 17,3 °C 11,3 km/h (2 Bft) 100,00 %
31.08.2026 22:30 18,7 °C 75 % 1018,2 hPa 0,0 l/m² 12,9 km/h (3 Bft) S-SW 202 ° 14,2 °C 16,3 °C 14,5 km/h (3 Bft) 95,65 %
31.08.2026 22:29 18,8 °C 75 % 1018,2 hPa 0,0 l/m² 9,7 km/h (2 Bft) S-SW 202 ° 14,3 °C 17,4 °C 12,9 km/h (3 Bft) 100,00 %
31.08.2026 22:28 18,9 °C 74 % 1018,2 hPa 0,0 l/m² 8,0 km/h (2 Bft) S-SW 202 ° 14,2 °C 18,2 °C 9,7 km/h (2 Bft) 100,00 %
31.08.2026 22:27 18,9 °C 74 % 1018,2 hPa 0,0 l/m² 8,0 km/h (2 Bft) S-SW 202 ° 14,2 °C 18,2 °C 12,9 km/h (3 Bft) 100,00 %
31.08.2026 22:26 19,0 °C 73 % 1018,2 hPa 0,0 l/m² 8,0 km/h (2 Bft) S-SW 202 ° 14,0 °C 18,3 °C 9,7 km/h (2 Bft) 100,00 %
31.08.2026 22:25 19,1 °C 73 % 1018,2 hPa 0,0 l/m² 9,7 km/h (2 Bft) S-SW 202 ° 14,1 °C 17,8 °C 12,9 km/h (3 Bft) 95,65 %
31.08.2026 22:24 19,2 °C 72 % 1018,3 hPa 0,0 l/m² 8,0 km/h (2 Bft) S-SW 202 ° 14,0 °C 18,5 °C 11,3 km/h (2 Bft) 100,00 %
31.08.2026 22:23 19,2 °C 72 % 1018,2 hPa 0,0 l/m² 8,0 km/h (2 Bft) S-SW 202 ° 14,0 °C 18,5 °C 9,7 km/h (2 Bft) 95,65 %
31.08.2026 22:22 19,3 °C 71 % 1018,3 hPa 0,0 l/m² 6,4 km/h (2 Bft) S-SW 202 ° 13,9 °C 19,3 °C 9,7 km/h (2 Bft) 100,00 %
31.08.2026 22:21 19,4 °C 70 % 1018,2 hPa 0,0 l/m² 6,4 km/h (2 Bft) S-SW 202 ° 13,8 °C 19,4 °C 8,0 km/h (2 Bft) 100,00 %
31.08.2026 22:20 19,4 °C 69 % 1018,2 hPa 0,0 l/m² 6,4 km/h (2 Bft) S-SW 202 ° 13,6 °C 19,4 °C 8,0 km/h (2 Bft) 100,00 %
31.08.2026 22:19 19,4 °C 69 % 1018,2 hPa 0,0 l/m² 4,8 km/h (1 Bft) S-SW 202 ° 13,6 °C 19,4 °C 6,4 km/h (2 Bft) 100,00 %
31.08.2026 22:18 19,5 °C 69 % 1018,2 hPa 0,0 l/m² 4,8 km/h (1 Bft) S-SW 202 ° 13,7 °C 19,5 °C 6,4 km/h (2 Bft) 100,00 %
31.08.2026 22:17 19,6 °C 68 % 1018,3 hPa 0,0 l/m² 4,8 km/h (1 Bft) S-SW 202 ° 13,5 °C 19,6 °C 4,8 km/h (1 Bft) 95,65 %
31.08.2026 22:16 19,6 °C 68 % 1018,3 hPa 0,0 l/m² 4,8 km/h (1 Bft) S-SW 202 ° 13,5 °C 19,6 °C 6,4 km/h (2 Bft) 100,00 %
31.08.2026 22:15 19,6 °C 67 % 1018,2 hPa 0,0 l/m² 4,8 km/h (1 Bft) S-SW 202 ° 13,3 °C 19,6 °C 6,4 km/h (2 Bft) 95,65 %
31.08.2026 22:14 19,6 °C 67 % 1018,3 hPa 0,0 l/m² 6,4 km/h (2 Bft) S-SW 202 ° 13,3 °C 19,6 °C 8,0 km/h (2 Bft) 100,00 %
31.08.2026 22:13 19,7 °C 67 % 1018,3 hPa 0,0 l/m² 8,0 km/h (2 Bft) S-SW 202 ° 13,4 °C 19,0 °C 9,7 km/h (2 Bft) 100,00 %
31.08.2026 22:12 19,7 °C 67 % 1018,2 hPa 0,0 l/m² 4,8 km/h (1 Bft) S-SW 202 ° 13,4 °C 19,7 °C 6,4 km/h (2 Bft) 100,00 %
31.08.2026 22:11 19,8 °C 67 % 1018,2 hPa 0,0 l/m² 6,4 km/h (2 Bft) S-SW 202 ° 13,5 °C 19,8 °C 6,4 km/h (2 Bft) 100,00 %
31.08.2026 22:10 19,8 °C 66 % 1018,3 hPa 0,0 l/m² 6,4 km/h (2 Bft) S-SW 202 ° 13,3 °C 19,8 °C 8,0 km/h (2 Bft) 95,65 %
31.08.2026 22:09 19,9 °C 67 % 1018,2 hPa 0,0 l/m² 8,0 km/h (2 Bft) S-SW 202 ° 13,6 °C 19,2 °C 9,7 km/h (2 Bft) 100,00 %
31.08.2026 22:08 19,9 °C 67 % 1018,2 hPa 0,0 l/m² 8,0 km/h (2 Bft) S-SW 202 ° 13,6 °C 19,2 °C 9,7 km/h (2 Bft) 100,00 %
31.08.2026 22:07 19,9 °C 67 % 1018,3 hPa 0,0 l/m² 8,0 km/h (2 Bft) SW 225 ° 13,6 °C 19,2 °C 9,7 km/h (2 Bft) 100,00 %
31.08.2026 22:06 19,9 °C 66 % 1018,2 hPa 0,0 l/m² 8,0 km/h (2 Bft) S-SW 202 ° 13,4 °C 19,2 °C 11,3 km/h (2 Bft) 100,00 %
31.08.2026 22:05 19,9 °C 66 % 1018,3 hPa 0,0 l/m² 9,7 km/h (2 Bft) SW 225 ° 13,4 °C 18,6 °C 12,9 km/h (3 Bft) 95,65 %
31.08.2026 22:04 19,9 °C 65 % 1018,3 hPa 0,0 l/m² 8,0 km/h (2 Bft) SW 225 ° 13,1 °C 19,2 °C 11,3 km/h (2 Bft) 100,00 %
31.08.2026 22:03 19,9 °C 65 % 1018,3 hPa 0,0 l/m² 11,3 km/h (2 Bft) SW 225 ° 13,1 °C 18,1 °C 16,1 km/h (3 Bft) 95,65 %
31.08.2026 22:02 20,0 °C 66 % 1018,2 hPa 0,0 l/m² 11,3 km/h (2 Bft) SW 225 ° 13,4 °C 18,2 °C 16,1 km/h (3 Bft) 100,00 %
31.08.2026 22:01 20,0 °C 66 % 1018,3 hPa 0,0 l/m² 9,7 km/h (2 Bft) S-SW 202 ° 13,4 °C 18,7 °C 14,5 km/h (3 Bft) 100,00 %
31.08.2026 22:00 20,0 °C 66 % 1018,3 hPa 0,0 l/m² 9,7 km/h (2 Bft) S-SW 202 ° 13,4 °C 18,7 °C 12,9 km/h (3 Bft) 100,00 %
31.08.2026 21:59 20,0 °C 66 % 1018,2 hPa 0,0 l/m² 11,3 km/h (2 Bft) SW 225 ° 13,4 °C 18,2 °C 14,5 km/h (3 Bft) 100,00 %
31.08.2026 21:58 20,0 °C 67 % 1018,3 hPa 0,0 l/m² 11,3 km/h (2 Bft) SW 225 ° 13,7 °C 18,2 °C 14,5 km/h (3 Bft) 100,00 %
31.08.2026 21:57 20,1 °C 67 % 1018,3 hPa 0,0 l/m² 8,0 km/h (2 Bft) S-SW 202 ° 13,8 °C 19,5 °C 9,7 km/h (2 Bft) 100,00 %
31.08.2026 21:56 20,1 °C 67 % 1018,2 hPa 0,0 l/m² 6,4 km/h (2 Bft) S-SW 202 ° 13,8 °C 20,1 °C 9,7 km/h (2 Bft) 100,00 %
31.08.2026 21:55 20,1 °C 67 % 1018,1 hPa 0,0 l/m² 8,0 km/h (2 Bft) SW 225 ° 13,8 °C 19,5 °C 9,7 km/h (2 Bft) 100,00 %
31.08.2026 21:54 20,1 °C 66 % 1018,1 hPa 0,0 l/m² 8,0 km/h (2 Bft) SW 225 ° 13,5 °C 19,5 °C 11,3 km/h (2 Bft) 95,65 %
31.08.2026 21:53 20,1 °C 66 % 1018,1 hPa 0,0 l/m² 6,4 km/h (2 Bft) SW 225 ° 13,5 °C 20,1 °C 11,3 km/h (2 Bft) 100,00 %
31.08.2026 21:52 20,1 °C 65 % 1018,0 hPa 0,0 l/m² 6,4 km/h (2 Bft) SW 225 ° 13,3 °C 20,1 °C 11,3 km/h (2 Bft) 100,00 %
31.08.2026 21:51 20,1 °C 65 % 1017,9 hPa 0,0 l/m² 6,4 km/h (2 Bft) SW 225 ° 13,3 °C 20,1 °C 9,7 km/h (2 Bft) 95,65 %
31.08.2026 21:50 20,1 °C 64 % 1017,9 hPa 0,0 l/m² 6,4 km/h (2 Bft) SW 225 ° 13,1 °C 20,1 °C 9,7 km/h (2 Bft) 100,00 %
31.08.2026 21:49 20,2 °C 65 % 1017,9 hPa 0,0 l/m² 8,0 km/h (2 Bft) SW 225 ° 13,4 °C 19,6 °C 9,7 km/h (2 Bft) 100,00 %
31.08.2026 21:48 20,2 °C 65 % 1017,8 hPa 0,0 l/m² 9,7 km/h (2 Bft) SW 225 ° 13,4 °C 19,0 °C 12,9 km/h (3 Bft) 100,00 %
31.08.2026 21:47 20,2 °C 64 % 1017,9 hPa 0,0 l/m² 8,0 km/h (2 Bft) SW 225 ° 13,2 °C 19,6 °C 12,9 km/h (3 Bft) 100,00 %
31.08.2026 21:46 20,2 °C 64 % 1018,0 hPa 0,0 l/m² 6,4 km/h (2 Bft) SW 225 ° 13,2 °C 20,2 °C 9,7 km/h (2 Bft) 95,65 %
31.08.2026 21:45 20,2 °C 64 % 1017,8 hPa 0,0 l/m² 6,4 km/h (2 Bft) SW 225 ° 13,2 °C 20,2 °C 9,7 km/h (2 Bft) 100,00 %
31.08.2026 21:44 20,3 °C 64 % 1017,9 hPa 0,0 l/m² 3,2 km/h (1 Bft) SW 225 ° 13,3 °C 20,3 °C 8,0 km/h (2 Bft) 100,00 %
31.08.2026 21:43 20,3 °C 65 % 1017,9 hPa 0,0 l/m² 4,8 km/h (1 Bft) SW 225 ° 13,5 °C 20,3 °C 6,4 km/h (2 Bft) 100,00 %
31.08.2026 21:42 20,3 °C 65 % 1018,0 hPa 0,0 l/m² 1,6 km/h (1 Bft) S-SW 202 ° 13,5 °C 20,3 °C 4,8 km/h (1 Bft) 100,00 %
31.08.2026 21:41 20,4 °C 64 % 1017,9 hPa 0,0 l/m² 4,8 km/h (1 Bft) W-SW 247 ° 13,4 °C 20,4 °C 8,0 km/h (2 Bft) 100,00 %
31.08.2026 21:40 20,4 °C 64 % 1017,9 hPa 0,0 l/m² 3,2 km/h (1 Bft) W-SW 247 ° 13,4 °C 20,4 °C 4,8 km/h (1 Bft) 100,00 %
31.08.2026 21:39 20,4 °C 63 % 1017,9 hPa 0,0 l/m² 3,2 km/h (1 Bft) W 270 ° 13,1 °C 20,4 °C 4,8 km/h (1 Bft) 100,00 %
31.08.2026 21:38 20,5 °C 63 % 1017,9 hPa 0,0 l/m² 3,2 km/h (1 Bft) W-SW 247 ° 13,2 °C 20,5 °C 6,4 km/h (2 Bft) 100,00 %
31.08.2026 21:37 20,6 °C 63 % 1017,9 hPa 0,0 l/m² 3,2 km/h (1 Bft) W-SW 247 ° 13,3 °C 20,6 °C 4,8 km/h (1 Bft) 100,00 %
31.08.2026 21:36 20,6 °C 63 % 1017,9 hPa 0,0 l/m² 3,2 km/h (1 Bft) SW 225 ° 13,3 °C 20,6 °C 6,4 km/h (2 Bft) 100,00 %
31.08.2026 21:35 20,6 °C 63 % 1017,9 hPa 0,0 l/m² 4,8 km/h (1 Bft) W-NW 292 ° 13,3 °C 20,6 °C 6,4 km/h (2 Bft) 100,00 %
31.08.2026 21:34 20,7 °C 62 % 1017,9 hPa 0,0 l/m² 3,2 km/h (1 Bft) W-SW 247 ° 13,2 °C 20,7 °C 6,4 km/h (2 Bft) 100,00 %
31.08.2026 21:33 20,7 °C 62 % 1017,9 hPa 0,0 l/m² 4,8 km/h (1 Bft) W 270 ° 13,2 °C 20,7 °C 11,3 km/h (2 Bft) 100,00 %
31.08.2026 21:32 20,7 °C 62 % 1017,9 hPa 0,0 l/m² 4,8 km/h (1 Bft) W-SW 247 ° 13,2 °C 20,7 °C 9,7 km/h (2 Bft) 100,00 %
31.08.2026 21:31 20,8 °C 62 % 1017,9 hPa 0,0 l/m² 6,4 km/h (2 Bft) W 270 ° 13,2 °C 20,8 °C 9,7 km/h (2 Bft) 100,00 %
31.08.2026 21:30 20,8 °C 62 % 1017,9 hPa 0,0 l/m² 8,0 km/h (2 Bft) W 270 ° 13,2 °C 20,2 °C 11,3 km/h (2 Bft) 100,00 %
31.08.2026 21:29 20,9 °C 62 % 1018,0 hPa 0,0 l/m² 6,4 km/h (2 Bft) W 270 ° 13,3 °C 20,9 °C 11,3 km/h (2 Bft) 95,65 %
31.08.2026 21:28 20,9 °C 61 % 1018,0 hPa 0,0 l/m² 4,8 km/h (1 Bft) W-NW 292 ° 13,1 °C 20,9 °C 9,7 km/h (2 Bft) 100,00 %
31.08.2026 21:27 20,9 °C 61 % 1018,0 hPa 0,0 l/m² 8,0 km/h (2 Bft) W 270 ° 13,1 °C 20,3 °C 12,9 km/h (3 Bft) 100,00 %
31.08.2026 21:26 21,1 °C 60 % 1017,9 hPa 0,0 l/m² 6,4 km/h (2 Bft) SW 225 ° 13,0 °C 21,1 °C 11,3 km/h (2 Bft) 100,00 %
31.08.2026 21:25 21,1 °C 60 % 1017,9 hPa 0,0 l/m² 6,4 km/h (2 Bft) W-SW 247 ° 13,0 °C 21,1 °C 11,3 km/h (2 Bft) 100,00 %
31.08.2026 21:24 21,1 °C 59 % 1018,0 hPa 0,0 l/m² 11,3 km/h (2 Bft) W-SW 247 ° 12,8 °C 19,5 °C 17,7 km/h (3 Bft) 100,00 %
31.08.2026 21:23 21,1 °C 59 % 1018,0 hPa 0,0 l/m² 12,9 km/h (3 Bft) W 270 ° 12,8 °C 19,1 °C 20,9 km/h (4 Bft) 100,00 %
31.08.2026 21:22 21,2 °C 59 % 1018,0 hPa 0,0 l/m² 14,5 km/h (3 Bft) W 270 ° 12,9 °C 18,8 °C 22,5 km/h (4 Bft) 100,00 %
31.08.2026 21:21 21,3 °C 59 % 1018,0 hPa 0,0 l/m² 14,5 km/h (3 Bft) W 270 ° 13,0 °C 18,9 °C 20,9 km/h (4 Bft) 100,00 %
31.08.2026 21:20 21,3 °C 59 % 1018,0 hPa 0,0 l/m² 14,5 km/h (3 Bft) W-SW 247 ° 13,0 °C 18,9 °C 22,5 km/h (4 Bft) 95,65 %
31.08.2026 21:19 21,4 °C 59 % 1018,0 hPa 0,0 l/m² 16,1 km/h (3 Bft) W-SW 247 ° 13,0 °C 18,7 °C 22,5 km/h (4 Bft) 100,00 %
31.08.2026 21:18 21,5 °C 59 % 1017,9 hPa 0,0 l/m² 12,9 km/h (3 Bft) W 270 ° 13,1 °C 19,5 °C 20,9 km/h (4 Bft) 100,00 %
31.08.2026 21:17 21,7 °C 58 % 1017,9 hPa 0,0 l/m² 11,3 km/h (2 Bft) W 270 ° 13,1 °C 20,2 °C 17,7 km/h (3 Bft) 100,00 %
31.08.2026 21:16 21,8 °C 58 % 1017,8 hPa 0,0 l/m² 14,5 km/h (3 Bft) W 270 ° 13,2 °C 19,5 °C 20,9 km/h (4 Bft) 100,00 %
31.08.2026 21:15 21,9 °C 58 % 1017,7 hPa 0,0 l/m² 12,9 km/h (3 Bft) W 270 ° 13,3 °C 20,0 °C 24,1 km/h (4 Bft) 100,00 %
31.08.2026 21:14 21,9 °C 57 % 1017,7 hPa 0,0 l/m² 16,1 km/h (3 Bft) W-SW 247 ° 13,0 °C 19,3 °C 25,7 km/h (4 Bft) 100,00 %
31.08.2026 21:13 22,1 °C 56 % 1017,7 hPa 0,0 l/m² 17,7 km/h (3 Bft) W 270 ° 12,9 °C 19,3 °C 25,7 km/h (4 Bft) 95,65 %
31.08.2026 21:12 22,1 °C 56 % 1017,6 hPa 0,0 l/m² 16,1 km/h (3 Bft) W 270 ° 12,9 °C 19,6 °C 22,5 km/h (4 Bft) 100,00 %
31.08.2026 21:11 22,2 °C 55 % 1017,5 hPa 0,0 l/m² 14,5 km/h (3 Bft) W 270 ° 12,7 °C 20,0 °C 24,1 km/h (4 Bft) 100,00 %
31.08.2026 21:10 22,2 °C 55 % 1017,5 hPa 0,0 l/m² 9,7 km/h (2 Bft) W 270 ° 12,7 °C 21,2 °C 19,3 km/h (3 Bft) 95,65 %
31.08.2026 21:09 22,2 °C 55 % 1017,5 hPa 0,0 l/m² 12,9 km/h (3 Bft) W-SW 247 ° 12,7 °C 20,4 °C 22,5 km/h (4 Bft) 100,00 %
31.08.2026 21:08 22,2 °C 55 % 1017,5 hPa 0,0 l/m² 12,9 km/h (3 Bft) W 270 ° 12,7 °C 20,4 °C 19,3 km/h (3 Bft) 95,65 %
31.08.2026 21:07 22,3 °C 55 % 1017,5 hPa 0,0 l/m² 12,9 km/h (3 Bft) W-SW 247 ° 12,8 °C 20,5 °C 22,5 km/h (4 Bft) 100,00 %
31.08.2026 21:06 22,3 °C 55 % 1017,5 hPa 0,0 l/m² 11,3 km/h (2 Bft) W-SW 247 ° 12,8 °C 20,8 °C 16,1 km/h (3 Bft) 100,00 %
31.08.2026 21:05 22,3 °C 56 % 1017,5 hPa 0,0 l/m² 11,3 km/h (2 Bft) W-SW 247 ° 13,1 °C 20,8 °C 17,7 km/h (3 Bft) 95,65 %
31.08.2026 21:04 22,3 °C 56 % 1017,5 hPa 0,0 l/m² 9,7 km/h (2 Bft) W 270 ° 13,1 °C 21,3 °C 17,7 km/h (3 Bft) 100,00 %
31.08.2026 21:03 22,3 °C 56 % 1017,4 hPa 0,0 l/m² 8,0 km/h (2 Bft) W 270 ° 13,1 °C 21,8 °C 12,9 km/h (3 Bft) 100,00 %
31.08.2026 21:02 22,3 °C 55 % 1017,4 hPa 0,0 l/m² 9,7 km/h (2 Bft) W 270 ° 12,8 °C 21,3 °C 16,1 km/h (3 Bft) 100,00 %
31.08.2026 21:01 22,3 °C 55 % 1017,4 hPa 0,0 l/m² 12,9 km/h (3 Bft) W 270 ° 12,8 °C 20,5 °C 17,7 km/h (3 Bft) 100,00 %
31.08.2026 21:00 22,3 °C 55 % 1017,4 hPa 0,0 l/m² 6,4 km/h (2 Bft) W 270 ° 12,8 °C 22,3 °C 19,3 km/h (3 Bft) 100,00 %
31.08.2026 20:59 22,4 °C 56 % 1017,4 hPa 0,0 l/m² 9,7 km/h (2 Bft) W 270 ° 13,2 °C 21,4 °C 16,1 km/h (3 Bft) 100,00 %
31.08.2026 20:58 22,3 °C 56 % 1017,4 hPa 0,0 l/m² 11,3 km/h (2 Bft) W 270 ° 13,1 °C 20,8 °C 16,1 km/h (3 Bft) 100,00 %
31.08.2026 20:57 22,4 °C 56 % 1017,4 hPa 0,0 l/m² 8,0 km/h (2 Bft) SW 225 ° 13,2 °C 21,9 °C 16,1 km/h (3 Bft) 100,00 %
31.08.2026 20:56 22,4 °C 56 % 1017,4 hPa 0,0 l/m² 11,3 km/h (2 Bft) W 270 ° 13,2 °C 21,0 °C 19,3 km/h (3 Bft) 100,00 %
31.08.2026 20:55 22,4 °C 56 % 1017,3 hPa 0,0 l/m² 9,7 km/h (2 Bft) W 270 ° 13,2 °C 21,4 °C 16,1 km/h (3 Bft) 100,00 %
31.08.2026 20:54 22,4 °C 56 % 1017,4 hPa 0,0 l/m² 11,3 km/h (2 Bft) W 270 ° 13,2 °C 21,0 °C 17,7 km/h (3 Bft) 100,00 %
31.08.2026 20:53 22,4 °C 56 % 1017,2 hPa 0,0 l/m² 11,3 km/h (2 Bft) W 270 ° 13,2 °C 21,0 °C 17,7 km/h (3 Bft) 100,00 %
31.08.2026 20:52 22,4 °C 56 % 1017,2 hPa 0,0 l/m² 11,3 km/h (2 Bft) W 270 ° 13,2 °C 21,0 °C 16,1 km/h (3 Bft) 100,00 %
31.08.2026 20:51 22,5 °C 56 % 1017,1 hPa 0,0 l/m² 11,3 km/h (2 Bft) W 270 ° 13,3 °C 21,1 °C 17,7 km/h (3 Bft) 95,65 %
31.08.2026 20:50 22,4 °C 56 % 1017,0 hPa 0,0 l/m² 9,7 km/h (2 Bft) W 270 ° 13,2 °C 21,4 °C 17,7 km/h (3 Bft) 100,00 %
31.08.2026 20:49 22,4 °C 56 % 1017,1 hPa 0,0 l/m² 12,9 km/h (3 Bft) W 270 ° 13,2 °C 20,6 °C 16,1 km/h (3 Bft) 100,00 %
31.08.2026 20:48 22,5 °C 56 % 1016,9 hPa 0,0 l/m² 8,0 km/h (2 Bft) W-SW 247 ° 13,3 °C 22,0 °C 14,5 km/h (3 Bft) 95,65 %
31.08.2026 20:47 22,5 °C 56 % 1016,9 hPa 0,0 l/m² 11,3 km/h (2 Bft) W 270 ° 13,3 °C 21,1 °C 19,3 km/h (3 Bft) 100,00 %
31.08.2026 20:46 22,5 °C 56 % 1016,7 hPa 0,0 l/m² 9,7 km/h (2 Bft) W-NW 292 ° 13,3 °C 21,5 °C 17,7 km/h (3 Bft) 95,65 %
31.08.2026 20:45 22,5 °C 57 % 1016,7 hPa 0,0 l/m² 11,3 km/h (2 Bft) W-SW 247 ° 13,5 °C 21,1 °C 17,7 km/h (3 Bft) 100,00 %
31.08.2026 20:44 22,5 °C 57 % 1016,6 hPa 0,0 l/m² 6,4 km/h (2 Bft) W 270 ° 13,5 °C 22,5 °C 11,3 km/h (2 Bft) 100,00 %
31.08.2026 20:43 22,5 °C 56 % 1016,5 hPa 0,0 l/m² 8,0 km/h (2 Bft) W 270 ° 13,3 °C 22,0 °C 14,5 km/h (3 Bft) 100,00 %
31.08.2026 20:42 22,5 °C 57 % 1016,5 hPa 0,0 l/m² 9,7 km/h (2 Bft) W 270 ° 13,5 °C 21,5 °C 12,9 km/h (3 Bft) 100,00 %
31.08.2026 20:41 22,5 °C 57 % 1016,4 hPa 0,0 l/m² 9,7 km/h (2 Bft) W-SW 247 ° 13,5 °C 21,5 °C 14,5 km/h (3 Bft) 100,00 %
31.08.2026 20:40 22,5 °C 57 % 1016,3 hPa 0,0 l/m² 11,3 km/h (2 Bft) W 270 ° 13,5 °C 21,1 °C 17,7 km/h (3 Bft) 100,00 %
31.08.2026 20:39 22,5 °C 57 % 1016,3 hPa 0,0 l/m² 6,4 km/h (2 Bft) W-NW 292 ° 13,5 °C 22,5 °C 12,9 km/h (3 Bft) 95,65 %
31.08.2026 20:38 22,5 °C 56 % 1016,3 hPa 0,0 l/m² 11,3 km/h (2 Bft) W 270 ° 13,3 °C 21,1 °C 19,3 km/h (3 Bft) 100,00 %
31.08.2026 20:37 22,5 °C 57 % 1016,3 hPa 0,0 l/m² 6,4 km/h (2 Bft) W 270 ° 13,5 °C 22,5 °C 11,3 km/h (2 Bft) 100,00 %
31.08.2026 20:36 22,6 °C 57 % 1016,3 hPa 0,0 l/m² 11,3 km/h (2 Bft) W 270 ° 13,6 °C 21,2 °C 16,1 km/h (3 Bft) 100,00 %
31.08.2026 20:35 22,5 °C 58 % 1016,4 hPa 0,0 l/m² 9,7 km/h (2 Bft) W 270 ° 13,8 °C 21,5 °C 14,5 km/h (3 Bft) 100,00 %
31.08.2026 20:34 22,5 °C 58 % 1016,4 hPa 0,0 l/m² 4,8 km/h (1 Bft) W-SW 247 ° 13,8 °C 22,5 °C 6,4 km/h (2 Bft) 100,00 %
31.08.2026 20:33 22,6 °C 58 % 1016,4 hPa 0,0 l/m² 6,4 km/h (2 Bft) W 270 ° 13,9 °C 22,6 °C 11,3 km/h (2 Bft) 100,00 %
31.08.2026 20:32 22,6 °C 58 % 1016,4 hPa 0,0 l/m² 9,7 km/h (2 Bft) W 270 ° 13,9 °C 21,6 °C 16,1 km/h (3 Bft) 100,00 %
31.08.2026 20:31 22,6 °C 58 % 1016,5 hPa 0,0 l/m² 9,7 km/h (2 Bft) W-SW 247 ° 13,9 °C 21,6 °C 12,9 km/h (3 Bft) 95,65 %
31.08.2026 20:30 22,5 °C 58 % 1016,3 hPa 0,0 l/m² 6,4 km/h (2 Bft) W-SW 247 ° 13,8 °C 22,5 °C 12,9 km/h (3 Bft) 100,00 %
31.08.2026 20:29 22,6 °C 58 % 1016,3 hPa 0,0 l/m² 11,3 km/h (2 Bft) W 270 ° 13,9 °C 21,2 °C 16,1 km/h (3 Bft) 100,00 %
31.08.2026 20:28 22,6 °C 59 % 1016,3 hPa 0,0 l/m² 8,0 km/h (2 Bft) W 270 ° 14,2 °C 22,1 °C 12,9 km/h (3 Bft) 100,00 %
31.08.2026 20:27 22,6 °C 59 % 1016,3 hPa 0,0 l/m² 6,4 km/h (2 Bft) W 270 ° 14,2 °C 22,6 °C 12,9 km/h (3 Bft) 100,00 %
31.08.2026 20:26 22,6 °C 60 % 1016,3 hPa 0,0 l/m² 6,4 km/h (2 Bft) W-SW 247 ° 14,4 °C 22,6 °C 11,3 km/h (2 Bft) 100,00 %
31.08.2026 20:25 22,7 °C 59 % 1016,3 hPa 0,0 l/m² 4,8 km/h (1 Bft) W 270 ° 14,3 °C 22,7 °C 6,4 km/h (2 Bft) 100,00 %
31.08.2026 20:24 22,7 °C 59 % 1016,3 hPa 0,0 l/m² 6,4 km/h (2 Bft) W-SW 247 ° 14,3 °C 22,7 °C 9,7 km/h (2 Bft) 100,00 %
31.08.2026 20:23 22,7 °C 59 % 1016,3 hPa 0,0 l/m² 4,8 km/h (1 Bft) W-SW 247 ° 14,3 °C 22,7 °C 6,4 km/h (2 Bft) 100,00 %
31.08.2026 20:22 22,7 °C 59 % 1016,3 hPa 0,0 l/m² 6,4 km/h (2 Bft) W 270 ° 14,3 °C 22,7 °C 12,9 km/h (3 Bft) 100,00 %
31.08.2026 20:21 22,7 °C 59 % 1016,3 hPa 0,0 l/m² 4,8 km/h (1 Bft) W 270 ° 14,3 °C 22,7 °C 6,4 km/h (2 Bft) 100,00 %
31.08.2026 20:20 22,7 °C 59 % 1016,3 hPa 0,0 l/m² 4,8 km/h (1 Bft) W 270 ° 14,3 °C 22,7 °C 9,7 km/h (2 Bft) 100,00 %
31.08.2026 20:19 22,8 °C 59 % 1016,3 hPa 0,0 l/m² 3,2 km/h (1 Bft) W 270 ° 14,4 °C 22,8 °C 6,4 km/h (2 Bft) 100,00 %
31.08.2026 20:18 22,8 °C 58 % 1016,3 hPa 0,0 l/m² 3,2 km/h (1 Bft) W 270 ° 14,1 °C 22,8 °C 4,8 km/h (1 Bft) 100,00 %
31.08.2026 20:17 22,8 °C 58 % 1016,2 hPa 0,0 l/m² 6,4 km/h (2 Bft) SW 225 ° 14,1 °C 22,8 °C 11,3 km/h (2 Bft) 95,65 %
31.08.2026 20:16 22,8 °C 58 % 1016,3 hPa 0,0 l/m² 4,8 km/h (1 Bft) SW 225 ° 14,1 °C 22,8 °C 11,3 km/h (2 Bft) 100,00 %
31.08.2026 20:15 22,8 °C 58 % 1016,2 hPa 0,0 l/m² 4,8 km/h (1 Bft) W 270 ° 14,1 °C 22,8 °C 6,4 km/h (2 Bft) 100,00 %
31.08.2026 20:14 22,9 °C 58 % 1016,3 hPa 0,0 l/m² 4,8 km/h (1 Bft) W-SW 247 ° 14,2 °C 22,9 °C 9,7 km/h (2 Bft) 100,00 %
31.08.2026 20:13 22,9 °C 58 % 1016,2 hPa 0,0 l/m² 4,8 km/h (1 Bft) W-SW 247 ° 14,2 °C 22,9 °C 9,7 km/h (2 Bft) 100,00 %
31.08.2026 20:12 22,9 °C 58 % 1016,2 hPa 0,0 l/m² 4,8 km/h (1 Bft) W 270 ° 14,2 °C 22,9 °C 9,7 km/h (2 Bft) 100,00 %
31.08.2026 20:11 22,9 °C 57 % 1016,2 hPa 0,0 l/m² 4,8 km/h (1 Bft) W 270 ° 13,9 °C 22,9 °C 9,7 km/h (2 Bft) 100,00 %
31.08.2026 20:10 22,9 °C 57 % 1016,2 hPa 0,0 l/m² 4,8 km/h (1 Bft) W 270 ° 13,9 °C 22,9 °C 11,3 km/h (2 Bft) 100,00 %
31.08.2026 20:09 22,9 °C 57 % 1016,2 hPa 0,0 l/m² 6,4 km/h (2 Bft) W-SW 247 ° 13,9 °C 22,9 °C 11,3 km/h (2 Bft) 100,00 %
31.08.2026 20:08 22,9 °C 57 % 1016,2 hPa 0,0 l/m² 8,0 km/h (2 Bft) W 270 ° 13,9 °C 22,4 °C 12,9 km/h (3 Bft) 100,00 %
31.08.2026 20:07 22,9 °C 57 % 1016,2 hPa 0,0 l/m² 8,0 km/h (2 Bft) W 270 ° 13,9 °C 22,4 °C 12,9 km/h (3 Bft) 100,00 %
31.08.2026 20:06 22,9 °C 57 % 1016,1 hPa 0,0 l/m² 9,7 km/h (2 Bft) W 270 ° 13,9 °C 21,9 °C 16,1 km/h (3 Bft) 95,65 %
31.08.2026 20:05 22,9 °C 57 % 1016,1 hPa 0,0 l/m² 9,7 km/h (2 Bft) W 270 ° 13,9 °C 21,9 °C 14,5 km/h (3 Bft) 100,00 %
31.08.2026 20:04 22,9 °C 57 % 1016,1 hPa 0,0 l/m² 8,0 km/h (2 Bft) W-SW 247 ° 13,9 °C 22,4 °C 16,1 km/h (3 Bft) 100,00 %
31.08.2026 20:03 22,9 °C 57 % 1016,0 hPa 0,0 l/m² 11,3 km/h (2 Bft) W 270 ° 13,9 °C 21,5 °C 16,1 km/h (3 Bft) 100,00 %
31.08.2026 20:02 22,9 °C 57 % 1015,9 hPa 0,0 l/m² 8,0 km/h (2 Bft) W-SW 247 ° 13,9 °C 22,4 °C 12,9 km/h (3 Bft) 100,00 %
31.08.2026 20:01 22,9 °C 58 % 1015,9 hPa 0,0 l/m² 6,4 km/h (2 Bft) W-SW 247 ° 14,2 °C 22,9 °C 11,3 km/h (2 Bft) 100,00 %
31.08.2026 20:00 22,9 °C 58 % 1015,9 hPa 0,0 l/m² 4,8 km/h (1 Bft) W 270 ° 14,2 °C 22,9 °C 11,3 km/h (2 Bft) 100,00 %
31.08.2026 19:59 22,9 °C 58 % 1015,8 hPa 0,0 l/m² 4,8 km/h (1 Bft) W 270 ° 14,2 °C 22,9 °C 6,4 km/h (2 Bft) 95,65 %
31.08.2026 19:58 23,0 °C 58 % 1015,8 hPa 0,0 l/m² 4,8 km/h (1 Bft) W-SW 247 ° 14,3 °C 23,0 °C 6,4 km/h (2 Bft) 95,65 %
31.08.2026 19:57 22,9 °C 58 % 1015,8 hPa 0,0 l/m² 8,0 km/h (2 Bft) W 270 ° 14,2 °C 22,4 °C 11,3 km/h (2 Bft) 100,00 %
31.08.2026 19:56 23,0 °C 58 % 1015,7 hPa 0,0 l/m² 4,8 km/h (1 Bft) W 270 ° 14,3 °C 23,0 °C 6,4 km/h (2 Bft) 95,65 %
31.08.2026 19:55 23,0 °C 58 % 1015,7 hPa 0,0 l/m² 6,4 km/h (2 Bft) W 270 ° 14,3 °C 23,0 °C 11,3 km/h (2 Bft) 95,65 %
31.08.2026 19:54 23,0 °C 58 % 1015,8 hPa 0,0 l/m² 4,8 km/h (1 Bft) W 270 ° 14,3 °C 23,0 °C 6,4 km/h (2 Bft) 100,00 %
31.08.2026 19:53 23,0 °C 58 % 1015,6 hPa 0,0 l/m² 3,2 km/h (1 Bft) W 270 ° 14,3 °C 23,0 °C 4,8 km/h (1 Bft) 100,00 %
31.08.2026 19:52 23,0 °C 58 % 1015,6 hPa 0,0 l/m² 3,2 km/h (1 Bft) W 270 ° 14,3 °C 23,0 °C 6,4 km/h (2 Bft) 100,00 %
31.08.2026 19:51 23,1 °C 58 % 1015,6 hPa 0,0 l/m² 3,2 km/h (1 Bft) W-SW 247 ° 14,4 °C 23,1 °C 4,8 km/h (1 Bft) 95,65 %
31.08.2026 19:50 23,1 °C 58 % 1015,7 hPa 0,0 l/m² 3,2 km/h (1 Bft) W-SW 247 ° 14,4 °C 23,1 °C 4,8 km/h (1 Bft) 100,00 %
31.08.2026 19:49 23,1 °C 57 % 1015,7 hPa 0,0 l/m² 4,8 km/h (1 Bft) SW 225 ° 14,1 °C 23,1 °C 8,0 km/h (2 Bft) 100,00 %
31.08.2026 19:48 23,1 °C 58 % 1015,8 hPa 0,0 l/m² 4,8 km/h (1 Bft) W-SW 247 ° 14,4 °C 23,1 °C 11,3 km/h (2 Bft) 100,00 %
31.08.2026 19:47 23,1 °C 57 % 1015,8 hPa 0,0 l/m² 4,8 km/h (1 Bft) W-SW 247 ° 14,1 °C 23,1 °C 11,3 km/h (2 Bft) 100,00 %
31.08.2026 19:46 23,1 °C 57 % 1015,8 hPa 0,0 l/m² 6,4 km/h (2 Bft) SW 225 ° 14,1 °C 23,1 °C 11,3 km/h (2 Bft) 95,65 %
31.08.2026 19:45 23,1 °C 58 % 1015,8 hPa 0,0 l/m² 6,4 km/h (2 Bft) W 270 ° 14,4 °C 23,1 °C 12,9 km/h (3 Bft) 100,00 %
31.08.2026 19:44 23,1 °C 57 % 1015,7 hPa 0,0 l/m² 8,0 km/h (2 Bft) SW 225 ° 14,1 °C 22,6 °C 17,7 km/h (3 Bft) 95,65 %
31.08.2026 19:43 23,1 °C 58 % 1015,7 hPa 0,0 l/m² 6,4 km/h (2 Bft) W 270 ° 14,4 °C 23,1 °C 11,3 km/h (2 Bft) 100,00 %
31.08.2026 19:42 23,1 °C 58 % 1015,7 hPa 0,0 l/m² 8,0 km/h (2 Bft) W 270 ° 14,4 °C 22,6 °C 14,5 km/h (3 Bft) 100,00 %
31.08.2026 19:41 23,1 °C 58 % 1015,7 hPa 0,0 l/m² 6,4 km/h (2 Bft) W 270 ° 14,4 °C 23,1 °C 11,3 km/h (2 Bft) 100,00 %
31.08.2026 19:40 23,1 °C 58 % 1015,7 hPa 0,0 l/m² 6,4 km/h (2 Bft) W 270 ° 14,4 °C 23,1 °C 11,3 km/h (2 Bft) 100,00 %
31.08.2026 19:39 23,1 °C 59 % 1015,7 hPa 0,0 l/m² 6,4 km/h (2 Bft) W-SW 247 ° 14,6 °C 23,1 °C 11,3 km/h (2 Bft) 100,00 %
31.08.2026 19:38 23,1 °C 59 % 1015,7 hPa 0,0 l/m² 4,8 km/h (1 Bft) W 270 ° 14,6 °C 23,1 °C 12,9 km/h (3 Bft) 95,65 %
31.08.2026 19:37 23,1 °C 59 % 1015,7 hPa 0,0 l/m² 4,8 km/h (1 Bft) S-SW 202 ° 14,6 °C 23,1 °C 9,7 km/h (2 Bft) 100,00 %
31.08.2026 19:36 23,1 °C 60 % 1015,7 hPa 0,0 l/m² 4,8 km/h (1 Bft) W 270 ° 14,9 °C 23,1 °C 9,7 km/h (2 Bft) 100,00 %
31.08.2026 19:35 23,1 °C 59 % 1015,7 hPa 0,0 l/m² 1,6 km/h (1 Bft) W-SW 247 ° 14,6 °C 23,1 °C 3,2 km/h (1 Bft) 100,00 %
31.08.2026 19:34 23,1 °C 59 % 1015,7 hPa 0,0 l/m² 3,2 km/h (1 Bft) W 270 ° 14,6 °C 23,1 °C 4,8 km/h (1 Bft) 100,00 %
31.08.2026 19:33 23,1 °C 59 % 1015,6 hPa 0,0 l/m² 3,2 km/h (1 Bft) W-SW 247 ° 14,6 °C 23,1 °C 4,8 km/h (1 Bft) 100,00 %
31.08.2026 19:32 23,2 °C 59 % 1015,7 hPa 0,0 l/m² 1,6 km/h (1 Bft) SW 225 ° 14,7 °C 23,2 °C 4,8 km/h (1 Bft) 100,00 %
31.08.2026 19:31 23,2 °C 58 % 1015,5 hPa 0,0 l/m² 1,6 km/h (1 Bft) SW 225 ° 14,5 °C 23,2 °C 4,8 km/h (1 Bft) 100,00 %
31.08.2026 19:30 23,2 °C 59 % 1015,5 hPa 0,0 l/m² 1,6 km/h (1 Bft) SW 225 ° 14,7 °C 23,2 °C 6,4 km/h (2 Bft) 100,00 %
31.08.2026 19:29 23,3 °C 58 % 1015,5 hPa 0,0 l/m² 3,2 km/h (1 Bft) W-SW 247 ° 14,6 °C 23,3 °C 6,4 km/h (2 Bft) 100,00 %
31.08.2026 19:28 23,3 °C 58 % 1015,4 hPa 0,0 l/m² 3,2 km/h (1 Bft) W 270 ° 14,6 °C 23,3 °C 6,4 km/h (2 Bft) 100,00 %
31.08.2026 19:27 23,3 °C 58 % 1015,4 hPa 0,0 l/m² 3,2 km/h (1 Bft) W-SW 247 ° 14,6 °C 23,3 °C 6,4 km/h (2 Bft) 95,65 %
31.08.2026 19:26 23,3 °C 58 % 1015,4 hPa 0,0 l/m² 4,8 km/h (1 Bft) W-SW 247 ° 14,6 °C 23,3 °C 6,4 km/h (2 Bft) 100,00 %
31.08.2026 19:25 23,3 °C 58 % 1015,4 hPa 0,0 l/m² 4,8 km/h (1 Bft) W-SW 247 ° 14,6 °C 23,3 °C 8,0 km/h (2 Bft) 100,00 %
31.08.2026 19:24 23,3 °C 58 % 1015,4 hPa 0,0 l/m² 4,8 km/h (1 Bft) W 270 ° 14,6 °C 23,3 °C 8,0 km/h (2 Bft) 100,00 %
31.08.2026 19:23 23,3 °C 58 % 1015,4 hPa 0,0 l/m² 6,4 km/h (2 Bft) W 270 ° 14,6 °C 23,3 °C 11,3 km/h (2 Bft) 100,00 %
31.08.2026 19:22 23,4 °C 58 % 1015,4 hPa 0,0 l/m² 4,8 km/h (1 Bft) W 270 ° 14,7 °C 23,4 °C 8,0 km/h (2 Bft) 100,00 %
31.08.2026 19:21 23,4 °C 58 % 1015,4 hPa 0,0 l/m² 4,8 km/h (1 Bft) W 270 ° 14,7 °C 23,4 °C 6,4 km/h (2 Bft) 100,00 %
31.08.2026 19:20 23,4 °C 58 % 1015,5 hPa 0,0 l/m² 3,2 km/h (1 Bft) W 270 ° 14,7 °C 23,4 °C 6,4 km/h (2 Bft) 95,65 %
31.08.2026 19:19 23,4 °C 58 % 1015,4 hPa 0,0 l/m² 6,4 km/h (2 Bft) W-SW 247 ° 14,7 °C 23,4 °C 11,3 km/h (2 Bft) 100,00 %
31.08.2026 19:18 23,4 °C 58 % 1015,5 hPa 0,0 l/m² 3,2 km/h (1 Bft) W-SW 247 ° 14,7 °C 23,4 °C 4,8 km/h (1 Bft) 100,00 %
31.08.2026 19:17 23,4 °C 58 % 1015,4 hPa 0,0 l/m² 4,8 km/h (1 Bft) W 270 ° 14,7 °C 23,4 °C 12,9 km/h (3 Bft) 95,65 %
31.08.2026 19:16 23,4 °C 58 % 1015,4 hPa 0,0 l/m² 6,4 km/h (2 Bft) W-NW 292 ° 14,7 °C 23,4 °C 9,7 km/h (2 Bft) 100,00 %
31.08.2026 19:15 23,4 °C 58 % 1015,4 hPa 0,0 l/m² 8,0 km/h (2 Bft) W 270 ° 14,7 °C 22,9 °C 11,3 km/h (2 Bft) 100,00 %
31.08.2026 19:14 23,4 °C 58 % 1015,3 hPa 0,0 l/m² 6,4 km/h (2 Bft) W 270 ° 14,7 °C 23,4 °C 9,7 km/h (2 Bft) 100,00 %
31.08.2026 19:13 23,4 °C 58 % 1015,3 hPa 0,0 l/m² 6,4 km/h (2 Bft) W 270 ° 14,7 °C 23,4 °C 11,3 km/h (2 Bft) 100,00 %
31.08.2026 19:12 23,5 °C 58 % 1015,3 hPa 0,0 l/m² 4,8 km/h (1 Bft) W 270 ° 14,7 °C 23,5 °C 6,4 km/h (2 Bft) 95,65 %
31.08.2026 19:11 23,5 °C 58 % 1015,2 hPa 0,0 l/m² 4,8 km/h (1 Bft) W 270 ° 14,7 °C 23,5 °C 9,7 km/h (2 Bft) 100,00 %
31.08.2026 19:10 23,5 °C 58 % 1015,3 hPa 0,0 l/m² 4,8 km/h (1 Bft) W-SW 247 ° 14,7 °C 23,5 °C 9,7 km/h (2 Bft) 95,65 %
31.08.2026 19:09 23,5 °C 58 % 1015,2 hPa 0,0 l/m² 4,8 km/h (1 Bft) W 270 ° 14,7 °C 23,5 °C 6,4 km/h (2 Bft) 100,00 %
31.08.2026 19:08 23,5 °C 58 % 1015,2 hPa 0,0 l/m² 4,8 km/h (1 Bft) W 270 ° 14,7 °C 23,5 °C 9,7 km/h (2 Bft) 95,65 %
31.08.2026 19:07 23,6 °C 58 % 1015,2 hPa 0,0 l/m² 3,2 km/h (1 Bft) W 270 ° 14,8 °C 23,6 °C 4,8 km/h (1 Bft) 95,65 %
31.08.2026 19:06 23,6 °C 59 % 1015,2 hPa 0,0 l/m² 3,2 km/h (1 Bft) W 270 ° 15,1 °C 23,6 °C 4,8 km/h (1 Bft) 100,00 %
31.08.2026 19:05 23,6 °C 58 % 1015,1 hPa 0,0 l/m² 3,2 km/h (1 Bft) W 270 ° 14,8 °C 23,6 °C 4,8 km/h (1 Bft) 95,65 %
31.08.2026 19:04 23,6 °C 59 % 1015,1 hPa 0,0 l/m² 3,2 km/h (1 Bft) W-SW 247 ° 15,1 °C 23,6 °C 6,4 km/h (2 Bft) 100,00 %
31.08.2026 19:03 23,6 °C 59 % 1015,2 hPa 0,0 l/m² 3,2 km/h (1 Bft) W 270 ° 15,1 °C 23,6 °C 6,4 km/h (2 Bft) 100,00 %
31.08.2026 19:02 23,6 °C 58 % 1015,1 hPa 0,0 l/m² 3,2 km/h (1 Bft) W-SW 247 ° 14,8 °C 23,6 °C 4,8 km/h (1 Bft) 100,00 %
31.08.2026 19:01 23,7 °C 58 % 1015,1 hPa 0,0 l/m² 3,2 km/h (1 Bft) W 270 ° 14,9 °C 23,7 °C 4,8 km/h (1 Bft) 100,00 %
31.08.2026 19:00 23,7 °C 59 % 1015,2 hPa 0,0 l/m² 3,2 km/h (1 Bft) W 270 ° 15,2 °C 23,7 °C 6,4 km/h (2 Bft) 95,65 %
31.08.2026 18:59 23,7 °C 60 % 1015,2 hPa 0,0 l/m² 0,0 km/h (0 Bft) SW 225 ° 15,5 °C 23,7 °C 1,6 km/h (1 Bft) 100,00 %
31.08.2026 18:58 23,7 °C 60 % 1015,2 hPa 0,0 l/m² 0,0 km/h (0 Bft) SW 225 ° 15,5 °C 23,7 °C 1,6 km/h (1 Bft) 100,00 %
31.08.2026 18:57 23,8 °C 60 % 1015,2 hPa 0,0 l/m² 0,0 km/h (0 Bft) SW 225 ° 15,6 °C 23,8 °C 1,6 km/h (1 Bft) 100,00 %
31.08.2026 18:56 23,9 °C 60 % 1015,2 hPa 0,0 l/m² 1,6 km/h (1 Bft) SW 225 ° 15,7 °C 23,9 °C 3,2 km/h (1 Bft) 100,00 %
31.08.2026 18:55 23,9 °C 60 % 1015,3 hPa 0,0 l/m² 3,2 km/h (1 Bft) SW 225 ° 15,7 °C 23,9 °C 4,8 km/h (1 Bft) 100,00 %
31.08.2026 18:54 23,9 °C 60 % 1015,2 hPa 0,0 l/m² 1,6 km/h (1 Bft) W-SW 247 ° 15,7 °C 23,9 °C 3,2 km/h (1 Bft) 100,00 %
31.08.2026 18:53 23,9 °C 59 % 1015,2 hPa 0,0 l/m² 1,6 km/h (1 Bft) W-SW 247 ° 15,4 °C 23,9 °C 3,2 km/h (1 Bft) 95,65 %
31.08.2026 18:52 23,9 °C 59 % 1015,2 hPa 0,0 l/m² 1,6 km/h (1 Bft) W-SW 247 ° 15,4 °C 23,9 °C 3,2 km/h (1 Bft) 100,00 %
31.08.2026 18:51 23,9 °C 58 % 1015,2 hPa 0,0 l/m² 1,6 km/h (1 Bft) W-SW 247 ° 15,1 °C 23,9 °C 3,2 km/h (1 Bft) 100,00 %
31.08.2026 18:50 24,0 °C 59 % 1015,2 hPa 0,0 l/m² 1,6 km/h (1 Bft) W-SW 247 ° 15,5 °C 24,0 °C 3,2 km/h (1 Bft) 100,00 %
31.08.2026 18:49 24,0 °C 59 % 1015,2 hPa 0,0 l/m² 0,0 km/h (0 Bft) N 0 ° 15,5 °C 24,0 °C 0,0 km/h (0 Bft) 100,00 %
31.08.2026 18:48 24,1 °C 59 % 1015,2 hPa 0,0 l/m² 0,0 km/h (0 Bft) N 0 ° 15,6 °C 24,1 °C 0,0 km/h (0 Bft) 100,00 %
31.08.2026 18:47 24,1 °C 60 % 1015,2 hPa 0,0 l/m² 0,0 km/h (0 Bft) W-SW 247 ° 15,8 °C 24,1 °C 1,6 km/h (1 Bft) 100,00 %
31.08.2026 18:46 24,1 °C 60 % 1015,2 hPa 0,0 l/m² 1,6 km/h (1 Bft) W-SW 247 ° 15,8 °C 24,1 °C 3,2 km/h (1 Bft) 95,65 %
31.08.2026 18:45 24,1 °C 62 % 1015,1 hPa 0,0 l/m² 1,6 km/h (1 Bft) W-SW 247 ° 16,4 °C 24,1 °C 3,2 km/h (1 Bft) 100,00 %
31.08.2026 18:44 24,2 °C 61 % 1015,2 hPa 0,0 l/m² 0,0 km/h (0 Bft) W-SW 247 ° 16,2 °C 24,2 °C 3,2 km/h (1 Bft) 100,00 %
31.08.2026 18:43 24,2 °C 61 % 1015,1 hPa 0,0 l/m² 0,0 km/h (0 Bft) N 0 ° 16,2 °C 24,2 °C 0,0 km/h (0 Bft) 100,00 %
31.08.2026 18:42 24,2 °C 60 % 1015,2 hPa 0,0 l/m² 0,0 km/h (0 Bft) N 0 ° 15,9 °C 24,2 °C 0,0 km/h (0 Bft) 100,00 %
31.08.2026 18:41 24,2 °C 60 % 1015,1 hPa 0,0 l/m² 0,0 km/h (0 Bft) N 0 ° 15,9 °C 24,2 °C 0,0 km/h (0 Bft) 100,00 %
31.08.2026 18:40 24,2 °C 60 % 1015,1 hPa 0,0 l/m² 0,0 km/h (0 Bft) N 0 ° 15,9 °C 24,2 °C 0,0 km/h (0 Bft) 100,00 %
31.08.2026 18:39 24,2 °C 60 % 1015,1 hPa 0,0 l/m² 0,0 km/h (0 Bft) N 0 ° 15,9 °C 24,2 °C 0,0 km/h (0 Bft) 100,00 %
31.08.2026 18:38 24,2 °C 59 % 1015,0 hPa 0,0 l/m² 0,0 km/h (0 Bft) N 0 ° 15,7 °C 24,2 °C 0,0 km/h (0 Bft) 100,00 %
31.08.2026 18:37 24,2 °C 59 % 1015,0 hPa 0,0 l/m² 0,0 km/h (0 Bft) N 0 ° 15,7 °C 24,2 °C 0,0 km/h (0 Bft) 100,00 %
31.08.2026 18:36 24,2 °C 59 % 1015,0 hPa 0,0 l/m² 0,0 km/h (0 Bft) N 0 ° 15,7 °C 24,2 °C 0,0 km/h (0 Bft) 100,00 %
31.08.2026 18:35 24,2 °C 59 % 1015,0 hPa 0,0 l/m² 0,0 km/h (0 Bft) N 0 ° 15,7 °C 24,2 °C 0,0 km/h (0 Bft) 100,00 %
31.08.2026 18:34 24,2 °C 59 % 1015,1 hPa 0,0 l/m² 0,0 km/h (0 Bft) N 0 ° 15,7 °C 24,2 °C 0,0 km/h (0 Bft) 100,00 %
31.08.2026 18:33 24,2 °C 59 % 1015,1 hPa 0,0 l/m² 0,0 km/h (0 Bft) N 0 ° 15,7 °C 24,2 °C 0,0 km/h (0 Bft) 100,00 %
31.08.2026 18:32 24,2 °C 57 % 1015,1 hPa 0,0 l/m² 0,0 km/h (0 Bft) N 0 ° 15,1 °C 24,2 °C 0,0 km/h (0 Bft) 100,00 %
31.08.2026 18:31 24,3 °C 58 % 1015,1 hPa 0,0 l/m² 1,6 km/h (1 Bft) W-SW 247 ° 15,5 °C 24,3 °C 1,6 km/h (1 Bft) 100,00 %
31.08.2026 18:30 24,3 °C 59 % 1015,1 hPa 0,0 l/m² 0,0 km/h (0 Bft) N 0 ° 15,8 °C 24,3 °C 0,0 km/h (0 Bft) 100,00 %
31.08.2026 18:29 24,3 °C 58 % 1015,0 hPa 0,0 l/m² 0,0 km/h (0 Bft) N 0 ° 15,5 °C 24,3 °C 0,0 km/h (0 Bft) 100,00 %
31.08.2026 18:28 24,3 °C 58 % 1015,2 hPa 0,0 l/m² 0,0 km/h (0 Bft) N 0 ° 15,5 °C 24,3 °C 0,0 km/h (0 Bft) 100,00 %
31.08.2026 18:27 24,3 °C 57 % 1015,1 hPa 0,0 l/m² 0,0 km/h (0 Bft) N 0 ° 15,2 °C 24,3 °C 0,0 km/h (0 Bft) 100,00 %
31.08.2026 18:26 24,3 °C 56 % 1015,1 hPa 0,0 l/m² 0,0 km/h (0 Bft) W-SW 247 ° 14,9 °C 24,3 °C 1,6 km/h (1 Bft) 95,65 %
31.08.2026 18:25 24,3 °C 56 % 1015,1 hPa 0,0 l/m² 0,0 km/h (0 Bft) W-SW 247 ° 14,9 °C 24,3 °C 1,6 km/h (1 Bft) 100,00 %
31.08.2026 18:24 24,3 °C 57 % 1015,1 hPa 0,0 l/m² 0,0 km/h (0 Bft) N 0 ° 15,2 °C 24,3 °C 0,0 km/h (0 Bft) 95,65 %
31.08.2026 18:23 24,3 °C 56 % 1015,1 hPa 0,0 l/m² 0,0 km/h (0 Bft) W-SW 247 ° 14,9 °C 24,3 °C 3,2 km/h (1 Bft) 100,00 %
31.08.2026 18:22 24,3 °C 55 % 1015,2 hPa 0,0 l/m² 0,0 km/h (0 Bft) W-SW 247 ° 14,7 °C 24,3 °C 1,6 km/h (1 Bft) 100,00 %
31.08.2026 18:21 24,3 °C 56 % 1015,0 hPa 0,0 l/m² 0,0 km/h (0 Bft) W-SW 247 ° 14,9 °C 24,3 °C 3,2 km/h (1 Bft) 95,65 %
31.08.2026 18:20 24,4 °C 56 % 1015,1 hPa 0,0 l/m² 1,6 km/h (1 Bft) W-SW 247 ° 15,0 °C 24,4 °C 4,8 km/h (1 Bft) 100,00 %
31.08.2026 18:19 24,3 °C 56 % 1015,1 hPa 0,0 l/m² 1,6 km/h (1 Bft) W-NW 292 ° 14,9 °C 24,3 °C 1,6 km/h (1 Bft) 100,00 %
31.08.2026 18:18 24,3 °C 56 % 1015,0 hPa 0,0 l/m² 1,6 km/h (1 Bft) W-NW 292 ° 14,9 °C 24,3 °C 3,2 km/h (1 Bft) 100,00 %
31.08.2026 18:17 24,4 °C 55 % 1015,0 hPa 0,0 l/m² 1,6 km/h (1 Bft) W-NW 292 ° 14,8 °C 24,4 °C 3,2 km/h (1 Bft) 95,65 %
31.08.2026 18:16 24,4 °C 56 % 1015,1 hPa 0,0 l/m² 1,6 km/h (1 Bft) W-NW 292 ° 15,0 °C 24,4 °C 3,2 km/h (1 Bft) 100,00 %
31.08.2026 18:15 24,4 °C 56 % 1015,0 hPa 0,0 l/m² 1,6 km/h (1 Bft) NW 315 ° 15,0 °C 24,4 °C 3,2 km/h (1 Bft) 95,65 %
31.08.2026 18:14 24,4 °C 57 % 1015,0 hPa 0,0 l/m² 0,0 km/h (0 Bft) W-SW 247 ° 15,3 °C 24,4 °C 3,2 km/h (1 Bft) 100,00 %
31.08.2026 18:13 24,4 °C 56 % 1015,1 hPa 0,0 l/m² 0,0 km/h (0 Bft) N 0 ° 15,0 °C 24,4 °C 0,0 km/h (0 Bft) 100,00 %
31.08.2026 18:12 24,4 °C 56 % 1015,0 hPa 0,0 l/m² 0,0 km/h (0 Bft) N 0 ° 15,0 °C 24,4 °C 0,0 km/h (0 Bft) 100,00 %
31.08.2026 18:11 24,4 °C 56 % 1015,0 hPa 0,0 l/m² 0,0 km/h (0 Bft) N 0 ° 15,0 °C 24,4 °C 0,0 km/h (0 Bft) 100,00 %
31.08.2026 18:10 24,4 °C 56 % 1015,0 hPa 0,0 l/m² 0,0 km/h (0 Bft) N 0 ° 15,0 °C 24,4 °C 0,0 km/h (0 Bft) 100,00 %
31.08.2026 18:09 24,4 °C 56 % 1015,0 hPa 0,0 l/m² 0,0 km/h (0 Bft) N 0 ° 15,0 °C 24,4 °C 0,0 km/h (0 Bft) 95,65 %
31.08.2026 18:08 24,4 °C 56 % 1015,0 hPa 0,0 l/m² 0,0 km/h (0 Bft) N 0 ° 15,0 °C 24,4 °C 0,0 km/h (0 Bft) 100,00 %
31.08.2026 18:07 24,4 °C 57 % 1015,0 hPa 0,0 l/m² 0,0 km/h (0 Bft) N 0 ° 15,3 °C 24,4 °C 0,0 km/h (0 Bft) 95,65 %
31.08.2026 18:06 24,5 °C 57 % 1014,9 hPa 0,0 l/m² 0,0 km/h (0 Bft) W-NW 292 ° 15,4 °C 24,5 °C 1,6 km/h (1 Bft) 100,00 %
31.08.2026 18:05 24,5 °C 56 % 1015,1 hPa 0,0 l/m² 0,0 km/h (0 Bft) W-NW 292 ° 15,1 °C 24,5 °C 1,6 km/h (1 Bft) 100,00 %
31.08.2026 18:04 24,5 °C 56 % 1015,0 hPa 0,0 l/m² 1,6 km/h (1 Bft) W-NW 292 ° 15,1 °C 24,5 °C 3,2 km/h (1 Bft) 100,00 %
31.08.2026 18:03 24,5 °C 55 % 1015,0 hPa 0,0 l/m² 3,2 km/h (1 Bft) W-NW 292 ° 14,9 °C 24,5 °C 6,4 km/h (2 Bft) 100,00 %
31.08.2026 18:02 24,5 °C 56 % 1015,1 hPa 0,0 l/m² 3,2 km/h (1 Bft) W 270 ° 15,1 °C 24,5 °C 6,4 km/h (2 Bft) 100,00 %
31.08.2026 18:01 24,5 °C 56 % 1015,1 hPa 0,0 l/m² 1,6 km/h (1 Bft) NW 315 ° 15,1 °C 24,5 °C 3,2 km/h (1 Bft) 100,00 %
31.08.2026 18:00 24,5 °C 54 % 1015,0 hPa 0,0 l/m² 3,2 km/h (1 Bft) N-NW 337 ° 14,6 °C 24,5 °C 4,8 km/h (1 Bft) 100,00 %
31.08.2026 17:59 24,6 °C 55 % 1015,0 hPa 0,0 l/m² 3,2 km/h (1 Bft) NW 315 ° 14,9 °C 24,6 °C 4,8 km/h (1 Bft) 100,00 %
31.08.2026 17:58 24,6 °C 56 % 1015,1 hPa 0,0 l/m² 1,6 km/h (1 Bft) NW 315 ° 15,2 °C 24,6 °C 4,8 km/h (1 Bft) 100,00 %
31.08.2026 17:57 24,6 °C 56 % 1015,1 hPa 0,0 l/m² 1,6 km/h (1 Bft) NW 315 ° 15,2 °C 24,6 °C 3,2 km/h (1 Bft) 100,00 %
31.08.2026 17:56 24,6 °C 55 % 1015,1 hPa 0,0 l/m² 1,6 km/h (1 Bft) NW 315 ° 14,9 °C 24,6 °C 3,2 km/h (1 Bft) 100,00 %
31.08.2026 17:55 24,6 °C 56 % 1015,1 hPa 0,0 l/m² 1,6 km/h (1 Bft) NW 315 ° 15,2 °C 24,6 °C 4,8 km/h (1 Bft) 100,00 %
31.08.2026 17:54 24,6 °C 56 % 1015,1 hPa 0,0 l/m² 1,6 km/h (1 Bft) W 270 ° 15,2 °C 24,6 °C 4,8 km/h (1 Bft) 100,00 %
31.08.2026 17:53 24,6 °C 55 % 1015,1 hPa 0,0 l/m² 0,0 km/h (0 Bft) W 270 ° 14,9 °C 24,6 °C 1,6 km/h (1 Bft) 100,00 %
31.08.2026 17:52 24,7 °C 54 % 1015,1 hPa 0,0 l/m² 4,8 km/h (1 Bft) W 270 ° 14,8 °C 24,7 °C 6,4 km/h (2 Bft) 100,00 %
31.08.2026 17:51 24,7 °C 55 % 1015,1 hPa 0,0 l/m² 1,6 km/h (1 Bft) W 270 ° 15,0 °C 24,7 °C 4,8 km/h (1 Bft) 100,00 %
31.08.2026 17:50 24,7 °C 55 % 1015,1 hPa 0,0 l/m² 4,8 km/h (1 Bft) W 270 ° 15,0 °C 24,7 °C 6,4 km/h (2 Bft) 100,00 %
31.08.2026 17:49 24,7 °C 55 % 1015,1 hPa 0,0 l/m² 3,2 km/h (1 Bft) W-NW 292 ° 15,0 °C 24,7 °C 4,8 km/h (1 Bft) 100,00 %
31.08.2026 17:48 24,8 °C 54 % 1015,1 hPa 0,0 l/m² 4,8 km/h (1 Bft) W-NW 292 ° 14,8 °C 24,8 °C 11,3 km/h (2 Bft) 100,00 %
31.08.2026 17:47 24,8 °C 55 % 1015,1 hPa 0,0 l/m² 3,2 km/h (1 Bft) NW 315 ° 15,1 °C 24,8 °C 6,4 km/h (2 Bft) 100,00 %
31.08.2026 17:46 24,8 °C 55 % 1015,2 hPa 0,0 l/m² 3,2 km/h (1 Bft) W 270 ° 15,1 °C 24,8 °C 4,8 km/h (1 Bft) 95,65 %
31.08.2026 17:45 24,8 °C 55 % 1015,2 hPa 0,0 l/m² 0,0 km/h (0 Bft) W 270 ° 15,1 °C 24,8 °C 1,6 km/h (1 Bft) 100,00 %
31.08.2026 17:44 24,8 °C 55 % 1015,1 hPa 0,0 l/m² 1,6 km/h (1 Bft) W 270 ° 15,1 °C 24,8 °C 3,2 km/h (1 Bft) 100,00 %
31.08.2026 17:43 24,8 °C 54 % 1015,1 hPa 0,0 l/m² 3,2 km/h (1 Bft) W 270 ° 14,8 °C 24,8 °C 4,8 km/h (1 Bft) 100,00 %
31.08.2026 17:42 24,9 °C 55 % 1015,1 hPa 0,0 l/m² 3,2 km/h (1 Bft) W-NW 292 ° 15,2 °C 24,9 °C 4,8 km/h (1 Bft) 95,65 %
31.08.2026 17:41 24,9 °C 53 % 1015,2 hPa 0,0 l/m² 3,2 km/h (1 Bft) W-NW 292 ° 14,6 °C 24,9 °C 6,4 km/h (2 Bft) 100,00 %
31.08.2026 17:40 24,9 °C 54 % 1015,1 hPa 0,0 l/m² 4,8 km/h (1 Bft) W-NW 292 ° 14,9 °C 24,9 °C 8,0 km/h (2 Bft) 100,00 %
31.08.2026 17:39 25,0 °C 54 % 1015,1 hPa 0,0 l/m² 3,2 km/h (1 Bft) W-NW 292 ° 15,0 °C 25,0 °C 9,7 km/h (2 Bft) 100,00 %
31.08.2026 17:38 25,0 °C 54 % 1015,1 hPa 0,0 l/m² 3,2 km/h (1 Bft) W-NW 292 ° 15,0 °C 25,0 °C 4,8 km/h (1 Bft) 100,00 %
31.08.2026 17:37 25,0 °C 54 % 1015,0 hPa 0,0 l/m² 3,2 km/h (1 Bft) W-NW 292 ° 15,0 °C 25,0 °C 4,8 km/h (1 Bft) 100,00 %
31.08.2026 17:36 25,1 °C 55 % 1015,1 hPa 0,0 l/m² 1,6 km/h (1 Bft) W-NW 292 ° 15,4 °C 25,1 °C 3,2 km/h (1 Bft) 95,65 %
31.08.2026 17:35 25,1 °C 57 % 1015,0 hPa 0,0 l/m² 1,6 km/h (1 Bft) W-NW 292 ° 16,0 °C 25,1 °C 3,2 km/h (1 Bft) 100,00 %
31.08.2026 17:34 25,1 °C 56 % 1015,0 hPa 0,0 l/m² 0,0 km/h (0 Bft) W-NW 292 ° 15,7 °C 25,1 °C 1,6 km/h (1 Bft) 100,00 %
31.08.2026 17:33 25,1 °C 54 % 1015,1 hPa 0,0 l/m² 1,6 km/h (1 Bft) W-NW 292 ° 15,1 °C 25,1 °C 1,6 km/h (1 Bft) 100,00 %
31.08.2026 17:32 25,1 °C 53 % 1015,0 hPa 0,0 l/m² 3,2 km/h (1 Bft) W-NW 292 ° 14,8 °C 25,1 °C 4,8 km/h (1 Bft) 100,00 %
31.08.2026 17:31 25,1 °C 54 % 1015,1 hPa 0,0 l/m² 1,6 km/h (1 Bft) NW 315 ° 15,1 °C 25,1 °C 3,2 km/h (1 Bft) 100,00 %
31.08.2026 17:30 25,1 °C 54 % 1015,1 hPa 0,0 l/m² 3,2 km/h (1 Bft) W-NW 292 ° 15,1 °C 25,1 °C 4,8 km/h (1 Bft) 100,00 %
31.08.2026 17:29 25,2 °C 54 % 1015,1 hPa 0,0 l/m² 1,6 km/h (1 Bft) W-NW 292 ° 15,2 °C 25,2 °C 3,2 km/h (1 Bft) 95,65 %
31.08.2026 17:28 25,2 °C 53 % 1015,1 hPa 0,0 l/m² 3,2 km/h (1 Bft) W-NW 292 ° 14,9 °C 25,2 °C 3,2 km/h (1 Bft) 100,00 %
31.08.2026 17:27 25,2 °C 53 % 1015,1 hPa 0,0 l/m² 3,2 km/h (1 Bft) W-NW 292 ° 14,9 °C 25,2 °C 4,8 km/h (1 Bft) 100,00 %
31.08.2026 17:26 25,2 °C 55 % 1015,1 hPa 0,0 l/m² 1,6 km/h (1 Bft) NW 315 ° 15,5 °C 25,2 °C 3,2 km/h (1 Bft) 100,00 %
31.08.2026 17:25 25,2 °C 54 % 1015,1 hPa 0,0 l/m² 3,2 km/h (1 Bft) W-NW 292 ° 15,2 °C 25,2 °C 4,8 km/h (1 Bft) 100,00 %
31.08.2026 17:24 25,3 °C 54 % 1015,1 hPa 0,0 l/m² 3,2 km/h (1 Bft) N-NW 337 ° 15,3 °C 25,3 °C 4,8 km/h (1 Bft) 95,65 %
31.08.2026 17:23 25,3 °C 54 % 1015,2 hPa 0,0 l/m² 3,2 km/h (1 Bft) NW 315 ° 15,3 °C 25,3 °C 6,4 km/h (2 Bft) 100,00 %
31.08.2026 17:22 25,3 °C 54 % 1015,1 hPa 0,0 l/m² 1,6 km/h (1 Bft) W-NW 292 ° 15,3 °C 25,3 °C 4,8 km/h (1 Bft) 95,65 %
31.08.2026 17:21 25,3 °C 53 % 1015,1 hPa 0,0 l/m² 4,8 km/h (1 Bft) W 270 ° 15,0 °C 25,3 °C 4,8 km/h (1 Bft) 91,30 %
31.08.2026 17:20 25,3 °C 54 % 1015,3 hPa 0,0 l/m² 3,2 km/h (1 Bft) NW 315 ° 15,3 °C 25,3 °C 4,8 km/h (1 Bft) 100,00 %
31.08.2026 17:19 25,3 °C 55 % 1015,2 hPa 0,0 l/m² 1,6 km/h (1 Bft) NW 315 ° 15,6 °C 25,3 °C 3,2 km/h (1 Bft) 95,65 %
31.08.2026 17:18 25,4 °C 53 % 1015,2 hPa 0,0 l/m² 1,6 km/h (1 Bft) NW 315 ° 15,1 °C 25,4 °C 4,8 km/h (1 Bft) 100,00 %
31.08.2026 17:17 25,4 °C 54 % 1015,1 hPa 0,0 l/m² 1,6 km/h (1 Bft) W-NW 292 ° 15,4 °C 25,4 °C 3,2 km/h (1 Bft) 100,00 %
31.08.2026 17:16 25,4 °C 54 % 1015,2 hPa 0,0 l/m² 0,0 km/h (0 Bft) W-NW 292 ° 15,4 °C 25,4 °C 1,6 km/h (1 Bft) 100,00 %
31.08.2026 17:15 25,4 °C 53 % 1015,2 hPa 0,0 l/m² 1,6 km/h (1 Bft) W-NW 292 ° 15,1 °C 25,4 °C 1,6 km/h (1 Bft) 100,00 %
31.08.2026 17:14 25,4 °C 53 % 1015,2 hPa 0,0 l/m² 3,2 km/h (1 Bft) W-NW 292 ° 15,1 °C 25,4 °C 4,8 km/h (1 Bft) 95,65 %
31.08.2026 17:13 25,5 °C 52 % 1015,2 hPa 0,0 l/m² 3,2 km/h (1 Bft) W-NW 292 ° 14,9 °C 25,5 °C 4,8 km/h (1 Bft) 100,00 %
31.08.2026 17:12 25,5 °C 54 % 1015,3 hPa 0,0 l/m² 1,6 km/h (1 Bft) W-NW 292 ° 15,5 °C 25,5 °C 6,4 km/h (2 Bft) 100,00 %
31.08.2026 17:11 25,5 °C 53 % 1015,3 hPa 0,0 l/m² 1,6 km/h (1 Bft) W-NW 292 ° 15,2 °C 25,5 °C 3,2 km/h (1 Bft) 100,00 %
31.08.2026 17:10 25,6 °C 53 % 1015,2 hPa 0,0 l/m² 3,2 km/h (1 Bft) W-NW 292 ° 15,3 °C 25,6 °C 6,4 km/h (2 Bft) 100,00 %
31.08.2026 17:09 25,6 °C 53 % 1015,2 hPa 0,0 l/m² 3,2 km/h (1 Bft) NW 315 ° 15,3 °C 25,6 °C 4,8 km/h (1 Bft) 95,65 %
31.08.2026 17:08 25,6 °C 53 % 1015,3 hPa 0,0 l/m² 4,8 km/h (1 Bft) W 270 ° 15,3 °C 25,6 °C 8,0 km/h (2 Bft) 100,00 %
31.08.2026 17:07 25,6 °C 53 % 1015,3 hPa 0,0 l/m² 1,6 km/h (1 Bft) W 270 ° 15,3 °C 25,6 °C 4,8 km/h (1 Bft) 100,00 %
31.08.2026 17:06 25,6 °C 52 % 1015,3 hPa 0,0 l/m² 3,2 km/h (1 Bft) W-NW 292 ° 15,0 °C 25,6 °C 4,8 km/h (1 Bft) 100,00 %
31.08.2026 17:05 25,6 °C 52 % 1015,1 hPa 0,0 l/m² 1,6 km/h (1 Bft) W-NW 292 ° 15,0 °C 25,6 °C 3,2 km/h (1 Bft) 100,00 %
31.08.2026 17:04 25,7 °C 52 % 1015,2 hPa 0,0 l/m² 1,6 km/h (1 Bft) W-NW 292 ° 15,1 °C 25,7 °C 4,8 km/h (1 Bft) 100,00 %
31.08.2026 17:03 25,7 °C 53 % 1015,2 hPa 0,0 l/m² 3,2 km/h (1 Bft) N 360 ° 15,4 °C 25,7 °C 4,8 km/h (1 Bft) 100,00 %
31.08.2026 17:02 25,7 °C 53 % 1015,3 hPa 0,0 l/m² 1,6 km/h (1 Bft) NW 315 ° 15,4 °C 25,7 °C 3,2 km/h (1 Bft) 100,00 %
31.08.2026 17:01 25,7 °C 52 % 1015,3 hPa 0,0 l/m² 4,8 km/h (1 Bft) W-NW 292 ° 15,1 °C 25,7 °C 6,4 km/h (2 Bft) 95,65 %
31.08.2026 17:00 25,7 °C 51 % 1015,2 hPa 0,0 l/m² 8,0 km/h (2 Bft) W-NW 292 ° 14,8 °C 25,3 °C 11,3 km/h (2 Bft) 100,00 %
31.08.2026 16:59 25,7 °C 52 % 1015,2 hPa 0,0 l/m² 6,4 km/h (2 Bft) W 270 ° 15,1 °C 25,7 °C 12,9 km/h (3 Bft) 100,00 %
31.08.2026 16:58 25,7 °C 54 % 1015,3 hPa 0,0 l/m² 4,8 km/h (1 Bft) W-NW 292 ° 15,7 °C 25,7 °C 11,3 km/h (2 Bft) 100,00 %
31.08.2026 16:57 25,7 °C 52 % 1015,2 hPa 0,0 l/m² 3,2 km/h (1 Bft) W-NW 292 ° 15,1 °C 25,7 °C 6,4 km/h (2 Bft) 100,00 %
31.08.2026 16:56 25,7 °C 51 % 1015,2 hPa 0,0 l/m² 3,2 km/h (1 Bft) W 270 ° 14,8 °C 25,7 °C 4,8 km/h (1 Bft) 100,00 %
31.08.2026 16:55 25,6 °C 51 % 1015,2 hPa 0,0 l/m² 6,4 km/h (2 Bft) W-NW 292 ° 14,7 °C 25,6 °C 11,3 km/h (2 Bft) 100,00 %
31.08.2026 16:54 25,6 °C 52 % 1015,2 hPa 0,0 l/m² 6,4 km/h (2 Bft) W 270 ° 15,0 °C 25,6 °C 12,9 km/h (3 Bft) 100,00 %
31.08.2026 16:53 25,6 °C 53 % 1015,3 hPa 0,0 l/m² 3,2 km/h (1 Bft) W 270 ° 15,3 °C 25,6 °C 4,8 km/h (1 Bft) 100,00 %
31.08.2026 16:52 25,6 °C 56 % 1015,3 hPa 0,0 l/m² 3,2 km/h (1 Bft) W 270 ° 16,2 °C 25,6 °C 6,4 km/h (2 Bft) 95,65 %
31.08.2026 16:51 25,6 °C 57 % 1015,3 hPa 0,0 l/m² 3,2 km/h (1 Bft) W-NW 292 ° 16,4 °C 25,6 °C 8,0 km/h (2 Bft) 100,00 %
31.08.2026 16:50 25,5 °C 55 % 1015,3 hPa 0,0 l/m² 0,0 km/h (0 Bft) W-NW 292 ° 15,8 °C 25,5 °C 1,6 km/h (1 Bft) 100,00 %
31.08.2026 16:49 25,5 °C 56 % 1015,3 hPa 0,0 l/m² 1,6 km/h (1 Bft) W-NW 292 ° 16,1 °C 25,5 °C 3,2 km/h (1 Bft) 100,00 %
31.08.2026 16:48 25,4 °C 54 % 1015,3 hPa 0,0 l/m² 1,6 km/h (1 Bft) W-NW 292 ° 15,4 °C 25,4 °C 3,2 km/h (1 Bft) 100,00 %
31.08.2026 16:47 25,4 °C 53 % 1015,3 hPa 0,0 l/m² 1,6 km/h (1 Bft) W-NW 292 ° 15,1 °C 25,4 °C 3,2 km/h (1 Bft) 100,00 %
31.08.2026 16:46 25,4 °C 53 % 1015,3 hPa 0,0 l/m² 1,6 km/h (1 Bft) W-NW 292 ° 15,1 °C 25,4 °C 4,8 km/h (1 Bft) 100,00 %
31.08.2026 16:45 25,4 °C 54 % 1015,3 hPa 0,0 l/m² 0,0 km/h (0 Bft) N 0 ° 15,4 °C 25,4 °C 0,0 km/h (0 Bft) 95,65 %
31.08.2026 16:44 25,4 °C 54 % 1015,3 hPa 0,0 l/m² 0,0 km/h (0 Bft) N 0 ° 15,4 °C 25,4 °C 0,0 km/h (0 Bft) 100,00 %
31.08.2026 16:43 25,4 °C 57 % 1015,4 hPa 0,0 l/m² 0,0 km/h (0 Bft) N 0 ° 16,2 °C 25,4 °C 0,0 km/h (0 Bft) 100,00 %
31.08.2026 16:42 25,4 °C 54 % 1015,4 hPa 0,0 l/m² 0,0 km/h (0 Bft) N 0 ° 15,4 °C 25,4 °C 0,0 km/h (0 Bft) 100,00 %
31.08.2026 16:41 25,4 °C 55 % 1015,4 hPa 0,0 l/m² 0,0 km/h (0 Bft) N 0 ° 15,7 °C 25,4 °C 0,0 km/h (0 Bft) 100,00 %
31.08.2026 16:40 25,4 °C 56 % 1015,4 hPa 0,0 l/m² 0,0 km/h (0 Bft) N 0 ° 16,0 °C 25,4 °C 0,0 km/h (0 Bft) 95,65 %
31.08.2026 16:39 25,4 °C 54 % 1015,4 hPa 0,0 l/m² 1,6 km/h (1 Bft) N 360 ° 15,4 °C 25,4 °C 3,2 km/h (1 Bft) 100,00 %
31.08.2026 16:38 25,4 °C 53 % 1015,4 hPa 0,0 l/m² 1,6 km/h (1 Bft) N 360 ° 15,1 °C 25,4 °C 4,8 km/h (1 Bft) 100,00 %
31.08.2026 16:37 25,4 °C 53 % 1015,4 hPa 0,0 l/m² 3,2 km/h (1 Bft) N 360 ° 15,1 °C 25,4 °C 4,8 km/h (1 Bft) 100,00 %
31.08.2026 16:36 25,4 °C 54 % 1015,4 hPa 0,0 l/m² 1,6 km/h (1 Bft) N 360 ° 15,4 °C 25,4 °C 3,2 km/h (1 Bft) 95,65 %
31.08.2026 16:35 25,4 °C 53 % 1015,4 hPa 0,0 l/m² 3,2 km/h (1 Bft) N 360 ° 15,1 °C 25,4 °C 4,8 km/h (1 Bft) 100,00 %
31.08.2026 16:34 25,5 °C 53 % 1015,4 hPa 0,0 l/m² 1,6 km/h (1 Bft) N-NO 22 ° 15,2 °C 25,5 °C 4,8 km/h (1 Bft) 100,00 %
31.08.2026 16:33 25,5 °C 53 % 1015,4 hPa 0,0 l/m² 1,6 km/h (1 Bft) N-NO 22 ° 15,2 °C 25,5 °C 4,8 km/h (1 Bft) 95,65 %
31.08.2026 16:32 25,6 °C 53 % 1015,4 hPa 0,0 l/m² 3,2 km/h (1 Bft) O-NO 67 ° 15,3 °C 25,6 °C 4,8 km/h (1 Bft) 100,00 %
31.08.2026 16:31 25,6 °C 53 % 1015,4 hPa 0,0 l/m² 3,2 km/h (1 Bft) N-NW 337 ° 15,3 °C 25,6 °C 4,8 km/h (1 Bft) 100,00 %
31.08.2026 16:30 25,6 °C 53 % 1015,5 hPa 0,0 l/m² 1,6 km/h (1 Bft) N-NO 22 ° 15,3 °C 25,6 °C 4,8 km/h (1 Bft) 100,00 %
31.08.2026 16:29 25,7 °C 52 % 1015,5 hPa 0,0 l/m² 3,2 km/h (1 Bft) N 360 ° 15,1 °C 25,7 °C 6,4 km/h (2 Bft) 100,00 %
31.08.2026 16:28 25,7 °C 53 % 1015,5 hPa 0,0 l/m² 3,2 km/h (1 Bft) NW 315 ° 15,4 °C 25,7 °C 6,4 km/h (2 Bft) 100,00 %
31.08.2026 16:27 25,8 °C 53 % 1015,5 hPa 0,0 l/m² 3,2 km/h (1 Bft) NW 315 ° 15,5 °C 25,8 °C 6,4 km/h (2 Bft) 100,00 %
31.08.2026 16:26 25,8 °C 54 % 1015,5 hPa 0,0 l/m² 3,2 km/h (1 Bft) NW 315 ° 15,8 °C 25,8 °C 6,4 km/h (2 Bft) 95,65 %
31.08.2026 16:25 25,9 °C 52 % 1015,4 hPa 0,0 l/m² 3,2 km/h (1 Bft) N-NW 337 ° 15,3 °C 25,9 °C 4,8 km/h (1 Bft) 100,00 %
31.08.2026 16:24 25,9 °C 53 % 1015,4 hPa 0,0 l/m² 3,2 km/h (1 Bft) N-NW 337 ° 15,6 °C 25,9 °C 6,4 km/h (2 Bft) 95,65 %
31.08.2026 16:23 26,0 °C 52 % 1015,4 hPa 0,0 l/m² 3,2 km/h (1 Bft) NW 315 ° 15,4 °C 26,0 °C 4,8 km/h (1 Bft) 100,00 %
31.08.2026 16:22 26,0 °C 52 % 1015,5 hPa 0,0 l/m² 6,4 km/h (2 Bft) N 360 ° 15,4 °C 26,0 °C 12,9 km/h (3 Bft) 100,00 %
31.08.2026 16:21 26,1 °C 53 % 1015,4 hPa 0,0 l/m² 3,2 km/h (1 Bft) N-NW 337 ° 15,8 °C 26,1 °C 3,2 km/h (1 Bft) 100,00 %
31.08.2026 16:20 26,1 °C 53 % 1015,4 hPa 0,0 l/m² 4,8 km/h (1 Bft) N-NW 337 ° 15,8 °C 26,1 °C 9,7 km/h (2 Bft) 100,00 %
31.08.2026 16:19 26,2 °C 53 % 1015,5 hPa 0,0 l/m² 3,2 km/h (1 Bft) SW 225 ° 15,8 °C 26,2 °C 6,4 km/h (2 Bft) 100,00 %
31.08.2026 16:18 26,2 °C 51 % 1015,5 hPa 0,0 l/m² 3,2 km/h (1 Bft) S-SW 202 ° 15,2 °C 26,2 °C 4,8 km/h (1 Bft) 100,00 %
31.08.2026 16:17 26,3 °C 52 % 1015,4 hPa 0,0 l/m² 3,2 km/h (1 Bft) W-NW 292 ° 15,6 °C 26,3 °C 4,8 km/h (1 Bft) 100,00 %
31.08.2026 16:16 26,3 °C 51 % 1015,5 hPa 0,0 l/m² 3,2 km/h (1 Bft) W-SW 247 ° 15,3 °C 26,3 °C 6,4 km/h (2 Bft) 95,65 %
31.08.2026 16:15 26,4 °C 51 % 1015,5 hPa 0,0 l/m² 3,2 km/h (1 Bft) W-SW 247 ° 15,4 °C 26,4 °C 4,8 km/h (1 Bft) 100,00 %
31.08.2026 16:14 26,4 °C 51 % 1015,5 hPa 0,0 l/m² 3,2 km/h (1 Bft) W-NW 292 ° 15,4 °C 26,4 °C 8,0 km/h (2 Bft) 100,00 %
31.08.2026 16:13 26,4 °C 50 % 1015,5 hPa 0,0 l/m² 4,8 km/h (1 Bft) W-NW 292 ° 15,1 °C 26,4 °C 6,4 km/h (2 Bft) 100,00 %
31.08.2026 16:12 26,6 °C 51 % 1015,5 hPa 0,0 l/m² 4,8 km/h (1 Bft) W-NW 292 ° 15,6 °C 26,6 °C 9,7 km/h (2 Bft) 95,65 %
31.08.2026 16:11 26,6 °C 49 % 1015,5 hPa 0,0 l/m² 4,8 km/h (1 Bft) SW 225 ° 15,0 °C 26,6 °C 8,0 km/h (2 Bft) 100,00 %
31.08.2026 16:10 26,7 °C 50 % 1015,5 hPa 0,0 l/m² 3,2 km/h (1 Bft) W 270 ° 15,4 °C 26,7 °C 6,4 km/h (2 Bft) 100,00 %
31.08.2026 16:09 26,6 °C 49 % 1015,5 hPa 0,0 l/m² 3,2 km/h (1 Bft) W 270 ° 15,0 °C 26,6 °C 4,8 km/h (1 Bft) 95,65 %
31.08.2026 16:08 26,7 °C 52 % 1015,5 hPa 0,0 l/m² 3,2 km/h (1 Bft) NW 315 ° 16,0 °C 26,7 °C 4,8 km/h (1 Bft) 100,00 %
31.08.2026 16:07 26,7 °C 50 % 1015,5 hPa 0,0 l/m² 3,2 km/h (1 Bft) W 270 ° 15,4 °C 26,7 °C 4,8 km/h (1 Bft) 100,00 %
31.08.2026 16:06 26,7 °C 50 % 1015,5 hPa 0,0 l/m² 8,0 km/h (2 Bft) W-NW 292 ° 15,4 °C 26,4 °C 11,3 km/h (2 Bft) 100,00 %
31.08.2026 16:05 26,7 °C 50 % 1015,5 hPa 0,0 l/m² 6,4 km/h (2 Bft) W 270 ° 15,4 °C 26,7 °C 12,9 km/h (3 Bft) 100,00 %
31.08.2026 16:04 26,8 °C 51 % 1015,5 hPa 0,0 l/m² 3,2 km/h (1 Bft) W-SW 247 ° 15,8 °C 26,8 °C 9,7 km/h (2 Bft) 100,00 %
31.08.2026 16:03 26,8 °C 53 % 1015,5 hPa 0,0 l/m² 1,6 km/h (1 Bft) W-NW 292 ° 16,4 °C 26,8 °C 4,8 km/h (1 Bft) 100,00 %
31.08.2026 16:02 26,8 °C 52 % 1015,5 hPa 0,0 l/m² 3,2 km/h (1 Bft) N-NW 337 ° 16,1 °C 26,8 °C 6,4 km/h (2 Bft) 91,30 %
31.08.2026 16:01 26,8 °C 51 % 1015,5 hPa 0,0 l/m² 1,6 km/h (1 Bft) N 360 ° 15,8 °C 26,8 °C 3,2 km/h (1 Bft) 100,00 %
31.08.2026 16:00 26,8 °C 51 % 1015,6 hPa 0,0 l/m² 3,2 km/h (1 Bft) W 270 ° 15,8 °C 26,8 °C 6,4 km/h (2 Bft) 100,00 %
31.08.2026 15:59 26,8 °C 50 % 1015,5 hPa 0,0 l/m² 3,2 km/h (1 Bft) NW 315 ° 15,5 °C 26,8 °C 6,4 km/h (2 Bft) 100,00 %
31.08.2026 15:58 26,9 °C 52 % 1015,4 hPa 0,0 l/m² 1,6 km/h (1 Bft) W-SW 247 ° 16,2 °C 26,9 °C 3,2 km/h (1 Bft) 100,00 %
31.08.2026 15:57 26,9 °C 51 % 1015,5 hPa 0,0 l/m² 4,8 km/h (1 Bft) W-NW 292 ° 15,9 °C 26,9 °C 6,4 km/h (2 Bft) 100,00 %
31.08.2026 15:56 27,0 °C 50 % 1015,5 hPa 0,0 l/m² 3,2 km/h (1 Bft) W-NW 292 ° 15,7 °C 27,0 °C 6,4 km/h (2 Bft) 100,00 %
31.08.2026 15:55 27,1 °C 50 % 1015,5 hPa 0,0 l/m² 4,8 km/h (1 Bft) W-NW 292 ° 15,8 °C 27,1 °C 9,7 km/h (2 Bft) 100,00 %
31.08.2026 15:54 27,2 °C 50 % 1015,4 hPa 0,0 l/m² 4,8 km/h (1 Bft) W-NW 292 ° 15,9 °C 27,2 °C 11,3 km/h (2 Bft) 100,00 %
31.08.2026 15:53 27,2 °C 52 % 1015,4 hPa 0,0 l/m² 4,8 km/h (1 Bft) NW 315 ° 16,5 °C 27,2 °C 8,0 km/h (2 Bft) 95,65 %
31.08.2026 15:52 27,2 °C 50 % 1015,5 hPa 0,0 l/m² 6,4 km/h (2 Bft) W 270 ° 15,9 °C 27,2 °C 9,7 km/h (2 Bft) 95,65 %
31.08.2026 15:51 27,2 °C 51 % 1015,4 hPa 0,0 l/m² 4,8 km/h (1 Bft) W 270 ° 16,2 °C 27,2 °C 6,4 km/h (2 Bft) 100,00 %
31.08.2026 15:50 27,2 °C 51 % 1015,5 hPa 0,0 l/m² 4,8 km/h (1 Bft) W-NW 292 ° 16,2 °C 27,2 °C 6,4 km/h (2 Bft) 100,00 %
31.08.2026 15:49 27,2 °C 50 % 1015,5 hPa 0,0 l/m² 3,2 km/h (1 Bft) NW 315 ° 15,9 °C 27,2 °C 6,4 km/h (2 Bft) 100,00 %
31.08.2026 15:48 27,2 °C 50 % 1015,5 hPa 0,0 l/m² 3,2 km/h (1 Bft) W 270 ° 15,9 °C 27,2 °C 9,7 km/h (2 Bft) 100,00 %
31.08.2026 15:47 27,1 °C 54 % 1015,6 hPa 0,0 l/m² 3,2 km/h (1 Bft) W-SW 247 ° 17,0 °C 27,1 °C 6,4 km/h (2 Bft) 100,00 %
31.08.2026 15:46 27,1 °C 51 % 1015,5 hPa 0,0 l/m² 3,2 km/h (1 Bft) SW 225 ° 16,1 °C 27,1 °C 6,4 km/h (2 Bft) 100,00 %
31.08.2026 15:45 27,1 °C 51 % 1015,6 hPa 0,0 l/m² 3,2 km/h (1 Bft) W-NW 292 ° 16,1 °C 27,1 °C 6,4 km/h (2 Bft) 95,65 %
31.08.2026 15:44 27,0 °C 54 % 1015,6 hPa 0,0 l/m² 3,2 km/h (1 Bft) W-SW 247 ° 16,9 °C 27,0 °C 6,4 km/h (2 Bft) 100,00 %
31.08.2026 15:43 26,9 °C 53 % 1015,6 hPa 0,0 l/m² 4,8 km/h (1 Bft) W 270 ° 16,5 °C 26,9 °C 6,4 km/h (2 Bft) 100,00 %
31.08.2026 15:42 26,9 °C 56 % 1015,6 hPa 0,0 l/m² 6,4 km/h (2 Bft) N-NO 22 ° 17,4 °C 26,9 °C 12,9 km/h (3 Bft) 100,00 %
31.08.2026 15:41 26,8 °C 55 % 1015,6 hPa 0,0 l/m² 3,2 km/h (1 Bft) W-SW 247 ° 17,0 °C 26,8 °C 6,4 km/h (2 Bft) 100,00 %
31.08.2026 15:40 26,7 °C 52 % 1015,6 hPa 0,0 l/m² 3,2 km/h (1 Bft) W-NW 292 ° 16,0 °C 26,7 °C 4,8 km/h (1 Bft) 100,00 %
31.08.2026 15:39 26,7 °C 50 % 1015,6 hPa 0,0 l/m² 4,8 km/h (1 Bft) W-NW 292 ° 15,4 °C 26,7 °C 6,4 km/h (2 Bft) 100,00 %
31.08.2026 15:38 26,7 °C 52 % 1015,6 hPa 0,0 l/m² 6,4 km/h (2 Bft) W 270 ° 16,0 °C 26,7 °C 11,3 km/h (2 Bft) 100,00 %
31.08.2026 15:37 26,7 °C 54 % 1015,6 hPa 0,0 l/m² 6,4 km/h (2 Bft) W-SW 247 ° 16,6 °C 26,7 °C 14,5 km/h (3 Bft) 100,00 %
31.08.2026 15:36 26,6 °C 52 % 1015,6 hPa 0,0 l/m² 6,4 km/h (2 Bft) W-NW 292 ° 15,9 °C 26,6 °C 9,7 km/h (2 Bft) 100,00 %
31.08.2026 15:35 26,6 °C 55 % 1015,6 hPa 0,0 l/m² 4,8 km/h (1 Bft) SW 225 ° 16,8 °C 26,6 °C 6,4 km/h (2 Bft) 100,00 %
31.08.2026 15:34 26,5 °C 53 % 1015,6 hPa 0,0 l/m² 3,2 km/h (1 Bft) W-SW 247 ° 16,1 °C 26,5 °C 6,4 km/h (2 Bft) 100,00 %
31.08.2026 15:33 26,5 °C 53 % 1015,6 hPa 0,0 l/m² 3,2 km/h (1 Bft) W-SW 247 ° 16,1 °C 26,5 °C 9,7 km/h (2 Bft) 100,00 %
31.08.2026 15:32 26,5 °C 53 % 1015,7 hPa 0,0 l/m² 3,2 km/h (1 Bft) SW 225 ° 16,1 °C 26,5 °C 4,8 km/h (1 Bft) 100,00 %
31.08.2026 15:31 26,6 °C 51 % 1015,6 hPa 0,0 l/m² 6,4 km/h (2 Bft) SW 225 ° 15,6 °C 26,6 °C 11,3 km/h (2 Bft) 95,65 %
31.08.2026 15:30 26,5 °C 54 % 1015,7 hPa 0,0 l/m² 4,8 km/h (1 Bft) W-SW 247 ° 16,4 °C 26,5 °C 12,9 km/h (3 Bft) 100,00 %
31.08.2026 15:29 26,4 °C 53 % 1015,6 hPa 0,0 l/m² 4,8 km/h (1 Bft) W-NW 292 ° 16,0 °C 26,4 °C 6,4 km/h (2 Bft) 100,00 %
31.08.2026 15:28 26,4 °C 52 % 1015,6 hPa 0,0 l/m² 9,7 km/h (2 Bft) W-SW 247 ° 15,7 °C 25,8 °C 17,7 km/h (3 Bft) 100,00 %
31.08.2026 15:27 26,4 °C 53 % 1015,6 hPa 0,0 l/m² 6,4 km/h (2 Bft) W-NW 292 ° 16,0 °C 26,4 °C 9,7 km/h (2 Bft) 100,00 %
31.08.2026 15:26 26,4 °C 52 % 1015,7 hPa 0,0 l/m² 4,8 km/h (1 Bft) W 270 ° 15,7 °C 26,4 °C 9,7 km/h (2 Bft) 100,00 %
31.08.2026 15:25 26,4 °C 54 % 1015,7 hPa 0,0 l/m² 3,2 km/h (1 Bft) W 270 ° 16,3 °C 26,4 °C 6,4 km/h (2 Bft) 100,00 %
31.08.2026 15:24 26,4 °C 52 % 1015,6 hPa 0,0 l/m² 9,7 km/h (2 Bft) W-NW 292 ° 15,7 °C 25,8 °C 16,1 km/h (3 Bft) 100,00 %
31.08.2026 15:23 26,4 °C 52 % 1015,7 hPa 0,0 l/m² 4,8 km/h (1 Bft) W-NW 292 ° 15,7 °C 26,4 °C 6,4 km/h (2 Bft) 100,00 %
31.08.2026 15:22 26,4 °C 51 % 1015,7 hPa 0,0 l/m² 6,4 km/h (2 Bft) W 270 ° 15,4 °C 26,4 °C 11,3 km/h (2 Bft) 100,00 %
31.08.2026 15:21 26,3 °C 52 % 1015,7 hPa 0,0 l/m² 6,4 km/h (2 Bft) W-SW 247 ° 15,6 °C 26,3 °C 12,9 km/h (3 Bft) 100,00 %
31.08.2026 15:20 26,3 °C 53 % 1015,7 hPa 0,0 l/m² 3,2 km/h (1 Bft) W-SW 247 ° 15,9 °C 26,3 °C 6,4 km/h (2 Bft) 100,00 %
31.08.2026 15:19 26,2 °C 55 % 1015,6 hPa 0,0 l/m² 3,2 km/h (1 Bft) NW 315 ° 16,4 °C 26,2 °C 4,8 km/h (1 Bft) 100,00 %
31.08.2026 15:18 26,2 °C 55 % 1015,7 hPa 0,0 l/m² 4,8 km/h (1 Bft) SW 225 ° 16,4 °C 26,2 °C 4,8 km/h (1 Bft) 100,00 %
31.08.2026 15:17 26,1 °C 54 % 1015,7 hPa 0,0 l/m² 4,8 km/h (1 Bft) W-NW 292 ° 16,0 °C 26,1 °C 6,4 km/h (2 Bft) 100,00 %
31.08.2026 15:16 26,1 °C 54 % 1015,8 hPa 0,0 l/m² 4,8 km/h (1 Bft) W-NW 292 ° 16,0 °C 26,1 °C 6,4 km/h (2 Bft) 100,00 %
31.08.2026 15:15 26,0 °C 53 % 1015,7 hPa 0,0 l/m² 6,4 km/h (2 Bft) W 270 ° 15,7 °C 26,0 °C 9,7 km/h (2 Bft) 100,00 %
31.08.2026 15:14 25,9 °C 55 % 1015,7 hPa 0,0 l/m² 6,4 km/h (2 Bft) W-SW 247 ° 16,2 °C 25,9 °C 11,3 km/h (2 Bft) 100,00 %
31.08.2026 15:13 25,8 °C 53 % 1015,8 hPa 0,0 l/m² 3,2 km/h (1 Bft) SW 225 ° 15,5 °C 25,8 °C 9,7 km/h (2 Bft) 100,00 %
31.08.2026 15:12 25,8 °C 54 % 1015,8 hPa 0,0 l/m² 6,4 km/h (2 Bft) W-NW 292 ° 15,8 °C 25,8 °C 6,4 km/h (2 Bft) 95,65 %
31.08.2026 15:11 25,8 °C 58 % 1015,8 hPa 0,0 l/m² 6,4 km/h (2 Bft) W-NW 292 ° 16,9 °C 25,8 °C 8,0 km/h (2 Bft) 100,00 %
31.08.2026 15:10 25,7 °C 55 % 1015,8 hPa 0,0 l/m² 3,2 km/h (1 Bft) W 270 ° 16,0 °C 25,7 °C 11,3 km/h (2 Bft) 100,00 %
31.08.2026 15:09 25,7 °C 60 % 1015,8 hPa 0,0 l/m² 4,8 km/h (1 Bft) W-NW 292 ° 17,3 °C 25,7 °C 9,7 km/h (2 Bft) 95,65 %
31.08.2026 15:08 25,7 °C 56 % 1015,9 hPa 0,0 l/m² 4,8 km/h (1 Bft) S-SW 202 ° 16,2 °C 25,7 °C 6,4 km/h (2 Bft) 100,00 %
31.08.2026 15:07 25,6 °C 55 % 1015,8 hPa 0,0 l/m² 3,2 km/h (1 Bft) O-NO 67 ° 15,9 °C 25,6 °C 8,0 km/h (2 Bft) 100,00 %
31.08.2026 15:06 25,6 °C 54 % 1015,9 hPa 0,0 l/m² 1,6 km/h (1 Bft) O-NO 67 ° 15,6 °C 25,6 °C 3,2 km/h (1 Bft) 100,00 %
31.08.2026 15:05 25,6 °C 54 % 1015,9 hPa 0,0 l/m² 6,4 km/h (2 Bft) O-NO 67 ° 15,6 °C 25,6 °C 8,0 km/h (2 Bft) 100,00 %
31.08.2026 15:04 25,6 °C 56 % 1015,9 hPa 0,0 l/m² 1,6 km/h (1 Bft) NO 45 ° 16,2 °C 25,6 °C 6,4 km/h (2 Bft) 100,00 %
31.08.2026 15:03 25,5 °C 56 % 1015,9 hPa 0,0 l/m² 4,8 km/h (1 Bft) W 270 ° 16,1 °C 25,5 °C 9,7 km/h (2 Bft) 100,00 %
31.08.2026 15:02 25,5 °C 55 % 1015,9 hPa 0,0 l/m² 4,8 km/h (1 Bft) W-NW 292 ° 15,8 °C 25,5 °C 6,4 km/h (2 Bft) 100,00 %
31.08.2026 15:01 25,4 °C 56 % 1015,9 hPa 0,0 l/m² 6,4 km/h (2 Bft) NW 315 ° 16,0 °C 25,4 °C 9,7 km/h (2 Bft) 100,00 %
31.08.2026 15:00 25,4 °C 57 % 1015,9 hPa 0,0 l/m² 4,8 km/h (1 Bft) W-NW 292 ° 16,2 °C 25,4 °C 8,0 km/h (2 Bft) 95,65 %
31.08.2026 14:59 25,3 °C 56 % 1015,9 hPa 0,0 l/m² 8,0 km/h (2 Bft) NW 315 ° 15,9 °C 24,9 °C 12,9 km/h (3 Bft) 100,00 %
31.08.2026 14:58 25,2 °C 57 % 1015,9 hPa 0,0 l/m² 6,4 km/h (2 Bft) W-NW 292 ° 16,1 °C 25,2 °C 9,7 km/h (2 Bft) 100,00 %
31.08.2026 14:57 25,2 °C 56 % 1015,9 hPa 0,0 l/m² 4,8 km/h (1 Bft) W-NW 292 ° 15,8 °C 25,2 °C 6,4 km/h (2 Bft) 100,00 %
31.08.2026 14:56 25,1 °C 56 % 1016,0 hPa 0,0 l/m² 4,8 km/h (1 Bft) W 270 ° 15,7 °C 25,1 °C 11,3 km/h (2 Bft) 100,00 %
31.08.2026 14:55 25,1 °C 58 % 1015,9 hPa 0,0 l/m² 3,2 km/h (1 Bft) N 360 ° 16,2 °C 25,1 °C 6,4 km/h (2 Bft) 100,00 %
31.08.2026 14:54 25,0 °C 55 % 1016,0 hPa 0,0 l/m² 3,2 km/h (1 Bft) W-NW 292 ° 15,3 °C 25,0 °C 6,4 km/h (2 Bft) 100,00 %
31.08.2026 14:53 25,0 °C 56 % 1015,9 hPa 0,0 l/m² 4,8 km/h (1 Bft) W-NW 292 ° 15,6 °C 25,0 °C 8,0 km/h (2 Bft) 100,00 %
31.08.2026 14:52 25,0 °C 56 % 1016,0 hPa 0,0 l/m² 0,0 km/h (0 Bft) N-NW 337 ° 15,6 °C 25,0 °C 3,2 km/h (1 Bft) 95,65 %
31.08.2026 14:51 25,0 °C 55 % 1015,9 hPa 0,0 l/m² 3,2 km/h (1 Bft) N-NW 337 ° 15,3 °C 25,0 °C 4,8 km/h (1 Bft) 100,00 %
31.08.2026 14:50 25,1 °C 55 % 1016,0 hPa 0,0 l/m² 4,8 km/h (1 Bft) NW 315 ° 15,4 °C 25,1 °C 6,4 km/h (2 Bft) 95,65 %
31.08.2026 14:49 25,1 °C 54 % 1015,9 hPa 0,0 l/m² 1,6 km/h (1 Bft) N-NO 22 ° 15,1 °C 25,1 °C 6,4 km/h (2 Bft) 100,00 %
31.08.2026 14:48 25,1 °C 54 % 1016,0 hPa 0,0 l/m² 4,8 km/h (1 Bft) N 360 ° 15,1 °C 25,1 °C 8,0 km/h (2 Bft) 100,00 %
31.08.2026 14:47 25,2 °C 55 % 1016,0 hPa 0,0 l/m² 3,2 km/h (1 Bft) N-NW 337 ° 15,5 °C 25,2 °C 4,8 km/h (1 Bft) 100,00 %
31.08.2026 14:46 25,2 °C 55 % 1016,0 hPa 0,0 l/m² 3,2 km/h (1 Bft) N-NW 337 ° 15,5 °C 25,2 °C 4,8 km/h (1 Bft) 100,00 %
31.08.2026 14:45 25,3 °C 54 % 1016,0 hPa 0,0 l/m² 4,8 km/h (1 Bft) N-NO 22 ° 15,3 °C 25,3 °C 8,0 km/h (2 Bft) 100,00 %
31.08.2026 14:44 25,3 °C 54 % 1016,1 hPa 0,0 l/m² 4,8 km/h (1 Bft) N-NW 337 ° 15,3 °C 25,3 °C 6,4 km/h (2 Bft) 100,00 %
31.08.2026 14:43 25,4 °C 54 % 1016,0 hPa 0,0 l/m² 4,8 km/h (1 Bft) W-NW 292 ° 15,4 °C 25,4 °C 8,0 km/h (2 Bft) 100,00 %
31.08.2026 14:42 25,5 °C 53 % 1016,0 hPa 0,0 l/m² 6,4 km/h (2 Bft) W-NW 292 ° 15,2 °C 25,5 °C 12,9 km/h (3 Bft) 91,30 %
31.08.2026 14:41 25,6 °C 54 % 1016,0 hPa 0,0 l/m² 6,4 km/h (2 Bft) W-NW 292 ° 15,6 °C 25,6 °C 9,7 km/h (2 Bft) 100,00 %
31.08.2026 14:40 25,7 °C 54 % 1016,0 hPa 0,0 l/m² 8,0 km/h (2 Bft) W 270 ° 15,7 °C 25,3 °C 14,5 km/h (3 Bft) 100,00 %
31.08.2026 14:39 25,7 °C 55 % 1015,9 hPa 0,0 l/m² 4,8 km/h (1 Bft) W-NW 292 ° 16,0 °C 25,7 °C 11,3 km/h (2 Bft) 100,00 %
31.08.2026 14:38 25,7 °C 55 % 1016,0 hPa 0,0 l/m² 4,8 km/h (1 Bft) N-NW 337 ° 16,0 °C 25,7 °C 8,0 km/h (2 Bft) 100,00 %
31.08.2026 14:37 25,7 °C 55 % 1015,9 hPa 0,0 l/m² 8,0 km/h (2 Bft) NW 315 ° 16,0 °C 25,3 °C 14,5 km/h (3 Bft) 100,00 %
31.08.2026 14:36 25,6 °C 55 % 1015,9 hPa 0,0 l/m² 4,8 km/h (1 Bft) N-NW 337 ° 15,9 °C 25,6 °C 11,3 km/h (2 Bft) 100,00 %
31.08.2026 14:35 25,6 °C 58 % 1015,9 hPa 0,0 l/m² 3,2 km/h (1 Bft) N 360 ° 16,7 °C 25,6 °C 4,8 km/h (1 Bft) 100,00 %
31.08.2026 14:34 25,5 °C 54 % 1015,9 hPa 0,0 l/m² 4,8 km/h (1 Bft) W-NW 292 ° 15,5 °C 25,5 °C 9,7 km/h (2 Bft) 95,65 %
31.08.2026 14:33 25,5 °C 56 % 1015,9 hPa 0,0 l/m² 4,8 km/h (1 Bft) W 270 ° 16,1 °C 25,5 °C 12,9 km/h (3 Bft) 100,00 %
31.08.2026 14:32 25,4 °C 55 % 1015,9 hPa 0,0 l/m² 6,4 km/h (2 Bft) W-NW 292 ° 15,7 °C 25,4 °C 11,3 km/h (2 Bft) 100,00 %
31.08.2026 14:31 25,3 °C 56 % 1015,9 hPa 0,0 l/m² 3,2 km/h (1 Bft) W-NW 292 ° 15,9 °C 25,3 °C 4,8 km/h (1 Bft) 100,00 %
31.08.2026 14:30 25,3 °C 57 % 1015,9 hPa 0,0 l/m² 4,8 km/h (1 Bft) W-NW 292 ° 16,2 °C 25,3 °C 11,3 km/h (2 Bft) 100,00 %
31.08.2026 14:29 25,3 °C 57 % 1015,9 hPa 0,0 l/m² 8,0 km/h (2 Bft) W-NW 292 ° 16,2 °C 24,9 °C 16,1 km/h (3 Bft) 100,00 %
31.08.2026 14:28 25,1 °C 56 % 1015,9 hPa 0,0 l/m² 8,0 km/h (2 Bft) W-NW 292 ° 15,7 °C 24,7 °C 11,3 km/h (2 Bft) 100,00 %
31.08.2026 14:27 25,1 °C 57 % 1015,8 hPa 0,0 l/m² 4,8 km/h (1 Bft) W 270 ° 16,0 °C 25,1 °C 12,9 km/h (3 Bft) 100,00 %
31.08.2026 14:26 25,0 °C 58 % 1015,8 hPa 0,0 l/m² 4,8 km/h (1 Bft) W-NW 292 ° 16,1 °C 25,0 °C 9,7 km/h (2 Bft) 95,65 %
31.08.2026 14:25 24,9 °C 57 % 1015,9 hPa 0,0 l/m² 8,0 km/h (2 Bft) N-NO 22 ° 15,8 °C 24,5 °C 16,1 km/h (3 Bft) 100,00 %
31.08.2026 14:24 24,7 °C 58 % 1015,9 hPa 0,0 l/m² 6,4 km/h (2 Bft) NW 315 ° 15,9 °C 24,7 °C 14,5 km/h (3 Bft) 100,00 %
31.08.2026 14:23 24,6 °C 60 % 1016,0 hPa 0,0 l/m² 3,2 km/h (1 Bft) W 270 ° 16,3 °C 24,6 °C 4,8 km/h (1 Bft) 100,00 %
31.08.2026 14:22 24,6 °C 61 % 1016,0 hPa 0,0 l/m² 3,2 km/h (1 Bft) W 270 ° 16,6 °C 24,6 °C 4,8 km/h (1 Bft) 100,00 %
31.08.2026 14:21 24,4 °C 62 % 1015,9 hPa 0,0 l/m² 3,2 km/h (1 Bft) SW 225 ° 16,6 °C 24,4 °C 4,8 km/h (1 Bft) 100,00 %
31.08.2026 14:20 24,3 °C 61 % 1016,0 hPa 0,0 l/m² 1,6 km/h (1 Bft) NW 315 ° 16,3 °C 24,3 °C 3,2 km/h (1 Bft) 100,00 %
31.08.2026 14:19 24,3 °C 61 % 1015,9 hPa 0,0 l/m² 3,2 km/h (1 Bft) W-NW 292 ° 16,3 °C 24,3 °C 4,8 km/h (1 Bft) 100,00 %
31.08.2026 14:18 24,2 °C 59 % 1016,0 hPa 0,0 l/m² 3,2 km/h (1 Bft) W 270 ° 15,7 °C 24,2 °C 4,8 km/h (1 Bft) 100,00 %
31.08.2026 14:17 24,2 °C 60 % 1015,9 hPa 0,0 l/m² 1,6 km/h (1 Bft) W-NW 292 ° 15,9 °C 24,2 °C 3,2 km/h (1 Bft) 100,00 %
31.08.2026 14:16 24,2 °C 59 % 1015,9 hPa 0,0 l/m² 1,6 km/h (1 Bft) N-NW 337 ° 15,7 °C 24,2 °C 4,8 km/h (1 Bft) 95,65 %
31.08.2026 14:15 24,2 °C 58 % 1015,9 hPa 0,0 l/m² 0,0 km/h (0 Bft) W-NW 292 ° 15,4 °C 24,2 °C 1,6 km/h (1 Bft) 100,00 %
31.08.2026 14:14 24,2 °C 58 % 1015,9 hPa 0,0 l/m² 3,2 km/h (1 Bft) W-NW 292 ° 15,4 °C 24,2 °C 6,4 km/h (2 Bft) 100,00 %
31.08.2026 14:13 24,2 °C 58 % 1015,9 hPa 0,0 l/m² 3,2 km/h (1 Bft) W-SW 247 ° 15,4 °C 24,2 °C 4,8 km/h (1 Bft) 100,00 %
31.08.2026 14:12 24,2 °C 58 % 1015,9 hPa 0,0 l/m² 0,0 km/h (0 Bft) W-NW 292 ° 15,4 °C 24,2 °C 1,6 km/h (1 Bft) 100,00 %
31.08.2026 14:11 24,3 °C 59 % 1015,9 hPa 0,0 l/m² 1,6 km/h (1 Bft) W-NW 292 ° 15,8 °C 24,3 °C 3,2 km/h (1 Bft) 100,00 %
31.08.2026 14:10 24,2 °C 58 % 1015,8 hPa 0,0 l/m² 1,6 km/h (1 Bft) NW 315 ° 15,4 °C 24,2 °C 3,2 km/h (1 Bft) 100,00 %
31.08.2026 14:09 24,2 °C 58 % 1015,9 hPa 0,0 l/m² 1,6 km/h (1 Bft) N-NW 337 ° 15,4 °C 24,2 °C 3,2 km/h (1 Bft) 100,00 %
31.08.2026 14:08 24,2 °C 57 % 1015,9 hPa 0,0 l/m² 3,2 km/h (1 Bft) N 360 ° 15,1 °C 24,2 °C 4,8 km/h (1 Bft) 100,00 %
31.08.2026 14:07 24,2 °C 58 % 1015,9 hPa 0,0 l/m² 6,4 km/h (2 Bft) N-NW 337 ° 15,4 °C 24,2 °C 8,0 km/h (2 Bft) 95,65 %
31.08.2026 14:06 24,2 °C 58 % 1015,9 hPa 0,0 l/m² 4,8 km/h (1 Bft) NW 315 ° 15,4 °C 24,2 °C 8,0 km/h (2 Bft) 100,00 %
31.08.2026 14:05 24,2 °C 58 % 1016,0 hPa 0,0 l/m² 4,8 km/h (1 Bft) N-NW 337 ° 15,4 °C 24,2 °C 6,4 km/h (2 Bft) 100,00 %
31.08.2026 14:04 24,2 °C 59 % 1016,0 hPa 0,0 l/m² 4,8 km/h (1 Bft) N-NW 337 ° 15,7 °C 24,2 °C 8,0 km/h (2 Bft) 100,00 %
31.08.2026 14:03 24,1 °C 59 % 1015,9 hPa 0,0 l/m² 4,8 km/h (1 Bft) NW 315 ° 15,6 °C 24,1 °C 8,0 km/h (2 Bft) 100,00 %
31.08.2026 14:02 24,1 °C 61 % 1015,9 hPa 0,0 l/m² 3,2 km/h (1 Bft) NW 315 ° 16,1 °C 24,1 °C 6,4 km/h (2 Bft) 100,00 %
31.08.2026 14:01 24,1 °C 60 % 1015,9 hPa 0,0 l/m² 3,2 km/h (1 Bft) W-NW 292 ° 15,8 °C 24,1 °C 4,8 km/h (1 Bft) 100,00 %
31.08.2026 14:00 24,1 °C 59 % 1015,9 hPa 0,0 l/m² 6,4 km/h (2 Bft) W-NW 292 ° 15,6 °C 24,1 °C 11,3 km/h (2 Bft) 100,00 %
31.08.2026 13:59 24,1 °C 60 % 1015,9 hPa 0,0 l/m² 1,6 km/h (1 Bft) SW 225 ° 15,8 °C 24,1 °C 4,8 km/h (1 Bft) 100,00 %
31.08.2026 13:58 24,0 °C 63 % 1016,0 hPa 0,0 l/m² 1,6 km/h (1 Bft) NW 315 ° 16,5 °C 24,0 °C 4,8 km/h (1 Bft) 95,65 %
31.08.2026 13:57 23,9 °C 59 % 1016,0 hPa 0,0 l/m² 4,8 km/h (1 Bft) W-NW 292 ° 15,4 °C 23,9 °C 8,0 km/h (2 Bft) 100,00 %
31.08.2026 13:56 23,9 °C 61 % 1016,0 hPa 0,0 l/m² 6,4 km/h (2 Bft) W-NW 292 ° 15,9 °C 23,9 °C 11,3 km/h (2 Bft) 100,00 %
31.08.2026 13:55 23,8 °C 61 % 1016,1 hPa 0,0 l/m² 6,4 km/h (2 Bft) W-NW 292 ° 15,8 °C 23,8 °C 9,7 km/h (2 Bft) 100,00 %
31.08.2026 13:54 23,8 °C 61 % 1016,0 hPa 0,0 l/m² 4,8 km/h (1 Bft) N 360 ° 15,8 °C 23,8 °C 8,0 km/h (2 Bft) 100,00 %
31.08.2026 13:53 23,8 °C 62 % 1016,1 hPa 0,0 l/m² 3,2 km/h (1 Bft) NW 315 ° 16,1 °C 23,8 °C 6,4 km/h (2 Bft) 100,00 %
31.08.2026 13:52 23,7 °C 59 % 1016,0 hPa 0,0 l/m² 1,6 km/h (1 Bft) W 270 ° 15,2 °C 23,7 °C 3,2 km/h (1 Bft) 95,65 %
31.08.2026 13:51 23,7 °C 60 % 1016,0 hPa 0,0 l/m² 3,2 km/h (1 Bft) W 270 ° 15,5 °C 23,7 °C 4,8 km/h (1 Bft) 100,00 %
31.08.2026 13:50 23,8 °C 60 % 1016,1 hPa 0,0 l/m² 3,2 km/h (1 Bft) W-NW 292 ° 15,6 °C 23,8 °C 4,8 km/h (1 Bft) 100,00 %
31.08.2026 13:49 23,8 °C 61 % 1016,1 hPa 0,0 l/m² 1,6 km/h (1 Bft) W-NW 292 ° 15,8 °C 23,8 °C 3,2 km/h (1 Bft) 100,00 %
31.08.2026 13:48 23,8 °C 60 % 1016,1 hPa 0,0 l/m² 3,2 km/h (1 Bft) W-NW 292 ° 15,6 °C 23,8 °C 3,2 km/h (1 Bft) 95,65 %
31.08.2026 13:47 23,8 °C 60 % 1016,0 hPa 0,0 l/m² 1,6 km/h (1 Bft) W-NW 292 ° 15,6 °C 23,8 °C 3,2 km/h (1 Bft) 100,00 %
31.08.2026 13:46 23,8 °C 60 % 1016,1 hPa 0,0 l/m² 3,2 km/h (1 Bft) NW 315 ° 15,6 °C 23,8 °C 4,8 km/h (1 Bft) 100,00 %
31.08.2026 13:45 23,8 °C 61 % 1016,1 hPa 0,0 l/m² 1,6 km/h (1 Bft) N 360 ° 15,8 °C 23,8 °C 3,2 km/h (1 Bft) 100,00 %
31.08.2026 13:44 23,9 °C 62 % 1016,1 hPa 0,0 l/m² 3,2 km/h (1 Bft) W-NW 292 ° 16,2 °C 23,9 °C 4,8 km/h (1 Bft) 100,00 %
31.08.2026 13:43 23,9 °C 61 % 1016,0 hPa 0,0 l/m² 1,6 km/h (1 Bft) W-NW 292 ° 15,9 °C 23,9 °C 3,2 km/h (1 Bft) 95,65 %
31.08.2026 13:42 23,9 °C 60 % 1016,2 hPa 0,0 l/m² 4,8 km/h (1 Bft) W-NW 292 ° 15,7 °C 23,9 °C 6,4 km/h (2 Bft) 100,00 %
31.08.2026 13:41 23,8 °C 61 % 1016,2 hPa 0,0 l/m² 3,2 km/h (1 Bft) W-NW 292 ° 15,8 °C 23,8 °C 4,8 km/h (1 Bft) 100,00 %
31.08.2026 13:40 23,9 °C 62 % 1016,1 hPa 0,0 l/m² 3,2 km/h (1 Bft) W-SW 247 ° 16,2 °C 23,9 °C 4,8 km/h (1 Bft) 100,00 %
31.08.2026 13:39 23,9 °C 61 % 1016,2 hPa 0,0 l/m² 1,6 km/h (1 Bft) N-NO 22 ° 15,9 °C 23,9 °C 3,2 km/h (1 Bft) 100,00 %
31.08.2026 13:38 23,9 °C 61 % 1016,2 hPa 0,0 l/m² 3,2 km/h (1 Bft) NO 45 ° 15,9 °C 23,9 °C 4,8 km/h (1 Bft) 100,00 %
31.08.2026 13:37 23,9 °C 60 % 1016,2 hPa 0,0 l/m² 4,8 km/h (1 Bft) W-NW 292 ° 15,7 °C 23,9 °C 6,4 km/h (2 Bft) 100,00 %
31.08.2026 13:36 23,9 °C 61 % 1016,2 hPa 0,0 l/m² 3,2 km/h (1 Bft) W-NW 292 ° 15,9 °C 23,9 °C 3,2 km/h (1 Bft) 100,00 %
31.08.2026 13:35 23,9 °C 61 % 1016,1 hPa 0,0 l/m² 3,2 km/h (1 Bft) W-NW 292 ° 15,9 °C 23,9 °C 3,2 km/h (1 Bft) 95,65 %
31.08.2026 13:34 23,9 °C 61 % 1016,1 hPa 0,0 l/m² 3,2 km/h (1 Bft) NW 315 ° 15,9 °C 23,9 °C 4,8 km/h (1 Bft) 100,00 %
31.08.2026 13:33 23,9 °C 61 % 1016,2 hPa 0,0 l/m² 1,6 km/h (1 Bft) NW 315 ° 15,9 °C 23,9 °C 4,8 km/h (1 Bft) 100,00 %
31.08.2026 13:32 23,9 °C 60 % 1016,3 hPa 0,0 l/m² 3,2 km/h (1 Bft) W-NW 292 ° 15,7 °C 23,9 °C 6,4 km/h (2 Bft) 100,00 %
31.08.2026 13:31 23,9 °C 60 % 1016,2 hPa 0,0 l/m² 4,8 km/h (1 Bft) W-NW 292 ° 15,7 °C 23,9 °C 6,4 km/h (2 Bft) 100,00 %
31.08.2026 13:30 23,9 °C 60 % 1016,2 hPa 0,0 l/m² 4,8 km/h (1 Bft) W-NW 292 ° 15,7 °C 23,9 °C 6,4 km/h (2 Bft) 95,65 %
31.08.2026 13:29 24,0 °C 60 % 1016,2 hPa 0,0 l/m² 4,8 km/h (1 Bft) W-NW 292 ° 15,7 °C 24,0 °C 11,3 km/h (2 Bft) 100,00 %
31.08.2026 13:28 24,1 °C 60 % 1016,3 hPa 0,0 l/m² 3,2 km/h (1 Bft) W 270 ° 15,8 °C 24,1 °C 6,4 km/h (2 Bft) 95,65 %
31.08.2026 13:27 24,1 °C 59 % 1016,3 hPa 0,0 l/m² 3,2 km/h (1 Bft) W 270 ° 15,6 °C 24,1 °C 4,8 km/h (1 Bft) 100,00 %
31.08.2026 13:26 24,1 °C 60 % 1016,2 hPa 0,0 l/m² 4,8 km/h (1 Bft) W-NW 292 ° 15,8 °C 24,1 °C 9,7 km/h (2 Bft) 95,65 %
31.08.2026 13:25 24,2 °C 59 % 1016,3 hPa 0,0 l/m² 3,2 km/h (1 Bft) W-NW 292 ° 15,7 °C 24,2 °C 6,4 km/h (2 Bft) 100,00 %
31.08.2026 13:24 24,2 °C 59 % 1016,2 hPa 0,0 l/m² 6,4 km/h (2 Bft) W-NW 292 ° 15,7 °C 24,2 °C 8,0 km/h (2 Bft) 100,00 %
31.08.2026 13:23 24,3 °C 59 % 1016,3 hPa 0,0 l/m² 3,2 km/h (1 Bft) W-NW 292 ° 15,8 °C 24,3 °C 6,4 km/h (2 Bft) 100,00 %
31.08.2026 13:22 24,3 °C 59 % 1016,2 hPa 0,0 l/m² 6,4 km/h (2 Bft) W-NW 292 ° 15,8 °C 24,3 °C 8,0 km/h (2 Bft) 100,00 %
31.08.2026 13:21 24,4 °C 58 % 1016,2 hPa 0,0 l/m² 6,4 km/h (2 Bft) W-NW 292 ° 15,6 °C 24,4 °C 9,7 km/h (2 Bft) 100,00 %
31.08.2026 13:20 24,4 °C 59 % 1016,3 hPa 0,0 l/m² 4,8 km/h (1 Bft) NW 315 ° 15,9 °C 24,4 °C 9,7 km/h (2 Bft) 100,00 %
31.08.2026 13:19 24,4 °C 59 % 1016,3 hPa 0,0 l/m² 4,8 km/h (1 Bft) N-NO 22 ° 15,9 °C 24,4 °C 11,3 km/h (2 Bft) 100,00 %
31.08.2026 13:18 24,4 °C 59 % 1016,3 hPa 0,0 l/m² 4,8 km/h (1 Bft) N-NW 337 ° 15,9 °C 24,4 °C 6,4 km/h (2 Bft) 100,00 %
31.08.2026 13:17 24,6 °C 59 % 1016,3 hPa 0,0 l/m² 4,8 km/h (1 Bft) N 360 ° 16,0 °C 24,6 °C 8,0 km/h (2 Bft) 100,00 %
31.08.2026 13:16 24,6 °C 59 % 1016,3 hPa 0,0 l/m² 1,6 km/h (1 Bft) N 360 ° 16,0 °C 24,6 °C 3,2 km/h (1 Bft) 100,00 %
31.08.2026 13:15 24,6 °C 58 % 1016,3 hPa 0,0 l/m² 6,4 km/h (2 Bft) N 360 ° 15,8 °C 24,6 °C 8,0 km/h (2 Bft) 100,00 %
31.08.2026 13:14 24,6 °C 58 % 1016,3 hPa 0,0 l/m² 4,8 km/h (1 Bft) W-SW 247 ° 15,8 °C 24,6 °C 9,7 km/h (2 Bft) 100,00 %
31.08.2026 13:13 24,7 °C 58 % 1016,3 hPa 0,0 l/m² 4,8 km/h (1 Bft) NW 315 ° 15,9 °C 24,7 °C 8,0 km/h (2 Bft) 100,00 %
31.08.2026 13:12 24,7 °C 59 % 1016,3 hPa 0,0 l/m² 6,4 km/h (2 Bft) W-NW 292 ° 16,1 °C 24,7 °C 12,9 km/h (3 Bft) 100,00 %
31.08.2026 13:11 24,7 °C 59 % 1016,2 hPa 0,0 l/m² 4,8 km/h (1 Bft) W-NW 292 ° 16,1 °C 24,7 °C 6,4 km/h (2 Bft) 100,00 %
31.08.2026 13:10 24,7 °C 59 % 1016,2 hPa 0,0 l/m² 4,8 km/h (1 Bft) SW 225 ° 16,1 °C 24,7 °C 8,0 km/h (2 Bft) 100,00 %
31.08.2026 13:09 24,7 °C 57 % 1016,3 hPa 0,0 l/m² 6,4 km/h (2 Bft) SW 225 ° 15,6 °C 24,7 °C 12,9 km/h (3 Bft) 100,00 %
31.08.2026 13:08 24,7 °C 57 % 1016,3 hPa 0,0 l/m² 4,8 km/h (1 Bft) S 180 ° 15,6 °C 24,7 °C 8,0 km/h (2 Bft) 95,65 %
31.08.2026 13:07 24,7 °C 57 % 1016,2 hPa 0,0 l/m² 8,0 km/h (2 Bft) W-NW 292 ° 15,6 °C 24,3 °C 14,5 km/h (3 Bft) 100,00 %
31.08.2026 13:06 24,7 °C 59 % 1016,2 hPa 0,0 l/m² 12,9 km/h (3 Bft) W-NW 292 ° 16,1 °C 23,3 °C 22,5 km/h (4 Bft) 100,00 %
31.08.2026 13:05 24,6 °C 59 % 1016,3 hPa 0,0 l/m² 8,0 km/h (2 Bft) W 270 ° 16,0 °C 24,2 °C 19,3 km/h (3 Bft) 100,00 %
31.08.2026 13:04 24,6 °C 58 % 1016,3 hPa 0,0 l/m² 11,3 km/h (2 Bft) W 270 ° 15,8 °C 23,5 °C 16,1 km/h (3 Bft) 95,65 %
31.08.2026 13:03 24,5 °C 59 % 1016,3 hPa 0,0 l/m² 11,3 km/h (2 Bft) W 270 ° 15,9 °C 23,3 °C 17,7 km/h (3 Bft) 100,00 %
31.08.2026 13:02 24,5 °C 60 % 1016,3 hPa 0,0 l/m² 8,0 km/h (2 Bft) W-SW 247 ° 16,2 °C 24,1 °C 14,5 km/h (3 Bft) 100,00 %
31.08.2026 13:01 24,4 °C 60 % 1016,3 hPa 0,0 l/m² 9,7 km/h (2 Bft) W 270 ° 16,1 °C 23,6 °C 17,7 km/h (3 Bft) 100,00 %
31.08.2026 13:00 24,4 °C 62 % 1016,3 hPa 0,0 l/m² 6,4 km/h (2 Bft) W-SW 247 ° 16,6 °C 24,4 °C 9,7 km/h (2 Bft) 100,00 %
31.08.2026 12:59 24,3 °C 58 % 1016,3 hPa 0,0 l/m² 4,8 km/h (1 Bft) W-NW 292 ° 15,5 °C 24,3 °C 11,3 km/h (2 Bft) 95,65 %
31.08.2026 12:58 24,3 °C 60 % 1016,3 hPa 0,0 l/m² 9,7 km/h (2 Bft) W 270 ° 16,0 °C 23,5 °C 14,5 km/h (3 Bft) 100,00 %
31.08.2026 12:57 24,2 °C 61 % 1016,3 hPa 0,0 l/m² 8,0 km/h (2 Bft) W 270 ° 16,2 °C 23,8 °C 14,5 km/h (3 Bft) 100,00 %
31.08.2026 12:56 24,2 °C 62 % 1016,3 hPa 0,0 l/m² 8,0 km/h (2 Bft) SW 225 ° 16,4 °C 23,8 °C 14,5 km/h (3 Bft) 100,00 %
31.08.2026 12:55 24,1 °C 60 % 1016,3 hPa 0,0 l/m² 3,2 km/h (1 Bft) W-SW 247 ° 15,8 °C 24,1 °C 6,4 km/h (2 Bft) 100,00 %
31.08.2026 12:54 24,1 °C 61 % 1016,3 hPa 0,0 l/m² 4,8 km/h (1 Bft) W 270 ° 16,1 °C 24,1 °C 6,4 km/h (2 Bft) 100,00 %
31.08.2026 12:53 24,1 °C 63 % 1016,3 hPa 0,0 l/m² 4,8 km/h (1 Bft) W 270 ° 16,6 °C 24,1 °C 6,4 km/h (2 Bft) 100,00 %
31.08.2026 12:52 24,1 °C 59 % 1016,3 hPa 0,0 l/m² 4,8 km/h (1 Bft) SW 225 ° 15,6 °C 24,1 °C 8,0 km/h (2 Bft) 100,00 %
31.08.2026 12:51 24,1 °C 61 % 1016,3 hPa 0,0 l/m² 4,8 km/h (1 Bft) SW 225 ° 16,1 °C 24,1 °C 8,0 km/h (2 Bft) 95,65 %
31.08.2026 12:50 24,1 °C 60 % 1016,3 hPa 0,0 l/m² 6,4 km/h (2 Bft) W-NW 292 ° 15,8 °C 24,1 °C 9,7 km/h (2 Bft) 100,00 %
31.08.2026 12:49 24,1 °C 59 % 1016,4 hPa 0,0 l/m² 8,0 km/h (2 Bft) W 270 ° 15,6 °C 23,7 °C 12,9 km/h (3 Bft) 100,00 %
31.08.2026 12:48 24,1 °C 59 % 1016,4 hPa 0,0 l/m² 8,0 km/h (2 Bft) W 270 ° 15,6 °C 23,7 °C 11,3 km/h (2 Bft) 100,00 %
31.08.2026 12:47 24,1 °C 60 % 1016,4 hPa 0,0 l/m² 3,2 km/h (1 Bft) W-NW 292 ° 15,8 °C 24,1 °C 6,4 km/h (2 Bft) 95,65 %
31.08.2026 12:46 24,1 °C 59 % 1016,4 hPa 0,0 l/m² 6,4 km/h (2 Bft) W-NW 292 ° 15,6 °C 24,1 °C 11,3 km/h (2 Bft) 100,00 %
31.08.2026 12:45 24,1 °C 60 % 1016,4 hPa 0,0 l/m² 9,7 km/h (2 Bft) W-SW 247 ° 15,8 °C 23,2 °C 14,5 km/h (3 Bft) 95,65 %
31.08.2026 12:44 24,1 °C 61 % 1016,4 hPa 0,0 l/m² 8,0 km/h (2 Bft) W 270 ° 16,1 °C 23,7 °C 11,3 km/h (2 Bft) 100,00 %
31.08.2026 12:43 24,0 °C 62 % 1016,4 hPa 0,0 l/m² 6,4 km/h (2 Bft) S-SW 202 ° 16,3 °C 24,0 °C 11,3 km/h (2 Bft) 100,00 %
31.08.2026 12:42 23,9 °C 63 % 1016,4 hPa 0,0 l/m² 6,4 km/h (2 Bft) SW 225 ° 16,4 °C 23,9 °C 9,7 km/h (2 Bft) 100,00 %
31.08.2026 12:41 23,9 °C 61 % 1016,4 hPa 0,0 l/m² 9,7 km/h (2 Bft) SW 225 ° 15,9 °C 23,0 °C 16,1 km/h (3 Bft) 100,00 %
31.08.2026 12:40 23,9 °C 63 % 1016,4 hPa 0,0 l/m² 6,4 km/h (2 Bft) SW 225 ° 16,4 °C 23,9 °C 8,0 km/h (2 Bft) 100,00 %
31.08.2026 12:39 23,9 °C 60 % 1016,4 hPa 0,0 l/m² 6,4 km/h (2 Bft) W 270 ° 15,7 °C 23,9 °C 11,3 km/h (2 Bft) 100,00 %
31.08.2026 12:38 23,9 °C 61 % 1016,4 hPa 0,0 l/m² 4,8 km/h (1 Bft) SW 225 ° 15,9 °C 23,9 °C 8,0 km/h (2 Bft) 100,00 %
31.08.2026 12:37 23,9 °C 59 % 1016,5 hPa 0,0 l/m² 8,0 km/h (2 Bft) W 270 ° 15,4 °C 23,4 °C 17,7 km/h (3 Bft) 100,00 %
31.08.2026 12:36 23,9 °C 59 % 1016,5 hPa 0,0 l/m² 9,7 km/h (2 Bft) W-SW 247 ° 15,4 °C 23,0 °C 14,5 km/h (3 Bft) 100,00 %
31.08.2026 12:35 23,9 °C 59 % 1016,5 hPa 0,0 l/m² 12,9 km/h (3 Bft) W 270 ° 15,4 °C 22,3 °C 22,5 km/h (4 Bft) 95,65 %
31.08.2026 12:34 23,9 °C 62 % 1016,4 hPa 0,0 l/m² 8,0 km/h (2 Bft) W-SW 247 ° 16,2 °C 23,4 °C 16,1 km/h (3 Bft) 100,00 %
31.08.2026 12:33 23,8 °C 62 % 1016,5 hPa 0,0 l/m² 6,4 km/h (2 Bft) SW 225 ° 16,1 °C 23,8 °C 11,3 km/h (2 Bft) 100,00 %
31.08.2026 12:32 23,8 °C 61 % 1016,5 hPa 0,0 l/m² 6,4 km/h (2 Bft) W 270 ° 15,8 °C 23,8 °C 14,5 km/h (3 Bft) 100,00 %
31.08.2026 12:31 23,7 °C 62 % 1016,5 hPa 0,0 l/m² 6,4 km/h (2 Bft) W 270 ° 16,0 °C 23,7 °C 11,3 km/h (2 Bft) 100,00 %
31.08.2026 12:30 23,7 °C 61 % 1016,5 hPa 0,0 l/m² 4,8 km/h (1 Bft) W 270 ° 15,7 °C 23,7 °C 8,0 km/h (2 Bft) 100,00 %
31.08.2026 12:29 23,7 °C 60 % 1016,5 hPa 0,0 l/m² 9,7 km/h (2 Bft) W 270 ° 15,5 °C 22,8 °C 16,1 km/h (3 Bft) 100,00 %
31.08.2026 12:28 23,7 °C 59 % 1016,5 hPa 0,0 l/m² 9,7 km/h (2 Bft) W 270 ° 15,2 °C 22,8 °C 14,5 km/h (3 Bft) 100,00 %
31.08.2026 12:27 23,7 °C 61 % 1016,4 hPa 0,0 l/m² 8,0 km/h (2 Bft) W 270 ° 15,7 °C 23,2 °C 16,1 km/h (3 Bft) 100,00 %
31.08.2026 12:26 23,6 °C 60 % 1016,5 hPa 0,0 l/m² 9,7 km/h (2 Bft) W 270 ° 15,4 °C 22,7 °C 17,7 km/h (3 Bft) 95,65 %
31.08.2026 12:25 23,6 °C 61 % 1016,5 hPa 0,0 l/m² 8,0 km/h (2 Bft) W 270 ° 15,6 °C 23,1 °C 14,5 km/h (3 Bft) 95,65 %
31.08.2026 12:24 23,6 °C 62 % 1016,5 hPa 0,0 l/m² 8,0 km/h (2 Bft) W 270 ° 15,9 °C 23,1 °C 14,5 km/h (3 Bft) 100,00 %
31.08.2026 12:23 23,6 °C 61 % 1016,5 hPa 0,0 l/m² 11,3 km/h (2 Bft) W 270 ° 15,6 °C 22,3 °C 17,7 km/h (3 Bft) 95,65 %
31.08.2026 12:22 23,6 °C 61 % 1016,5 hPa 0,0 l/m² 12,9 km/h (3 Bft) W 270 ° 15,6 °C 22,0 °C 17,7 km/h (3 Bft) 100,00 %
31.08.2026 12:21 23,5 °C 61 % 1016,6 hPa 0,0 l/m² 8,0 km/h (2 Bft) W 270 ° 15,5 °C 23,0 °C 16,1 km/h (3 Bft) 100,00 %
31.08.2026 12:20 23,5 °C 61 % 1016,5 hPa 0,0 l/m² 11,3 km/h (2 Bft) W-NW 292 ° 15,5 °C 22,2 °C 14,5 km/h (3 Bft) 100,00 %
31.08.2026 12:19 23,5 °C 60 % 1016,5 hPa 0,0 l/m² 16,1 km/h (3 Bft) W 270 ° 15,3 °C 21,3 °C 22,5 km/h (4 Bft) 100,00 %
31.08.2026 12:18 23,4 °C 61 % 1016,5 hPa 0,0 l/m² 4,8 km/h (1 Bft) W-NW 292 ° 15,4 °C 23,4 °C 8,0 km/h (2 Bft) 100,00 %
31.08.2026 12:17 23,4 °C 61 % 1016,4 hPa 0,0 l/m² 8,0 km/h (2 Bft) W-NW 292 ° 15,4 °C 22,9 °C 14,5 km/h (3 Bft) 100,00 %
31.08.2026 12:16 23,4 °C 61 % 1016,5 hPa 0,0 l/m² 6,4 km/h (2 Bft) W-NW 292 ° 15,4 °C 23,4 °C 9,7 km/h (2 Bft) 100,00 %
31.08.2026 12:15 23,3 °C 63 % 1016,6 hPa 0,0 l/m² 4,8 km/h (1 Bft) W-SW 247 ° 15,9 °C 23,3 °C 8,0 km/h (2 Bft) 100,00 %
31.08.2026 12:14 23,3 °C 61 % 1016,5 hPa 0,0 l/m² 4,8 km/h (1 Bft) W-NW 292 ° 15,3 °C 23,3 °C 11,3 km/h (2 Bft) 95,65 %
31.08.2026 12:13 23,3 °C 62 % 1016,5 hPa 0,0 l/m² 8,0 km/h (2 Bft) W-NW 292 ° 15,6 °C 22,8 °C 12,9 km/h (3 Bft) 100,00 %
31.08.2026 12:12 23,2 °C 62 % 1016,6 hPa 0,0 l/m² 9,7 km/h (2 Bft) W-NW 292 ° 15,5 °C 22,3 °C 14,5 km/h (3 Bft) 100,00 %
31.08.2026 12:11 23,2 °C 62 % 1016,6 hPa 0,0 l/m² 8,0 km/h (2 Bft) W 270 ° 15,5 °C 22,7 °C 16,1 km/h (3 Bft) 100,00 %
31.08.2026 12:10 23,2 °C 62 % 1016,6 hPa 0,0 l/m² 8,0 km/h (2 Bft) W 270 ° 15,5 °C 22,7 °C 16,1 km/h (3 Bft) 100,00 %
31.08.2026 12:09 23,1 °C 61 % 1016,6 hPa 0,0 l/m² 8,0 km/h (2 Bft) SW 225 ° 15,2 °C 22,6 °C 14,5 km/h (3 Bft) 100,00 %
31.08.2026 12:08 23,1 °C 61 % 1016,6 hPa 0,0 l/m² 11,3 km/h (2 Bft) W-SW 247 ° 15,2 °C 21,8 °C 17,7 km/h (3 Bft) 100,00 %
31.08.2026 12:07 23,1 °C 62 % 1016,7 hPa 0,0 l/m² 9,7 km/h (2 Bft) W 270 ° 15,4 °C 22,1 °C 17,7 km/h (3 Bft) 100,00 %
31.08.2026 12:06 22,9 °C 61 % 1016,6 hPa 0,0 l/m² 11,3 km/h (2 Bft) SW 225 ° 15,0 °C 21,5 °C 19,3 km/h (3 Bft) 100,00 %
31.08.2026 12:05 22,9 °C 62 % 1016,6 hPa 0,0 l/m² 6,4 km/h (2 Bft) W 270 ° 15,2 °C 22,9 °C 14,5 km/h (3 Bft) 100,00 %
31.08.2026 12:04 22,9 °C 61 % 1016,6 hPa 0,0 l/m² 9,7 km/h (2 Bft) W-SW 247 ° 15,0 °C 21,9 °C 16,1 km/h (3 Bft) 100,00 %
31.08.2026 12:03 22,9 °C 61 % 1016,7 hPa 0,0 l/m² 6,4 km/h (2 Bft) W-NW 292 ° 15,0 °C 22,9 °C 9,7 km/h (2 Bft) 100,00 %
31.08.2026 12:02 23,0 °C 61 % 1016,6 hPa 0,0 l/m² 11,3 km/h (2 Bft) SW 225 ° 15,1 °C 21,6 °C 17,7 km/h (3 Bft) 100,00 %
31.08.2026 12:01 23,0 °C 61 % 1016,5 hPa 0,0 l/m² 9,7 km/h (2 Bft) W 270 ° 15,1 °C 22,0 °C 17,7 km/h (3 Bft) 100,00 %
31.08.2026 12:00 23,1 °C 60 % 1016,4 hPa 0,0 l/m² 9,7 km/h (2 Bft) W-NW 292 ° 14,9 °C 22,1 °C 17,7 km/h (3 Bft) 100,00 %
31.08.2026 11:59 23,1 °C 60 % 1016,6 hPa 0,0 l/m² 9,7 km/h (2 Bft) W-NW 292 ° 14,9 °C 22,1 °C 16,1 km/h (3 Bft) 100,00 %
31.08.2026 11:58 23,1 °C 60 % 1016,6 hPa 0,0 l/m² 16,1 km/h (3 Bft) W-NW 292 ° 14,9 °C 20,8 °C 22,5 km/h (4 Bft) 100,00 %
31.08.2026 11:57 23,1 °C 61 % 1016,6 hPa 0,0 l/m² 12,9 km/h (3 Bft) NW 315 ° 15,2 °C 21,4 °C 20,9 km/h (4 Bft) 95,65 %
31.08.2026 11:56 23,1 °C 62 % 1016,6 hPa 0,0 l/m² 4,8 km/h (1 Bft) W-NW 292 ° 15,4 °C 23,1 °C 6,4 km/h (2 Bft) 100,00 %
31.08.2026 11:55 23,1 °C 62 % 1016,6 hPa 0,0 l/m² 6,4 km/h (2 Bft) W-NW 292 ° 15,4 °C 23,1 °C 12,9 km/h (3 Bft) 100,00 %
31.08.2026 11:54 23,1 °C 62 % 1016,6 hPa 0,0 l/m² 6,4 km/h (2 Bft) W 270 ° 15,4 °C 23,1 °C 14,5 km/h (3 Bft) 100,00 %
31.08.2026 11:53 23,1 °C 61 % 1016,6 hPa 0,0 l/m² 6,4 km/h (2 Bft) W-SW 247 ° 15,2 °C 23,1 °C 8,0 km/h (2 Bft) 100,00 %
31.08.2026 11:52 23,1 °C 61 % 1016,7 hPa 0,0 l/m² 6,4 km/h (2 Bft) W 270 ° 15,2 °C 23,1 °C 11,3 km/h (2 Bft) 100,00 %
31.08.2026 11:51 23,2 °C 61 % 1016,7 hPa 0,0 l/m² 9,7 km/h (2 Bft) W 270 ° 15,3 °C 22,3 °C 14,5 km/h (3 Bft) 100,00 %
31.08.2026 11:50 23,2 °C 62 % 1016,7 hPa 0,0 l/m² 11,3 km/h (2 Bft) W 270 ° 15,5 °C 21,9 °C 16,1 km/h (3 Bft) 100,00 %
31.08.2026 11:49 23,3 °C 62 % 1016,7 hPa 0,0 l/m² 9,7 km/h (2 Bft) W 270 ° 15,6 °C 22,4 °C 16,1 km/h (3 Bft) 100,00 %
31.08.2026 11:48 23,3 °C 61 % 1016,6 hPa 0,0 l/m² 6,4 km/h (2 Bft) W 270 ° 15,3 °C 23,3 °C 9,7 km/h (2 Bft) 100,00 %
31.08.2026 11:47 23,3 °C 61 % 1016,7 hPa 0,0 l/m² 6,4 km/h (2 Bft) W-NW 292 ° 15,3 °C 23,3 °C 9,7 km/h (2 Bft) 100,00 %
31.08.2026 11:46 23,4 °C 61 % 1016,7 hPa 0,0 l/m² 6,4 km/h (2 Bft) W-NW 292 ° 15,4 °C 23,4 °C 11,3 km/h (2 Bft) 100,00 %
31.08.2026 11:45 23,5 °C 61 % 1016,6 hPa 0,0 l/m² 11,3 km/h (2 Bft) W-NW 292 ° 15,5 °C 22,2 °C 16,1 km/h (3 Bft) 95,65 %
31.08.2026 11:44 23,6 °C 62 % 1016,7 hPa 0,0 l/m² 6,4 km/h (2 Bft) W-NW 292 ° 15,9 °C 23,6 °C 9,7 km/h (2 Bft) 100,00 %
31.08.2026 11:43 23,6 °C 61 % 1016,7 hPa 0,0 l/m² 11,3 km/h (2 Bft) W-SW 247 ° 15,6 °C 22,3 °C 22,5 km/h (4 Bft) 100,00 %
31.08.2026 11:42 23,7 °C 62 % 1016,7 hPa 0,0 l/m² 8,0 km/h (2 Bft) W 270 ° 16,0 °C 23,2 °C 11,3 km/h (2 Bft) 95,65 %
31.08.2026 11:41 23,7 °C 61 % 1016,7 hPa 0,0 l/m² 8,0 km/h (2 Bft) W 270 ° 15,7 °C 23,2 °C 14,5 km/h (3 Bft) 100,00 %
31.08.2026 11:40 23,7 °C 61 % 1016,7 hPa 0,0 l/m² 8,0 km/h (2 Bft) SW 225 ° 15,7 °C 23,2 °C 11,3 km/h (2 Bft) 100,00 %
31.08.2026 11:39 23,7 °C 61 % 1016,7 hPa 0,0 l/m² 8,0 km/h (2 Bft) W 270 ° 15,7 °C 23,2 °C 17,7 km/h (3 Bft) 100,00 %
31.08.2026 11:38 23,8 °C 62 % 1016,6 hPa 0,0 l/m² 8,0 km/h (2 Bft) W 270 ° 16,1 °C 23,3 °C 11,3 km/h (2 Bft) 100,00 %
31.08.2026 11:37 23,7 °C 62 % 1016,6 hPa 0,0 l/m² 9,7 km/h (2 Bft) W 270 ° 16,0 °C 22,8 °C 12,9 km/h (3 Bft) 95,65 %
31.08.2026 11:36 23,7 °C 62 % 1016,7 hPa 0,0 l/m² 8,0 km/h (2 Bft) W 270 ° 16,0 °C 23,2 °C 11,3 km/h (2 Bft) 100,00 %
31.08.2026 11:35 23,6 °C 62 % 1016,6 hPa 0,0 l/m² 8,0 km/h (2 Bft) W-SW 247 ° 15,9 °C 23,1 °C 14,5 km/h (3 Bft) 100,00 %
31.08.2026 11:34 23,6 °C 62 % 1016,6 hPa 0,0 l/m² 12,9 km/h (3 Bft) W 270 ° 15,9 °C 22,0 °C 16,1 km/h (3 Bft) 100,00 %
31.08.2026 11:33 23,4 °C 63 % 1016,7 hPa 0,0 l/m² 9,7 km/h (2 Bft) W 270 ° 15,9 °C 22,5 °C 16,1 km/h (3 Bft) 95,65 %
31.08.2026 11:32 23,4 °C 62 % 1016,6 hPa 0,0 l/m² 11,3 km/h (2 Bft) W 270 ° 15,7 °C 22,1 °C 19,3 km/h (3 Bft) 100,00 %
31.08.2026 11:31 23,4 °C 63 % 1016,7 hPa 0,0 l/m² 11,3 km/h (2 Bft) W 270 ° 15,9 °C 22,1 °C 17,7 km/h (3 Bft) 100,00 %
31.08.2026 11:30 23,3 °C 62 % 1016,6 hPa 0,0 l/m² 11,3 km/h (2 Bft) W-SW 247 ° 15,6 °C 22,0 °C 20,9 km/h (4 Bft) 95,65 %
31.08.2026 11:29 23,3 °C 62 % 1016,6 hPa 0,0 l/m² 14,5 km/h (3 Bft) W-SW 247 ° 15,6 °C 21,3 °C 20,9 km/h (4 Bft) 100,00 %
31.08.2026 11:28 23,3 °C 62 % 1016,7 hPa 0,0 l/m² 11,3 km/h (2 Bft) W 270 ° 15,6 °C 22,0 °C 19,3 km/h (3 Bft) 95,65 %
31.08.2026 11:27 23,3 °C 62 % 1016,7 hPa 0,0 l/m² 9,7 km/h (2 Bft) W 270 ° 15,6 °C 22,4 °C 16,1 km/h (3 Bft) 100,00 %
31.08.2026 11:26 23,3 °C 63 % 1016,7 hPa 0,0 l/m² 11,3 km/h (2 Bft) W 270 ° 15,9 °C 22,0 °C 17,7 km/h (3 Bft) 100,00 %
31.08.2026 11:25 23,2 °C 62 % 1016,7 hPa 0,0 l/m² 11,3 km/h (2 Bft) W 270 ° 15,5 °C 21,9 °C 20,9 km/h (4 Bft) 100,00 %
31.08.2026 11:24 23,2 °C 63 % 1016,7 hPa 0,0 l/m² 9,7 km/h (2 Bft) W 270 ° 15,8 °C 22,3 °C 20,9 km/h (4 Bft) 100,00 %
31.08.2026 11:23 23,2 °C 63 % 1016,7 hPa 0,0 l/m² 6,4 km/h (2 Bft) W-NW 292 ° 15,8 °C 23,2 °C 12,9 km/h (3 Bft) 100,00 %
31.08.2026 11:22 23,2 °C 62 % 1016,6 hPa 0,0 l/m² 8,0 km/h (2 Bft) W-NW 292 ° 15,5 °C 22,7 °C 14,5 km/h (3 Bft) 100,00 %
31.08.2026 11:21 23,2 °C 62 % 1016,6 hPa 0,0 l/m² 8,0 km/h (2 Bft) W-NW 292 ° 15,5 °C 22,7 °C 12,9 km/h (3 Bft) 100,00 %
31.08.2026 11:20 23,2 °C 63 % 1016,6 hPa 0,0 l/m² 6,4 km/h (2 Bft) W 270 ° 15,8 °C 23,2 °C 11,3 km/h (2 Bft) 100,00 %
31.08.2026 11:19 23,1 °C 64 % 1016,6 hPa 0,0 l/m² 4,8 km/h (1 Bft) W 270 ° 15,9 °C 23,1 °C 9,7 km/h (2 Bft) 100,00 %
31.08.2026 11:18 23,1 °C 64 % 1016,6 hPa 0,0 l/m² 6,4 km/h (2 Bft) W-NW 292 ° 15,9 °C 23,1 °C 12,9 km/h (3 Bft) 100,00 %
31.08.2026 11:17 23,1 °C 65 % 1016,7 hPa 0,0 l/m² 4,8 km/h (1 Bft) NW 315 ° 16,2 °C 23,1 °C 6,4 km/h (2 Bft) 100,00 %
31.08.2026 11:16 23,1 °C 63 % 1016,6 hPa 0,0 l/m² 4,8 km/h (1 Bft) W 270 ° 15,7 °C 23,1 °C 6,4 km/h (2 Bft) 95,65 %
31.08.2026 11:15 23,1 °C 63 % 1016,6 hPa 0,0 l/m² 8,0 km/h (2 Bft) W-NW 292 ° 15,7 °C 22,6 °C 12,9 km/h (3 Bft) 100,00 %
31.08.2026 11:14 23,0 °C 63 % 1016,7 hPa 0,0 l/m² 8,0 km/h (2 Bft) W 270 ° 15,6 °C 22,5 °C 14,5 km/h (3 Bft) 100,00 %
31.08.2026 11:13 23,0 °C 63 % 1016,6 hPa 0,0 l/m² 11,3 km/h (2 Bft) W-NW 292 ° 15,6 °C 21,6 °C 17,7 km/h (3 Bft) 100,00 %
31.08.2026 11:12 23,0 °C 65 % 1016,7 hPa 0,0 l/m² 6,4 km/h (2 Bft) W-NW 292 ° 16,1 °C 23,0 °C 12,9 km/h (3 Bft) 100,00 %
31.08.2026 11:11 22,9 °C 65 % 1016,7 hPa 0,0 l/m² 6,4 km/h (2 Bft) W 270 ° 16,0 °C 22,9 °C 9,7 km/h (2 Bft) 95,65 %
31.08.2026 11:10 22,9 °C 63 % 1016,7 hPa 0,0 l/m² 6,4 km/h (2 Bft) W-NW 292 ° 15,5 °C 22,9 °C 9,7 km/h (2 Bft) 100,00 %
31.08.2026 11:09 22,9 °C 64 % 1016,6 hPa 0,0 l/m² 4,8 km/h (1 Bft) W 270 ° 15,7 °C 22,9 °C 6,4 km/h (2 Bft) 100,00 %
31.08.2026 11:08 22,9 °C 64 % 1016,6 hPa 0,0 l/m² 6,4 km/h (2 Bft) W-NW 292 ° 15,7 °C 22,9 °C 9,7 km/h (2 Bft) 100,00 %
31.08.2026 11:07 22,9 °C 63 % 1016,7 hPa 0,0 l/m² 6,4 km/h (2 Bft) W-SW 247 ° 15,5 °C 22,9 °C 11,3 km/h (2 Bft) 100,00 %
31.08.2026 11:06 22,9 °C 62 % 1016,6 hPa 0,0 l/m² 9,7 km/h (2 Bft) W-SW 247 ° 15,2 °C 21,9 °C 16,1 km/h (3 Bft) 100,00 %
31.08.2026 11:05 22,9 °C 62 % 1016,7 hPa 0,0 l/m² 9,7 km/h (2 Bft) W-SW 247 ° 15,2 °C 21,9 °C 14,5 km/h (3 Bft) 100,00 %
31.08.2026 11:04 22,9 °C 62 % 1016,7 hPa 0,0 l/m² 8,0 km/h (2 Bft) W-SW 247 ° 15,2 °C 22,4 °C 19,3 km/h (3 Bft) 100,00 %
31.08.2026 11:03 22,8 °C 62 % 1016,7 hPa 0,0 l/m² 9,7 km/h (2 Bft) W-SW 247 ° 15,1 °C 21,8 °C 14,5 km/h (3 Bft) 100,00 %
31.08.2026 11:02 22,9 °C 62 % 1016,6 hPa 0,0 l/m² 11,3 km/h (2 Bft) SW 225 ° 15,2 °C 21,5 °C 16,1 km/h (3 Bft) 100,00 %
31.08.2026 11:01 22,9 °C 61 % 1016,6 hPa 0,0 l/m² 9,7 km/h (2 Bft) S-SW 202 ° 15,0 °C 21,9 °C 12,9 km/h (3 Bft) 100,00 %
31.08.2026 11:00 22,9 °C 61 % 1016,7 hPa 0,0 l/m² 9,7 km/h (2 Bft) W 270 ° 15,0 °C 21,9 °C 14,5 km/h (3 Bft) 100,00 %
31.08.2026 10:59 22,9 °C 60 % 1016,7 hPa 0,0 l/m² 14,5 km/h (3 Bft) W 270 ° 14,7 °C 20,9 °C 24,1 km/h (4 Bft) 95,65 %
31.08.2026 10:58 23,0 °C 61 % 1016,6 hPa 0,0 l/m² 12,9 km/h (3 Bft) W 270 ° 15,1 °C 21,3 °C 24,1 km/h (4 Bft) 100,00 %
31.08.2026 10:57 23,0 °C 61 % 1016,6 hPa 0,0 l/m² 8,0 km/h (2 Bft) W-SW 247 ° 15,1 °C 22,5 °C 14,5 km/h (3 Bft) 100,00 %
31.08.2026 10:56 23,1 °C 61 % 1016,6 hPa 0,0 l/m² 9,7 km/h (2 Bft) W-NW 292 ° 15,2 °C 22,1 °C 16,1 km/h (3 Bft) 100,00 %
31.08.2026 10:55 23,1 °C 61 % 1016,6 hPa 0,0 l/m² 8,0 km/h (2 Bft) W 270 ° 15,2 °C 22,6 °C 16,1 km/h (3 Bft) 100,00 %
31.08.2026 10:54 23,1 °C 61 % 1016,6 hPa 0,0 l/m² 14,5 km/h (3 Bft) W 270 ° 15,2 °C 21,1 °C 22,5 km/h (4 Bft) 100,00 %
31.08.2026 10:53 23,1 °C 62 % 1016,6 hPa 0,0 l/m² 6,4 km/h (2 Bft) W 270 ° 15,4 °C 23,1 °C 11,3 km/h (2 Bft) 100,00 %
31.08.2026 10:52 23,1 °C 63 % 1016,6 hPa 0,0 l/m² 11,3 km/h (2 Bft) W 270 ° 15,7 °C 21,8 °C 19,3 km/h (3 Bft) 100,00 %
31.08.2026 10:51 23,1 °C 63 % 1016,5 hPa 0,0 l/m² 6,4 km/h (2 Bft) W 270 ° 15,7 °C 23,1 °C 9,7 km/h (2 Bft) 100,00 %
31.08.2026 10:50 23,1 °C 61 % 1016,5 hPa 0,0 l/m² 3,2 km/h (1 Bft) SW 225 ° 15,2 °C 23,1 °C 6,4 km/h (2 Bft) 100,00 %
31.08.2026 10:49 23,1 °C 63 % 1016,5 hPa 0,0 l/m² 8,0 km/h (2 Bft) W 270 ° 15,7 °C 22,6 °C 12,9 km/h (3 Bft) 100,00 %
31.08.2026 10:48 23,1 °C 61 % 1016,5 hPa 0,0 l/m² 8,0 km/h (2 Bft) W 270 ° 15,2 °C 22,6 °C 12,9 km/h (3 Bft) 100,00 %
31.08.2026 10:47 23,2 °C 62 % 1016,5 hPa 0,0 l/m² 9,7 km/h (2 Bft) W 270 ° 15,5 °C 22,3 °C 16,1 km/h (3 Bft) 100,00 %
31.08.2026 10:46 23,2 °C 62 % 1016,5 hPa 0,0 l/m² 8,0 km/h (2 Bft) W 270 ° 15,5 °C 22,7 °C 17,7 km/h (3 Bft) 95,65 %
31.08.2026 10:45 23,2 °C 63 % 1016,5 hPa 0,0 l/m² 11,3 km/h (2 Bft) W 270 ° 15,8 °C 21,9 °C 17,7 km/h (3 Bft) 100,00 %
31.08.2026 10:44 23,2 °C 65 % 1016,5 hPa 0,0 l/m² 6,4 km/h (2 Bft) W-SW 247 ° 16,2 °C 23,2 °C 14,5 km/h (3 Bft) 95,65 %
31.08.2026 10:43 23,2 °C 63 % 1016,5 hPa 0,0 l/m² 4,8 km/h (1 Bft) SW 225 ° 15,8 °C 23,2 °C 11,3 km/h (2 Bft) 95,65 %
31.08.2026 10:42 23,2 °C 63 % 1016,4 hPa 0,0 l/m² 6,4 km/h (2 Bft) W 270 ° 15,8 °C 23,2 °C 12,9 km/h (3 Bft) 100,00 %
31.08.2026 10:41 23,2 °C 64 % 1016,4 hPa 0,0 l/m² 4,8 km/h (1 Bft) W-SW 247 ° 16,0 °C 23,2 °C 6,4 km/h (2 Bft) 100,00 %
31.08.2026 10:40 23,2 °C 64 % 1016,5 hPa 0,0 l/m² 4,8 km/h (1 Bft) S-SW 202 ° 16,0 °C 23,2 °C 8,0 km/h (2 Bft) 95,65 %
31.08.2026 10:39 23,2 °C 64 % 1016,4 hPa 0,0 l/m² 8,0 km/h (2 Bft) W-SW 247 ° 16,0 °C 22,7 °C 12,9 km/h (3 Bft) 100,00 %
31.08.2026 10:38 23,2 °C 65 % 1016,4 hPa 0,0 l/m² 8,0 km/h (2 Bft) W-NW 292 ° 16,2 °C 22,7 °C 16,1 km/h (3 Bft) 100,00 %
31.08.2026 10:37 23,1 °C 64 % 1016,4 hPa 0,0 l/m² 6,4 km/h (2 Bft) SW 225 ° 15,9 °C 23,1 °C 9,7 km/h (2 Bft) 95,65 %
31.08.2026 10:36 23,1 °C 63 % 1016,5 hPa 0,0 l/m² 3,2 km/h (1 Bft) W-SW 247 ° 15,7 °C 23,1 °C 6,4 km/h (2 Bft) 100,00 %
31.08.2026 10:35 23,1 °C 67 % 1016,5 hPa 0,0 l/m² 8,0 km/h (2 Bft) SW 225 ° 16,6 °C 22,6 °C 11,3 km/h (2 Bft) 100,00 %
31.08.2026 10:34 22,9 °C 66 % 1016,5 hPa 0,0 l/m² 4,8 km/h (1 Bft) W 270 ° 16,2 °C 22,9 °C 9,7 km/h (2 Bft) 100,00 %
31.08.2026 10:33 22,9 °C 68 % 1016,4 hPa 0,0 l/m² 6,4 km/h (2 Bft) W-SW 247 ° 16,7 °C 22,9 °C 11,3 km/h (2 Bft) 100,00 %
31.08.2026 10:32 22,8 °C 69 % 1016,4 hPa 0,0 l/m² 8,0 km/h (2 Bft) SW 225 ° 16,8 °C 22,3 °C 12,9 km/h (3 Bft) 100,00 %
31.08.2026 10:31 22,7 °C 69 % 1016,4 hPa 0,0 l/m² 8,0 km/h (2 Bft) SW 225 ° 16,7 °C 22,2 °C 9,7 km/h (2 Bft) 100,00 %
31.08.2026 10:30 22,6 °C 67 % 1016,4 hPa 0,0 l/m² 4,8 km/h (1 Bft) SW 225 ° 16,2 °C 22,6 °C 6,4 km/h (2 Bft) 100,00 %
31.08.2026 10:29 22,5 °C 66 % 1016,4 hPa 0,0 l/m² 6,4 km/h (2 Bft) SW 225 ° 15,8 °C 22,5 °C 9,7 km/h (2 Bft) 100,00 %
31.08.2026 10:28 22,4 °C 65 % 1016,5 hPa 0,0 l/m² 6,4 km/h (2 Bft) W 270 ° 15,5 °C 22,4 °C 12,9 km/h (3 Bft) 100,00 %
31.08.2026 10:27 22,3 °C 68 % 1016,4 hPa 0,0 l/m² 9,7 km/h (2 Bft) SW 225 ° 16,1 °C 21,3 °C 14,5 km/h (3 Bft) 91,30 %
31.08.2026 10:26 22,3 °C 67 % 1016,4 hPa 0,0 l/m² 4,8 km/h (1 Bft) W 270 ° 15,9 °C 22,3 °C 9,7 km/h (2 Bft) 100,00 %
31.08.2026 10:25 22,2 °C 68 % 1016,4 hPa 0,0 l/m² 6,4 km/h (2 Bft) SW 225 ° 16,0 °C 22,2 °C 11,3 km/h (2 Bft) 95,65 %
31.08.2026 10:24 22,1 °C 67 % 1016,4 hPa 0,0 l/m² 4,8 km/h (1 Bft) SW 225 ° 15,7 °C 22,1 °C 6,4 km/h (2 Bft) 100,00 %
31.08.2026 10:23 22,0 °C 66 % 1016,4 hPa 0,0 l/m² 4,8 km/h (1 Bft) W-SW 247 ° 15,3 °C 22,0 °C 12,9 km/h (3 Bft) 100,00 %
31.08.2026 10:22 21,9 °C 67 % 1016,4 hPa 0,0 l/m² 6,4 km/h (2 Bft) W 270 ° 15,5 °C 21,9 °C 12,9 km/h (3 Bft) 100,00 %
31.08.2026 10:21 21,9 °C 65 % 1016,5 hPa 0,0 l/m² 4,8 km/h (1 Bft) W-SW 247 ° 15,0 °C 21,9 °C 8,0 km/h (2 Bft) 95,65 %
31.08.2026 10:20 21,8 °C 69 % 1016,5 hPa 0,0 l/m² 6,4 km/h (2 Bft) W 270 ° 15,9 °C 21,8 °C 12,9 km/h (3 Bft) 100,00 %
31.08.2026 10:19 21,7 °C 69 % 1016,4 hPa 0,0 l/m² 6,4 km/h (2 Bft) SW 225 ° 15,8 °C 21,7 °C 11,3 km/h (2 Bft) 100,00 %
31.08.2026 10:18 21,5 °C 70 % 1016,5 hPa 0,0 l/m² 4,8 km/h (1 Bft) W 270 ° 15,8 °C 21,5 °C 9,7 km/h (2 Bft) 95,65 %
31.08.2026 10:17 21,4 °C 70 % 1016,4 hPa 0,0 l/m² 6,4 km/h (2 Bft) W 270 ° 15,7 °C 21,4 °C 11,3 km/h (2 Bft) 100,00 %
31.08.2026 10:16 21,3 °C 68 % 1016,5 hPa 0,0 l/m² 6,4 km/h (2 Bft) W 270 ° 15,1 °C 21,3 °C 11,3 km/h (2 Bft) 95,65 %
31.08.2026 10:15 21,3 °C 71 % 1016,5 hPa 0,0 l/m² 8,0 km/h (2 Bft) W 270 ° 15,8 °C 20,7 °C 11,3 km/h (2 Bft) 100,00 %
31.08.2026 10:14 21,2 °C 71 % 1016,5 hPa 0,0 l/m² 4,8 km/h (1 Bft) SW 225 ° 15,7 °C 21,2 °C 9,7 km/h (2 Bft) 100,00 %
31.08.2026 10:13 21,0 °C 72 % 1016,5 hPa 0,0 l/m² 4,8 km/h (1 Bft) SW 225 ° 15,8 °C 21,0 °C 9,7 km/h (2 Bft) 95,65 %
31.08.2026 10:12 20,9 °C 74 % 1016,4 hPa 0,0 l/m² 8,0 km/h (2 Bft) SW 225 ° 16,1 °C 20,3 °C 11,3 km/h (2 Bft) 100,00 %
31.08.2026 10:11 20,8 °C 74 % 1016,5 hPa 0,0 l/m² 6,4 km/h (2 Bft) SW 225 ° 16,0 °C 20,8 °C 8,0 km/h (2 Bft) 100,00 %
31.08.2026 10:10 20,7 °C 73 % 1016,5 hPa 0,0 l/m² 4,8 km/h (1 Bft) SW 225 ° 15,7 °C 20,7 °C 6,4 km/h (2 Bft) 100,00 %
31.08.2026 10:09 20,6 °C 73 % 1016,6 hPa 0,0 l/m² 3,2 km/h (1 Bft) SW 225 ° 15,6 °C 20,6 °C 6,4 km/h (2 Bft) 100,00 %
31.08.2026 10:08 20,6 °C 73 % 1016,6 hPa 0,0 l/m² 3,2 km/h (1 Bft) SW 225 ° 15,6 °C 20,6 °C 6,4 km/h (2 Bft) 100,00 %
31.08.2026 10:07 20,5 °C 74 % 1016,6 hPa 0,0 l/m² 1,6 km/h (1 Bft) SW 225 ° 15,7 °C 20,5 °C 6,4 km/h (2 Bft) 100,00 %
31.08.2026 10:06 20,5 °C 74 % 1016,6 hPa 0,0 l/m² 3,2 km/h (1 Bft) SW 225 ° 15,7 °C 20,5 °C 4,8 km/h (1 Bft) 95,65 %
31.08.2026 10:05 20,4 °C 74 % 1016,7 hPa 0,0 l/m² 3,2 km/h (1 Bft) SW 225 ° 15,6 °C 20,4 °C 4,8 km/h (1 Bft) 100,00 %
31.08.2026 10:04 20,4 °C 73 % 1016,7 hPa 0,0 l/m² 3,2 km/h (1 Bft) SW 225 ° 15,4 °C 20,4 °C 6,4 km/h (2 Bft) 100,00 %
31.08.2026 10:03 20,3 °C 74 % 1016,7 hPa 0,0 l/m² 3,2 km/h (1 Bft) S-SW 202 ° 15,5 °C 20,3 °C 4,8 km/h (1 Bft) 95,65 %
31.08.2026 10:02 20,3 °C 74 % 1016,7 hPa 0,0 l/m² 3,2 km/h (1 Bft) SW 225 ° 15,5 °C 20,3 °C 6,4 km/h (2 Bft) 100,00 %
31.08.2026 10:01 20,3 °C 74 % 1016,7 hPa 0,0 l/m² 3,2 km/h (1 Bft) SW 225 ° 15,5 °C 20,3 °C 4,8 km/h (1 Bft) 100,00 %
31.08.2026 10:00 20,3 °C 74 % 1016,7 hPa 0,0 l/m² 1,6 km/h (1 Bft) SW 225 ° 15,5 °C 20,3 °C 4,8 km/h (1 Bft) 100,00 %
31.08.2026 09:59 20,2 °C 73 % 1016,8 hPa 0,0 l/m² 1,6 km/h (1 Bft) SW 225 ° 15,2 °C 20,2 °C 3,2 km/h (1 Bft) 95,65 %
31.08.2026 09:58 20,2 °C 73 % 1016,7 hPa 0,0 l/m² 1,6 km/h (1 Bft) SW 225 ° 15,2 °C 20,2 °C 3,2 km/h (1 Bft) 100,00 %
31.08.2026 09:57 20,2 °C 74 % 1016,6 hPa 0,0 l/m² 1,6 km/h (1 Bft) SW 225 ° 15,4 °C 20,2 °C 4,8 km/h (1 Bft) 100,00 %
31.08.2026 09:56 20,2 °C 73 % 1016,7 hPa 0,0 l/m² 3,2 km/h (1 Bft) W 270 ° 15,2 °C 20,2 °C 6,4 km/h (2 Bft) 100,00 %
31.08.2026 09:55 20,2 °C 73 % 1016,6 hPa 0,0 l/m² 1,6 km/h (1 Bft) SW 225 ° 15,2 °C 20,2 °C 3,2 km/h (1 Bft) 100,00 %
31.08.2026 09:54 20,2 °C 73 % 1016,7 hPa 0,0 l/m² 1,6 km/h (1 Bft) SW 225 ° 15,2 °C 20,2 °C 6,4 km/h (2 Bft) 100,00 %
31.08.2026 09:53 20,2 °C 73 % 1016,6 hPa 0,0 l/m² 0,0 km/h (0 Bft) W-SW 247 ° 15,2 °C 20,2 °C 1,6 km/h (1 Bft) 100,00 %
31.08.2026 09:52 20,2 °C 73 % 1016,6 hPa 0,0 l/m² 1,6 km/h (1 Bft) W-SW 247 ° 15,2 °C 20,2 °C 3,2 km/h (1 Bft) 100,00 %
31.08.2026 09:51 20,1 °C 73 % 1016,6 hPa 0,0 l/m² 3,2 km/h (1 Bft) SW 225 ° 15,1 °C 20,1 °C 4,8 km/h (1 Bft) 100,00 %
31.08.2026 09:50 20,1 °C 73 % 1016,6 hPa 0,0 l/m² 1,6 km/h (1 Bft) SW 225 ° 15,1 °C 20,1 °C 3,2 km/h (1 Bft) 100,00 %
31.08.2026 09:49 20,1 °C 73 % 1016,5 hPa 0,0 l/m² 3,2 km/h (1 Bft) SW 225 ° 15,1 °C 20,1 °C 6,4 km/h (2 Bft) 95,65 %
31.08.2026 09:48 20,1 °C 73 % 1016,5 hPa 0,0 l/m² 4,8 km/h (1 Bft) SW 225 ° 15,1 °C 20,1 °C 6,4 km/h (2 Bft) 100,00 %
31.08.2026 09:47 20,1 °C 73 % 1016,6 hPa 0,0 l/m² 4,8 km/h (1 Bft) SW 225 ° 15,1 °C 20,1 °C 8,0 km/h (2 Bft) 95,65 %
31.08.2026 09:46 20,0 °C 73 % 1016,4 hPa 0,0 l/m² 3,2 km/h (1 Bft) SW 225 ° 15,0 °C 20,0 °C 4,8 km/h (1 Bft) 100,00 %
31.08.2026 09:45 20,0 °C 74 % 1016,5 hPa 0,0 l/m² 8,0 km/h (2 Bft) SW 225 ° 15,2 °C 19,4 °C 9,7 km/h (2 Bft) 100,00 %
31.08.2026 09:44 19,9 °C 73 % 1016,5 hPa 0,0 l/m² 6,4 km/h (2 Bft) S-SW 202 ° 14,9 °C 19,9 °C 9,7 km/h (2 Bft) 100,00 %
31.08.2026 09:43 19,9 °C 75 % 1016,4 hPa 0,0 l/m² 6,4 km/h (2 Bft) SW 225 ° 15,3 °C 19,9 °C 9,7 km/h (2 Bft) 100,00 %
31.08.2026 09:42 19,9 °C 75 % 1016,5 hPa 0,0 l/m² 1,6 km/h (1 Bft) SW 225 ° 15,3 °C 19,9 °C 3,2 km/h (1 Bft) 95,65 %
31.08.2026 09:41 19,8 °C 75 % 1016,5 hPa 0,0 l/m² 3,2 km/h (1 Bft) SW 225 ° 15,2 °C 19,8 °C 4,8 km/h (1 Bft) 100,00 %
31.08.2026 09:40 19,8 °C 76 % 1016,4 hPa 0,0 l/m² 3,2 km/h (1 Bft) SW 225 ° 15,4 °C 19,8 °C 4,8 km/h (1 Bft) 100,00 %
31.08.2026 09:39 19,8 °C 76 % 1016,3 hPa 0,0 l/m² 3,2 km/h (1 Bft) SW 225 ° 15,4 °C 19,8 °C 4,8 km/h (1 Bft) 100,00 %
31.08.2026 09:38 19,7 °C 76 % 1016,4 hPa 0,0 l/m² 3,2 km/h (1 Bft) SW 225 ° 15,3 °C 19,7 °C 4,8 km/h (1 Bft) 100,00 %
31.08.2026 09:37 19,7 °C 77 % 1016,3 hPa 0,0 l/m² 1,6 km/h (1 Bft) SW 225 ° 15,5 °C 19,7 °C 4,8 km/h (1 Bft) 95,65 %
31.08.2026 09:36 19,7 °C 77 % 1016,3 hPa 0,0 l/m² 1,6 km/h (1 Bft) SW 225 ° 15,5 °C 19,7 °C 3,2 km/h (1 Bft) 100,00 %
31.08.2026 09:35 19,6 °C 76 % 1016,3 hPa 0,0 l/m² 3,2 km/h (1 Bft) SW 225 ° 15,2 °C 19,6 °C 4,8 km/h (1 Bft) 100,00 %
31.08.2026 09:34 19,6 °C 77 % 1016,3 hPa 0,0 l/m² 1,6 km/h (1 Bft) SW 225 ° 15,5 °C 19,6 °C 3,2 km/h (1 Bft) 100,00 %
31.08.2026 09:33 19,6 °C 77 % 1016,3 hPa 0,0 l/m² 1,6 km/h (1 Bft) SW 225 ° 15,5 °C 19,6 °C 3,2 km/h (1 Bft) 100,00 %
31.08.2026 09:32 19,5 °C 76 % 1016,3 hPa 0,0 l/m² 1,6 km/h (1 Bft) SW 225 ° 15,2 °C 19,5 °C 3,2 km/h (1 Bft) 100,00 %
31.08.2026 09:31 19,5 °C 76 % 1016,3 hPa 0,0 l/m² 3,2 km/h (1 Bft) SW 225 ° 15,2 °C 19,5 °C 4,8 km/h (1 Bft) 100,00 %
31.08.2026 09:30 19,4 °C 76 % 1016,2 hPa 0,0 l/m² 1,6 km/h (1 Bft) SW 225 ° 15,1 °C 19,4 °C 3,2 km/h (1 Bft) 100,00 %
31.08.2026 09:29 19,4 °C 77 % 1016,3 hPa 0,0 l/m² 1,6 km/h (1 Bft) SW 225 ° 15,3 °C 19,4 °C 3,2 km/h (1 Bft) 100,00 %
31.08.2026 09:28 19,4 °C 76 % 1016,3 hPa 0,0 l/m² 3,2 km/h (1 Bft) SW 225 ° 15,1 °C 19,4 °C 6,4 km/h (2 Bft) 100,00 %
31.08.2026 09:27 19,3 °C 76 % 1016,3 hPa 0,0 l/m² 4,8 km/h (1 Bft) SW 225 ° 15,0 °C 19,3 °C 6,4 km/h (2 Bft) 100,00 %
31.08.2026 09:26 19,3 °C 77 % 1016,3 hPa 0,0 l/m² 4,8 km/h (1 Bft) SW 225 ° 15,2 °C 19,3 °C 8,0 km/h (2 Bft) 100,00 %
31.08.2026 09:25 19,3 °C 78 % 1016,3 hPa 0,0 l/m² 4,8 km/h (1 Bft) SW 225 ° 15,4 °C 19,3 °C 6,4 km/h (2 Bft) 100,00 %
31.08.2026 09:24 19,3 °C 78 % 1016,3 hPa 0,0 l/m² 4,8 km/h (1 Bft) SW 225 ° 15,4 °C 19,3 °C 6,4 km/h (2 Bft) 100,00 %
31.08.2026 09:23 19,3 °C 78 % 1016,3 hPa 0,0 l/m² 4,8 km/h (1 Bft) SW 225 ° 15,4 °C 19,3 °C 6,4 km/h (2 Bft) 100,00 %
31.08.2026 09:22 19,2 °C 78 % 1016,3 hPa 0,0 l/m² 6,4 km/h (2 Bft) S-SW 202 ° 15,3 °C 19,2 °C 8,0 km/h (2 Bft) 100,00 %
31.08.2026 09:21 19,2 °C 78 % 1016,3 hPa 0,0 l/m² 3,2 km/h (1 Bft) SW 225 ° 15,3 °C 19,2 °C 4,8 km/h (1 Bft) 100,00 %
31.08.2026 09:20 19,2 °C 79 % 1016,3 hPa 0,0 l/m² 3,2 km/h (1 Bft) SW 225 ° 15,5 °C 19,2 °C 6,4 km/h (2 Bft) 100,00 %
31.08.2026 09:19 19,2 °C 79 % 1016,3 hPa 0,0 l/m² 4,8 km/h (1 Bft) SW 225 ° 15,5 °C 19,2 °C 6,4 km/h (2 Bft) 100,00 %
31.08.2026 09:18 19,2 °C 78 % 1016,3 hPa 0,0 l/m² 1,6 km/h (1 Bft) SW 225 ° 15,3 °C 19,2 °C 3,2 km/h (1 Bft) 100,00 %
31.08.2026 09:17 19,1 °C 79 % 1016,3 hPa 0,0 l/m² 1,6 km/h (1 Bft) SW 225 ° 15,4 °C 19,1 °C 3,2 km/h (1 Bft) 100,00 %
31.08.2026 09:16 19,1 °C 79 % 1016,4 hPa 0,0 l/m² 3,2 km/h (1 Bft) SW 225 ° 15,4 °C 19,1 °C 4,8 km/h (1 Bft) 100,00 %
31.08.2026 09:15 19,1 °C 79 % 1016,3 hPa 0,0 l/m² 3,2 km/h (1 Bft) SW 225 ° 15,4 °C 19,1 °C 4,8 km/h (1 Bft) 100,00 %
31.08.2026 09:14 19,1 °C 79 % 1016,3 hPa 0,0 l/m² 4,8 km/h (1 Bft) SW 225 ° 15,4 °C 19,1 °C 6,4 km/h (2 Bft) 100,00 %
31.08.2026 09:13 19,0 °C 79 % 1016,3 hPa 0,0 l/m² 4,8 km/h (1 Bft) SW 225 ° 15,3 °C 19,0 °C 6,4 km/h (2 Bft) 100,00 %
31.08.2026 09:12 19,0 °C 79 % 1016,3 hPa 0,0 l/m² 4,8 km/h (1 Bft) SW 225 ° 15,3 °C 19,0 °C 6,4 km/h (2 Bft) 100,00 %
31.08.2026 09:11 19,0 °C 80 % 1016,4 hPa 0,0 l/m² 4,8 km/h (1 Bft) W-SW 247 ° 15,5 °C 19,0 °C 9,7 km/h (2 Bft) 100,00 %
31.08.2026 09:10 18,9 °C 80 % 1016,4 hPa 0,0 l/m² 3,2 km/h (1 Bft) SW 225 ° 15,4 °C 18,9 °C 4,8 km/h (1 Bft) 100,00 %
31.08.2026 09:09 19,0 °C 80 % 1016,4 hPa 0,0 l/m² 0,0 km/h (0 Bft) N 0 ° 15,5 °C 19,0 °C 0,0 km/h (0 Bft) 100,00 %
31.08.2026 09:08 18,9 °C 80 % 1016,3 hPa 0,0 l/m² 0,0 km/h (0 Bft) SW 225 ° 15,4 °C 18,9 °C 1,6 km/h (1 Bft) 100,00 %
31.08.2026 09:07 18,9 °C 79 % 1016,4 hPa 0,0 l/m² 0,0 km/h (0 Bft) N 0 ° 15,2 °C 18,9 °C 0,0 km/h (0 Bft) 100,00 %
31.08.2026 09:06 18,9 °C 80 % 1016,4 hPa 0,0 l/m² 0,0 km/h (0 Bft) N 0 ° 15,4 °C 18,9 °C 0,0 km/h (0 Bft) 100,00 %
31.08.2026 09:05 18,9 °C 79 % 1016,4 hPa 0,0 l/m² 0,0 km/h (0 Bft) N 0 ° 15,2 °C 18,9 °C 0,0 km/h (0 Bft) 100,00 %
31.08.2026 09:04 18,8 °C 79 % 1016,5 hPa 0,0 l/m² 0,0 km/h (0 Bft) N 0 ° 15,1 °C 18,8 °C 0,0 km/h (0 Bft) 100,00 %
31.08.2026 09:03 18,8 °C 78 % 1016,4 hPa 0,0 l/m² 0,0 km/h (0 Bft) N 0 ° 14,9 °C 18,8 °C 0,0 km/h (0 Bft) 100,00 %
31.08.2026 09:02 18,8 °C 78 % 1016,4 hPa 0,0 l/m² 0,0 km/h (0 Bft) N 0 ° 14,9 °C 18,8 °C 0,0 km/h (0 Bft) 100,00 %
31.08.2026 09:01 18,8 °C 78 % 1016,4 hPa 0,0 l/m² 0,0 km/h (0 Bft) N 0 ° 14,9 °C 18,8 °C 0,0 km/h (0 Bft) 100,00 %
31.08.2026 09:00 18,8 °C 78 % 1016,4 hPa 0,0 l/m² 0,0 km/h (0 Bft) N 0 ° 14,9 °C 18,8 °C 0,0 km/h (0 Bft) 100,00 %
31.08.2026 08:59 18,8 °C 78 % 1016,4 hPa 0,0 l/m² 0,0 km/h (0 Bft) N 0 ° 14,9 °C 18,8 °C 0,0 km/h (0 Bft) 100,00 %
31.08.2026 08:58 18,7 °C 79 % 1016,4 hPa 0,0 l/m² 0,0 km/h (0 Bft) N 0 ° 15,0 °C 18,7 °C 0,0 km/h (0 Bft) 100,00 %
31.08.2026 08:57 18,7 °C 79 % 1016,4 hPa 0,0 l/m² 0,0 km/h (0 Bft) N 0 ° 15,0 °C 18,7 °C 0,0 km/h (0 Bft) 95,65 %
31.08.2026 08:56 18,7 °C 79 % 1016,4 hPa 0,0 l/m² 0,0 km/h (0 Bft) N 0 ° 15,0 °C 18,7 °C 0,0 km/h (0 Bft) 100,00 %
31.08.2026 08:55 18,7 °C 79 % 1016,4 hPa 0,0 l/m² 0,0 km/h (0 Bft) N 0 ° 15,0 °C 18,7 °C 0,0 km/h (0 Bft) 100,00 %
31.08.2026 08:54 18,7 °C 79 % 1016,4 hPa 0,0 l/m² 0,0 km/h (0 Bft) N 0 ° 15,0 °C 18,7 °C 0,0 km/h (0 Bft) 100,00 %
31.08.2026 08:53 18,7 °C 78 % 1016,5 hPa 0,0 l/m² 0,0 km/h (0 Bft) N 0 ° 14,8 °C 18,7 °C 0,0 km/h (0 Bft) 100,00 %
31.08.2026 08:52 18,7 °C 78 % 1016,4 hPa 0,0 l/m² 0,0 km/h (0 Bft) N 0 ° 14,8 °C 18,7 °C 0,0 km/h (0 Bft) 100,00 %
31.08.2026 08:51 18,7 °C 78 % 1016,4 hPa 0,0 l/m² 0,0 km/h (0 Bft) N 0 ° 14,8 °C 18,7 °C 0,0 km/h (0 Bft) 100,00 %
31.08.2026 08:50 18,6 °C 79 % 1016,5 hPa 0,0 l/m² 0,0 km/h (0 Bft) N 0 ° 14,9 °C 18,6 °C 0,0 km/h (0 Bft) 100,00 %
31.08.2026 08:49 18,6 °C 79 % 1016,5 hPa 0,0 l/m² 0,0 km/h (0 Bft) N 0 ° 14,9 °C 18,6 °C 0,0 km/h (0 Bft) 95,65 %
31.08.2026 08:48 18,6 °C 79 % 1016,5 hPa 0,0 l/m² 0,0 km/h (0 Bft) N 0 ° 14,9 °C 18,6 °C 0,0 km/h (0 Bft) 100,00 %
31.08.2026 08:47 18,6 °C 79 % 1016,4 hPa 0,0 l/m² 0,0 km/h (0 Bft) N 0 ° 14,9 °C 18,6 °C 0,0 km/h (0 Bft) 100,00 %
31.08.2026 08:46 18,6 °C 79 % 1016,4 hPa 0,0 l/m² 0,0 km/h (0 Bft) W 270 ° 14,9 °C 18,6 °C 1,6 km/h (1 Bft) 100,00 %
31.08.2026 08:45 18,6 °C 79 % 1016,5 hPa 0,0 l/m² 1,6 km/h (1 Bft) W 270 ° 14,9 °C 18,6 °C 3,2 km/h (1 Bft) 100,00 %
31.08.2026 08:44 18,6 °C 80 % 1016,4 hPa 0,0 l/m² 3,2 km/h (1 Bft) W 270 ° 15,1 °C 18,6 °C 4,8 km/h (1 Bft) 100,00 %
31.08.2026 08:43 18,5 °C 80 % 1016,4 hPa 0,0 l/m² 3,2 km/h (1 Bft) SW 225 ° 15,0 °C 18,5 °C 4,8 km/h (1 Bft) 100,00 %
31.08.2026 08:42 18,5 °C 80 % 1016,4 hPa 0,0 l/m² 1,6 km/h (1 Bft) SW 225 ° 15,0 °C 18,5 °C 3,2 km/h (1 Bft) 100,00 %
31.08.2026 08:41 18,5 °C 80 % 1016,3 hPa 0,0 l/m² 1,6 km/h (1 Bft) SW 225 ° 15,0 °C 18,5 °C 3,2 km/h (1 Bft) 100,00 %
31.08.2026 08:40 18,5 °C 80 % 1016,3 hPa 0,0 l/m² 1,6 km/h (1 Bft) SW 225 ° 15,0 °C 18,5 °C 4,8 km/h (1 Bft) 100,00 %
31.08.2026 08:39 18,5 °C 81 % 1016,3 hPa 0,0 l/m² 0,0 km/h (0 Bft) SW 225 ° 15,2 °C 18,5 °C 1,6 km/h (1 Bft) 100,00 %
31.08.2026 08:38 18,5 °C 80 % 1016,2 hPa 0,0 l/m² 0,0 km/h (0 Bft) SW 225 ° 15,0 °C 18,5 °C 1,6 km/h (1 Bft) 100,00 %
31.08.2026 08:37 18,5 °C 81 % 1016,3 hPa 0,0 l/m² 3,2 km/h (1 Bft) SW 225 ° 15,2 °C 18,5 °C 4,8 km/h (1 Bft) 100,00 %
31.08.2026 08:36 18,5 °C 81 % 1016,2 hPa 0,0 l/m² 1,6 km/h (1 Bft) S-SW 202 ° 15,2 °C 18,5 °C 3,2 km/h (1 Bft) 95,65 %
31.08.2026 08:35 18,5 °C 81 % 1016,3 hPa 0,0 l/m² 3,2 km/h (1 Bft) S-SW 202 ° 15,2 °C 18,5 °C 4,8 km/h (1 Bft) 95,65 %
31.08.2026 08:34 18,5 °C 80 % 1016,3 hPa 0,0 l/m² 4,8 km/h (1 Bft) S-SW 202 ° 15,0 °C 18,5 °C 6,4 km/h (2 Bft) 100,00 %
31.08.2026 08:33 18,5 °C 80 % 1016,3 hPa 0,0 l/m² 4,8 km/h (1 Bft) S-SW 202 ° 15,0 °C 18,5 °C 6,4 km/h (2 Bft) 100,00 %
31.08.2026 08:32 18,5 °C 80 % 1016,3 hPa 0,0 l/m² 4,8 km/h (1 Bft) S-SW 202 ° 15,0 °C 18,5 °C 6,4 km/h (2 Bft) 95,65 %
31.08.2026 08:31 18,5 °C 81 % 1016,3 hPa 0,0 l/m² 4,8 km/h (1 Bft) S-SW 202 ° 15,2 °C 18,5 °C 8,0 km/h (2 Bft) 100,00 %
31.08.2026 08:30 18,5 °C 81 % 1016,4 hPa 0,0 l/m² 4,8 km/h (1 Bft) S-SW 202 ° 15,2 °C 18,5 °C 8,0 km/h (2 Bft) 100,00 %
31.08.2026 08:29 18,5 °C 81 % 1016,3 hPa 0,0 l/m² 6,4 km/h (2 Bft) S-SW 202 ° 15,2 °C 18,5 °C 8,0 km/h (2 Bft) 100,00 %
31.08.2026 08:28 18,5 °C 81 % 1016,4 hPa 0,0 l/m² 6,4 km/h (2 Bft) S-SW 202 ° 15,2 °C 18,5 °C 8,0 km/h (2 Bft) 100,00 %
31.08.2026 08:27 18,5 °C 81 % 1016,3 hPa 0,0 l/m² 4,8 km/h (1 Bft) S-SW 202 ° 15,2 °C 18,5 °C 6,4 km/h (2 Bft) 100,00 %
31.08.2026 08:26 18,5 °C 81 % 1016,4 hPa 0,0 l/m² 8,0 km/h (2 Bft) S-SW 202 ° 15,2 °C 17,8 °C 11,3 km/h (2 Bft) 100,00 %
31.08.2026 08:25 18,5 °C 82 % 1016,4 hPa 0,0 l/m² 6,4 km/h (2 Bft) S-SW 202 ° 15,4 °C 18,5 °C 9,7 km/h (2 Bft) 100,00 %
31.08.2026 08:24 18,6 °C 81 % 1016,4 hPa 0,0 l/m² 6,4 km/h (2 Bft) S-SW 202 ° 15,3 °C 18,6 °C 8,0 km/h (2 Bft) 100,00 %
31.08.2026 08:23 18,6 °C 81 % 1016,4 hPa 0,0 l/m² 4,8 km/h (1 Bft) SW 225 ° 15,3 °C 18,6 °C 8,0 km/h (2 Bft) 100,00 %
31.08.2026 08:22 18,6 °C 81 % 1016,4 hPa 0,0 l/m² 6,4 km/h (2 Bft) SW 225 ° 15,3 °C 18,6 °C 8,0 km/h (2 Bft) 100,00 %
31.08.2026 08:21 18,6 °C 81 % 1016,4 hPa 0,0 l/m² 6,4 km/h (2 Bft) SW 225 ° 15,3 °C 18,6 °C 8,0 km/h (2 Bft) 100,00 %
31.08.2026 08:20 18,6 °C 81 % 1016,3 hPa 0,0 l/m² 6,4 km/h (2 Bft) SW 225 ° 15,3 °C 18,6 °C 8,0 km/h (2 Bft) 100,00 %
31.08.2026 08:19 18,6 °C 81 % 1016,4 hPa 0,0 l/m² 4,8 km/h (1 Bft) SW 225 ° 15,3 °C 18,6 °C 9,7 km/h (2 Bft) 100,00 %
31.08.2026 08:18 18,6 °C 81 % 1016,3 hPa 0,0 l/m² 8,0 km/h (2 Bft) SW 225 ° 15,3 °C 17,9 °C 11,3 km/h (2 Bft) 95,65 %
31.08.2026 08:17 18,6 °C 81 % 1016,3 hPa 0,0 l/m² 4,8 km/h (1 Bft) SW 225 ° 15,3 °C 18,6 °C 8,0 km/h (2 Bft) 100,00 %
31.08.2026 08:16 18,6 °C 81 % 1016,3 hPa 0,0 l/m² 3,2 km/h (1 Bft) SW 225 ° 15,3 °C 18,6 °C 6,4 km/h (2 Bft) 100,00 %
31.08.2026 08:15 18,6 °C 80 % 1016,3 hPa 0,0 l/m² 4,8 km/h (1 Bft) W-SW 247 ° 15,1 °C 18,6 °C 6,4 km/h (2 Bft) 95,65 %
31.08.2026 08:14 18,6 °C 80 % 1016,3 hPa 0,0 l/m² 4,8 km/h (1 Bft) W 270 ° 15,1 °C 18,6 °C 11,3 km/h (2 Bft) 100,00 %
31.08.2026 08:13 18,6 °C 81 % 1016,3 hPa 0,0 l/m² 6,4 km/h (2 Bft) W 270 ° 15,3 °C 18,6 °C 14,5 km/h (3 Bft) 100,00 %
31.08.2026 08:12 18,7 °C 80 % 1016,4 hPa 0,0 l/m² 6,4 km/h (2 Bft) SW 225 ° 15,2 °C 18,7 °C 16,1 km/h (3 Bft) 100,00 %
31.08.2026 08:11 18,7 °C 80 % 1016,3 hPa 0,0 l/m² 6,4 km/h (2 Bft) SW 225 ° 15,2 °C 18,7 °C 12,9 km/h (3 Bft) 100,00 %
31.08.2026 08:10 18,7 °C 80 % 1016,4 hPa 0,0 l/m² 6,4 km/h (2 Bft) SW 225 ° 15,2 °C 18,7 °C 11,3 km/h (2 Bft) 100,00 %
31.08.2026 08:09 18,7 °C 81 % 1016,3 hPa 0,0 l/m² 8,0 km/h (2 Bft) W-SW 247 ° 15,4 °C 18,0 °C 16,1 km/h (3 Bft) 100,00 %
31.08.2026 08:08 18,7 °C 80 % 1016,3 hPa 0,0 l/m² 6,4 km/h (2 Bft) SW 225 ° 15,2 °C 18,7 °C 9,7 km/h (2 Bft) 100,00 %
31.08.2026 08:07 18,7 °C 81 % 1016,3 hPa 0,0 l/m² 4,8 km/h (1 Bft) W-SW 247 ° 15,4 °C 18,7 °C 8,0 km/h (2 Bft) 100,00 %
31.08.2026 08:06 18,7 °C 81 % 1016,3 hPa 0,0 l/m² 6,4 km/h (2 Bft) SW 225 ° 15,4 °C 18,7 °C 9,7 km/h (2 Bft) 100,00 %
31.08.2026 08:05 18,7 °C 81 % 1016,2 hPa 0,0 l/m² 4,8 km/h (1 Bft) SW 225 ° 15,4 °C 18,7 °C 8,0 km/h (2 Bft) 100,00 %
31.08.2026 08:04 18,7 °C 80 % 1016,1 hPa 0,0 l/m² 6,4 km/h (2 Bft) W 270 ° 15,2 °C 18,7 °C 9,7 km/h (2 Bft) 100,00 %
31.08.2026 08:03 18,7 °C 81 % 1016,1 hPa 0,0 l/m² 6,4 km/h (2 Bft) W 270 ° 15,4 °C 18,7 °C 11,3 km/h (2 Bft) 100,00 %
31.08.2026 08:02 18,7 °C 81 % 1016,1 hPa 0,0 l/m² 9,7 km/h (2 Bft) SW 225 ° 15,4 °C 17,3 °C 17,7 km/h (3 Bft) 100,00 %
31.08.2026 08:01 18,7 °C 81 % 1016,2 hPa 0,0 l/m² 11,3 km/h (2 Bft) W 270 ° 15,4 °C 16,8 °C 14,5 km/h (3 Bft) 100,00 %
31.08.2026 08:00 18,7 °C 81 % 1016,0 hPa 0,0 l/m² 8,0 km/h (2 Bft) SW 225 ° 15,4 °C 18,0 °C 14,5 km/h (3 Bft) 100,00 %
31.08.2026 07:59 18,7 °C 81 % 1016,1 hPa 0,0 l/m² 8,0 km/h (2 Bft) W 270 ° 15,4 °C 18,0 °C 12,9 km/h (3 Bft) 95,65 %
31.08.2026 07:58 18,7 °C 81 % 1016,0 hPa 0,0 l/m² 9,7 km/h (2 Bft) S-SW 202 ° 15,4 °C 17,3 °C 17,7 km/h (3 Bft) 100,00 %
31.08.2026 07:57 18,7 °C 81 % 1016,1 hPa 0,0 l/m² 8,0 km/h (2 Bft) W-SW 247 ° 15,4 °C 18,0 °C 16,1 km/h (3 Bft) 100,00 %
31.08.2026 07:56 18,7 °C 81 % 1016,1 hPa 0,0 l/m² 9,7 km/h (2 Bft) W-SW 247 ° 15,4 °C 17,3 °C 16,1 km/h (3 Bft) 100,00 %
31.08.2026 07:55 18,7 °C 81 % 1016,1 hPa 0,0 l/m² 12,9 km/h (3 Bft) SW 225 ° 15,4 °C 16,3 °C 19,3 km/h (3 Bft) 100,00 %
31.08.2026 07:54 18,7 °C 82 % 1016,1 hPa 0,0 l/m² 12,9 km/h (3 Bft) W 270 ° 15,6 °C 16,3 °C 22,5 km/h (4 Bft) 100,00 %
31.08.2026 07:53 18,7 °C 82 % 1016,0 hPa 0,0 l/m² 8,0 km/h (2 Bft) W 270 ° 15,6 °C 18,0 °C 12,9 km/h (3 Bft) 100,00 %
31.08.2026 07:52 18,7 °C 82 % 1015,9 hPa 0,0 l/m² 4,8 km/h (1 Bft) SW 225 ° 15,6 °C 18,7 °C 9,7 km/h (2 Bft) 100,00 %
31.08.2026 07:51 18,6 °C 82 % 1016,1 hPa 0,0 l/m² 6,4 km/h (2 Bft) SW 225 ° 15,5 °C 18,6 °C 12,9 km/h (3 Bft) 100,00 %
31.08.2026 07:50 18,6 °C 82 % 1016,0 hPa 0,0 l/m² 8,0 km/h (2 Bft) W-NW 292 ° 15,5 °C 17,9 °C 11,3 km/h (2 Bft) 100,00 %
31.08.2026 07:49 18,6 °C 83 % 1015,9 hPa 0,0 l/m² 9,7 km/h (2 Bft) SW 225 ° 15,7 °C 17,2 °C 20,9 km/h (4 Bft) 100,00 %
31.08.2026 07:48 18,6 °C 83 % 1015,9 hPa 0,0 l/m² 8,0 km/h (2 Bft) SW 225 ° 15,7 °C 17,9 °C 16,1 km/h (3 Bft) 95,65 %
31.08.2026 07:47 18,6 °C 83 % 1016,0 hPa 0,0 l/m² 8,0 km/h (2 Bft) W-SW 247 ° 15,7 °C 17,9 °C 12,9 km/h (3 Bft) 100,00 %
31.08.2026 07:46 18,6 °C 83 % 1015,9 hPa 0,0 l/m² 9,7 km/h (2 Bft) SW 225 ° 15,7 °C 17,2 °C 14,5 km/h (3 Bft) 95,65 %
31.08.2026 07:45 18,5 °C 83 % 1015,9 hPa 0,0 l/m² 12,9 km/h (3 Bft) W 270 ° 15,6 °C 16,0 °C 19,3 km/h (3 Bft) 100,00 %
31.08.2026 07:44 18,5 °C 83 % 1015,9 hPa 0,0 l/m² 9,7 km/h (2 Bft) S-SW 202 ° 15,6 °C 17,1 °C 17,7 km/h (3 Bft) 95,65 %
31.08.2026 07:43 18,5 °C 83 % 1015,9 hPa 0,0 l/m² 11,3 km/h (2 Bft) W 270 ° 15,6 °C 16,5 °C 19,3 km/h (3 Bft) 100,00 %
31.08.2026 07:42 18,5 °C 82 % 1015,9 hPa 0,0 l/m² 11,3 km/h (2 Bft) W-SW 247 ° 15,4 °C 16,5 °C 17,7 km/h (3 Bft) 100,00 %
31.08.2026 07:41 18,5 °C 82 % 1015,8 hPa 0,0 l/m² 16,1 km/h (3 Bft) W 270 ° 15,4 °C 15,1 °C 25,7 km/h (4 Bft) 100,00 %
31.08.2026 07:40 18,4 °C 82 % 1015,8 hPa 0,0 l/m² 12,9 km/h (3 Bft) W-SW 247 ° 15,3 °C 15,9 °C 22,5 km/h (4 Bft) 100,00 %
31.08.2026 07:39 18,4 °C 83 % 1015,7 hPa 0,0 l/m² 12,9 km/h (3 Bft) W 270 ° 15,5 °C 15,9 °C 20,9 km/h (4 Bft) 100,00 %
31.08.2026 07:38 18,4 °C 83 % 1015,7 hPa 0,0 l/m² 12,9 km/h (3 Bft) W 270 ° 15,5 °C 15,9 °C 19,3 km/h (3 Bft) 100,00 %
31.08.2026 07:37 18,4 °C 83 % 1015,7 hPa 0,0 l/m² 12,9 km/h (3 Bft) W 270 ° 15,5 °C 15,9 °C 17,7 km/h (3 Bft) 100,00 %
31.08.2026 07:36 18,4 °C 82 % 1015,6 hPa 0,0 l/m² 11,3 km/h (2 Bft) W-SW 247 ° 15,3 °C 16,4 °C 19,3 km/h (3 Bft) 100,00 %
31.08.2026 07:35 18,4 °C 83 % 1015,5 hPa 0,0 l/m² 12,9 km/h (3 Bft) W 270 ° 15,5 °C 15,9 °C 17,7 km/h (3 Bft) 100,00 %
31.08.2026 07:34 18,4 °C 83 % 1015,5 hPa 0,0 l/m² 8,0 km/h (2 Bft) W-SW 247 ° 15,5 °C 17,7 °C 11,3 km/h (2 Bft) 100,00 %
31.08.2026 07:33 18,4 °C 83 % 1015,5 hPa 0,0 l/m² 12,9 km/h (3 Bft) W 270 ° 15,5 °C 15,9 °C 19,3 km/h (3 Bft) 100,00 %
31.08.2026 07:32 18,4 °C 83 % 1015,6 hPa 0,0 l/m² 11,3 km/h (2 Bft) W-SW 247 ° 15,5 °C 16,4 °C 20,9 km/h (4 Bft) 100,00 %
31.08.2026 07:31 18,4 °C 83 % 1015,6 hPa 0,0 l/m² 12,9 km/h (3 Bft) W 270 ° 15,5 °C 15,9 °C 17,7 km/h (3 Bft) 100,00 %
31.08.2026 07:30 18,4 °C 83 % 1015,6 hPa 0,0 l/m² 12,9 km/h (3 Bft) W 270 ° 15,5 °C 15,9 °C 17,7 km/h (3 Bft) 100,00 %
31.08.2026 07:29 18,4 °C 83 % 1015,6 hPa 0,0 l/m² 16,1 km/h (3 Bft) W 270 ° 15,5 °C 15,0 °C 24,1 km/h (4 Bft) 95,65 %
31.08.2026 07:28 18,4 °C 83 % 1015,6 hPa 0,0 l/m² 16,1 km/h (3 Bft) W 270 ° 15,5 °C 15,0 °C 25,7 km/h (4 Bft) 100,00 %
31.08.2026 07:27 18,3 °C 83 % 1015,6 hPa 0,0 l/m² 14,5 km/h (3 Bft) W 270 ° 15,4 °C 15,3 °C 19,3 km/h (3 Bft) 95,65 %
31.08.2026 07:26 18,3 °C 83 % 1015,6 hPa 0,0 l/m² 17,7 km/h (3 Bft) W 270 ° 15,4 °C 14,5 °C 33,8 km/h (5 Bft) 100,00 %
31.08.2026 07:25 18,3 °C 84 % 1015,7 hPa 0,0 l/m² 17,7 km/h (3 Bft) W-SW 247 ° 15,5 °C 14,5 °C 24,1 km/h (4 Bft) 100,00 %
31.08.2026 07:24 18,3 °C 84 % 1015,5 hPa 0,0 l/m² 14,5 km/h (3 Bft) W 270 ° 15,5 °C 15,3 °C 20,9 km/h (4 Bft) 100,00 %
31.08.2026 07:23 18,3 °C 84 % 1015,6 hPa 0,0 l/m² 14,5 km/h (3 Bft) W 270 ° 15,5 °C 15,3 °C 20,9 km/h (4 Bft) 100,00 %
31.08.2026 07:22 18,3 °C 84 % 1015,5 hPa 0,0 l/m² 17,7 km/h (3 Bft) W 270 ° 15,5 °C 14,5 °C 29,0 km/h (5 Bft) 100,00 %
31.08.2026 07:21 18,3 °C 85 % 1015,4 hPa 0,0 l/m² 19,3 km/h (3 Bft) W 270 ° 15,7 °C 14,2 °C 29,0 km/h (5 Bft) 100,00 %
31.08.2026 07:20 18,2 °C 85 % 1015,6 hPa 0,0 l/m² 19,3 km/h (3 Bft) W 270 ° 15,6 °C 14,0 °C 30,6 km/h (5 Bft) 100,00 %
31.08.2026 07:19 18,2 °C 85 % 1015,4 hPa 0,0 l/m² 19,3 km/h (3 Bft) W-SW 247 ° 15,6 °C 14,0 °C 33,8 km/h (5 Bft) 100,00 %
31.08.2026 07:18 18,2 °C 86 % 1015,6 hPa 0,0 l/m² 20,9 km/h (4 Bft) W 270 ° 15,8 °C 13,7 °C 29,0 km/h (5 Bft) 100,00 %
31.08.2026 07:17 18,2 °C 86 % 1015,7 hPa 0,0 l/m² 20,9 km/h (4 Bft) W 270 ° 15,8 °C 13,7 °C 33,8 km/h (5 Bft) 100,00 %
31.08.2026 07:16 18,1 °C 86 % 1015,5 hPa 0,0 l/m² 16,1 km/h (3 Bft) W-SW 247 ° 15,7 °C 14,7 °C 22,5 km/h (4 Bft) 100,00 %
31.08.2026 07:15 18,1 °C 87 % 1015,6 hPa 0,0 l/m² 19,3 km/h (3 Bft) W 270 ° 15,9 °C 13,9 °C 29,0 km/h (5 Bft) 100,00 %
31.08.2026 07:14 18,1 °C 87 % 1015,4 hPa 0,0 l/m² 9,7 km/h (2 Bft) W 270 ° 15,9 °C 16,7 °C 30,6 km/h (5 Bft) 100,00 %
31.08.2026 07:13 18,1 °C 88 % 1015,5 hPa 0,0 l/m² 14,5 km/h (3 Bft) W-SW 247 ° 16,1 °C 15,1 °C 25,7 km/h (4 Bft) 100,00 %
31.08.2026 07:12 18,1 °C 88 % 1015,3 hPa 0,0 l/m² 17,7 km/h (3 Bft) W 270 ° 16,1 °C 14,3 °C 30,6 km/h (5 Bft) 95,65 %
31.08.2026 07:11 18,1 °C 88 % 1015,3 hPa 0,0 l/m² 16,1 km/h (3 Bft) W 270 ° 16,1 °C 14,7 °C 24,1 km/h (4 Bft) 100,00 %
31.08.2026 07:10 18,1 °C 88 % 1015,4 hPa 0,0 l/m² 12,9 km/h (3 Bft) W-SW 247 ° 16,1 °C 15,6 °C 24,1 km/h (4 Bft) 100,00 %
31.08.2026 07:09 18,2 °C 88 % 1015,4 hPa 0,0 l/m² 16,1 km/h (3 Bft) W 270 ° 16,2 °C 14,8 °C 24,1 km/h (4 Bft) 100,00 %
31.08.2026 07:08 18,2 °C 87 % 1014,8 hPa 0,0 l/m² 14,5 km/h (3 Bft) W 270 ° 16,0 °C 15,2 °C 22,5 km/h (4 Bft) 100,00 %
31.08.2026 07:07 18,2 °C 87 % 1014,2 hPa 0,0 l/m² 8,0 km/h (2 Bft) S-SW 202 ° 16,0 °C 17,5 °C 11,3 km/h (2 Bft) 100,00 %
31.08.2026 07:06 18,2 °C 87 % 1013,9 hPa 0,0 l/m² 6,4 km/h (2 Bft) S 180 ° 16,0 °C 18,2 °C 8,0 km/h (2 Bft) 100,00 %
31.08.2026 07:05 18,2 °C 87 % 1013,7 hPa 0,0 l/m² 8,0 km/h (2 Bft) S 180 ° 16,0 °C 17,5 °C 9,7 km/h (2 Bft) 100,00 %
31.08.2026 07:04 18,2 °C 87 % 1013,7 hPa 0,0 l/m² 8,0 km/h (2 Bft) S 180 ° 16,0 °C 17,5 °C 9,7 km/h (2 Bft) 100,00 %
31.08.2026 07:03 18,3 °C 87 % 1013,9 hPa 0,0 l/m² 8,0 km/h (2 Bft) S 180 ° 16,1 °C 17,6 °C 9,7 km/h (2 Bft) 100,00 %
31.08.2026 07:02 18,3 °C 87 % 1013,8 hPa 0,0 l/m² 8,0 km/h (2 Bft) S 180 ° 16,1 °C 17,6 °C 8,0 km/h (2 Bft) 100,00 %
31.08.2026 07:01 18,3 °C 87 % 1013,9 hPa 0,0 l/m² 6,4 km/h (2 Bft) S-SO 157 ° 16,1 °C 18,3 °C 8,0 km/h (2 Bft) 100,00 %
31.08.2026 07:00 18,3 °C 86 % 1013,9 hPa 0,0 l/m² 3,2 km/h (1 Bft) S-SO 157 ° 15,9 °C 18,3 °C 6,4 km/h (2 Bft) 95,65 %
31.08.2026 06:59 18,3 °C 86 % 1014,0 hPa 0,0 l/m² 0,0 km/h (0 Bft) N 0 ° 15,9 °C 18,3 °C 0,0 km/h (0 Bft) 100,00 %
31.08.2026 06:58 18,4 °C 86 % 1014,0 hPa 0,0 l/m² 0,0 km/h (0 Bft) N 0 ° 16,0 °C 18,4 °C 0,0 km/h (0 Bft) 95,65 %
31.08.2026 06:57 18,4 °C 86 % 1014,0 hPa 0,0 l/m² 0,0 km/h (0 Bft) N 0 ° 16,0 °C 18,4 °C 0,0 km/h (0 Bft) 100,00 %
31.08.2026 06:56 18,4 °C 86 % 1014,0 hPa 0,0 l/m² 0,0 km/h (0 Bft) N 0 ° 16,0 °C 18,4 °C 0,0 km/h (0 Bft) 100,00 %
31.08.2026 06:55 18,5 °C 86 % 1014,0 hPa 0,0 l/m² 0,0 km/h (0 Bft) N 0 ° 16,1 °C 18,5 °C 0,0 km/h (0 Bft) 100,00 %
31.08.2026 06:54 18,5 °C 86 % 1014,1 hPa 0,0 l/m² 0,0 km/h (0 Bft) N 0 ° 16,1 °C 18,5 °C 0,0 km/h (0 Bft) 100,00 %
31.08.2026 06:53 18,5 °C 86 % 1014,0 hPa 0,0 l/m² 0,0 km/h (0 Bft) N 0 ° 16,1 °C 18,5 °C 0,0 km/h (0 Bft) 95,65 %
31.08.2026 06:52 18,6 °C 86 % 1014,1 hPa 0,0 l/m² 0,0 km/h (0 Bft) N 0 ° 16,2 °C 18,6 °C 0,0 km/h (0 Bft) 100,00 %
31.08.2026 06:51 18,6 °C 86 % 1014,1 hPa 0,0 l/m² 0,0 km/h (0 Bft) W-NW 292 ° 16,2 °C 18,6 °C 1,6 km/h (1 Bft) 100,00 %
31.08.2026 06:50 18,6 °C 86 % 1014,1 hPa 0,0 l/m² 1,6 km/h (1 Bft) W-NW 292 ° 16,2 °C 18,6 °C 3,2 km/h (1 Bft) 100,00 %
31.08.2026 06:49 18,6 °C 85 % 1014,1 hPa 0,0 l/m² 1,6 km/h (1 Bft) W-NW 292 ° 16,0 °C 18,6 °C 3,2 km/h (1 Bft) 100,00 %
31.08.2026 06:48 18,6 °C 86 % 1014,1 hPa 0,0 l/m² 3,2 km/h (1 Bft) NW 315 ° 16,2 °C 18,6 °C 4,8 km/h (1 Bft) 95,65 %
31.08.2026 06:47 18,6 °C 86 % 1014,3 hPa 0,0 l/m² 4,8 km/h (1 Bft) W-NW 292 ° 16,2 °C 18,6 °C 6,4 km/h (2 Bft) 100,00 %
31.08.2026 06:46 18,7 °C 85 % 1014,2 hPa 0,0 l/m² 4,8 km/h (1 Bft) NW 315 ° 16,1 °C 18,7 °C 6,4 km/h (2 Bft) 100,00 %
31.08.2026 06:45 18,7 °C 85 % 1014,2 hPa 0,0 l/m² 4,8 km/h (1 Bft) W-NW 292 ° 16,1 °C 18,7 °C 6,4 km/h (2 Bft) 100,00 %
31.08.2026 06:44 18,7 °C 85 % 1014,1 hPa 0,0 l/m² 4,8 km/h (1 Bft) W-NW 292 ° 16,1 °C 18,7 °C 6,4 km/h (2 Bft) 100,00 %
31.08.2026 06:43 18,7 °C 85 % 1014,0 hPa 0,0 l/m² 3,2 km/h (1 Bft) W-NW 292 ° 16,1 °C 18,7 °C 4,8 km/h (1 Bft) 100,00 %
31.08.2026 06:42 18,8 °C 84 % 1014,0 hPa 0,0 l/m² 3,2 km/h (1 Bft) W-NW 292 ° 16,0 °C 18,8 °C 4,8 km/h (1 Bft) 100,00 %
31.08.2026 06:41 18,8 °C 84 % 1013,9 hPa 0,0 l/m² 3,2 km/h (1 Bft) W-NW 292 ° 16,0 °C 18,8 °C 6,4 km/h (2 Bft) 100,00 %
31.08.2026 06:40 18,8 °C 84 % 1013,9 hPa 0,0 l/m² 4,8 km/h (1 Bft) W-NW 292 ° 16,0 °C 18,8 °C 4,8 km/h (1 Bft) 95,65 %
31.08.2026 06:39 18,8 °C 84 % 1013,7 hPa 0,0 l/m² 3,2 km/h (1 Bft) W-SW 247 ° 16,0 °C 18,8 °C 6,4 km/h (2 Bft) 100,00 %
31.08.2026 06:38 18,8 °C 84 % 1013,8 hPa 0,0 l/m² 0,0 km/h (0 Bft) W-SW 247 ° 16,0 °C 18,8 °C 1,6 km/h (1 Bft) 100,00 %
31.08.2026 06:37 18,8 °C 84 % 1013,9 hPa 0,0 l/m² 1,6 km/h (1 Bft) W-SW 247 ° 16,0 °C 18,8 °C 3,2 km/h (1 Bft) 100,00 %
31.08.2026 06:36 18,9 °C 84 % 1013,8 hPa 0,0 l/m² 1,6 km/h (1 Bft) W-SW 247 ° 16,1 °C 18,9 °C 3,2 km/h (1 Bft) 91,30 %
31.08.2026 06:35 18,9 °C 84 % 1013,7 hPa 0,0 l/m² 1,6 km/h (1 Bft) SW 225 ° 16,1 °C 18,9 °C 3,2 km/h (1 Bft) 100,00 %
31.08.2026 06:34 18,9 °C 84 % 1013,8 hPa 0,0 l/m² 1,6 km/h (1 Bft) SW 225 ° 16,1 °C 18,9 °C 1,6 km/h (1 Bft) 95,65 %
31.08.2026 06:33 18,9 °C 84 % 1013,8 hPa 0,0 l/m² 1,6 km/h (1 Bft) SW 225 ° 16,1 °C 18,9 °C 1,6 km/h (1 Bft) 100,00 %
31.08.2026 06:32 18,9 °C 84 % 1013,8 hPa 0,0 l/m² 0,0 km/h (0 Bft) SW 225 ° 16,1 °C 18,9 °C 1,6 km/h (1 Bft) 100,00 %
31.08.2026 06:31 18,9 °C 84 % 1013,8 hPa 0,0 l/m² 0,0 km/h (0 Bft) SW 225 ° 16,1 °C 18,9 °C 1,6 km/h (1 Bft) 95,65 %
31.08.2026 06:30 18,9 °C 84 % 1013,8 hPa 0,0 l/m² 1,6 km/h (1 Bft) SW 225 ° 16,1 °C 18,9 °C 3,2 km/h (1 Bft) 100,00 %
31.08.2026 06:29 18,9 °C 84 % 1013,7 hPa 0,0 l/m² 1,6 km/h (1 Bft) SW 225 ° 16,1 °C 18,9 °C 3,2 km/h (1 Bft) 100,00 %
31.08.2026 06:28 18,9 °C 84 % 1013,7 hPa 0,0 l/m² 0,0 km/h (0 Bft) SW 225 ° 16,1 °C 18,9 °C 1,6 km/h (1 Bft) 100,00 %
31.08.2026 06:27 18,9 °C 84 % 1013,7 hPa 0,0 l/m² 1,6 km/h (1 Bft) SW 225 ° 16,1 °C 18,9 °C 1,6 km/h (1 Bft) 100,00 %
31.08.2026 06:26 18,9 °C 83 % 1013,8 hPa 0,0 l/m² 0,0 km/h (0 Bft) SW 225 ° 15,9 °C 18,9 °C 1,6 km/h (1 Bft) 100,00 %
31.08.2026 06:25 18,9 °C 83 % 1013,7 hPa 0,0 l/m² 1,6 km/h (1 Bft) SW 225 ° 15,9 °C 18,9 °C 1,6 km/h (1 Bft) 95,65 %
31.08.2026 06:24 18,9 °C 83 % 1013,7 hPa 0,0 l/m² 3,2 km/h (1 Bft) SW 225 ° 15,9 °C 18,9 °C 4,8 km/h (1 Bft) 100,00 %
31.08.2026 06:23 18,9 °C 83 % 1013,7 hPa 0,0 l/m² 1,6 km/h (1 Bft) SW 225 ° 15,9 °C 18,9 °C 3,2 km/h (1 Bft) 100,00 %
31.08.2026 06:22 18,9 °C 83 % 1013,6 hPa 0,0 l/m² 3,2 km/h (1 Bft) SW 225 ° 15,9 °C 18,9 °C 4,8 km/h (1 Bft) 100,00 %
31.08.2026 06:21 18,9 °C 83 % 1013,7 hPa 0,0 l/m² 3,2 km/h (1 Bft) SW 225 ° 15,9 °C 18,9 °C 6,4 km/h (2 Bft) 100,00 %
31.08.2026 06:20 18,9 °C 83 % 1013,6 hPa 0,0 l/m² 0,0 km/h (0 Bft) N 0 ° 15,9 °C 18,9 °C 0,0 km/h (0 Bft) 95,65 %
31.08.2026 06:19 18,9 °C 83 % 1013,6 hPa 0,0 l/m² 0,0 km/h (0 Bft) S 180 ° 15,9 °C 18,9 °C 1,6 km/h (1 Bft) 100,00 %
31.08.2026 06:18 18,9 °C 83 % 1013,5 hPa 0,0 l/m² 1,6 km/h (1 Bft) S 180 ° 15,9 °C 18,9 °C 3,2 km/h (1 Bft) 100,00 %
31.08.2026 06:17 18,9 °C 83 % 1013,5 hPa 0,0 l/m² 1,6 km/h (1 Bft) S 180 ° 15,9 °C 18,9 °C 3,2 km/h (1 Bft) 100,00 %
31.08.2026 06:16 18,9 °C 83 % 1013,5 hPa 0,0 l/m² 4,8 km/h (1 Bft) S 180 ° 15,9 °C 18,9 °C 8,0 km/h (2 Bft) 100,00 %
31.08.2026 06:15 18,9 °C 83 % 1013,6 hPa 0,0 l/m² 6,4 km/h (2 Bft) S 180 ° 15,9 °C 18,9 °C 9,7 km/h (2 Bft) 100,00 %
31.08.2026 06:14 18,9 °C 83 % 1013,6 hPa 0,0 l/m² 6,4 km/h (2 Bft) S 180 ° 15,9 °C 18,9 °C 8,0 km/h (2 Bft) 100,00 %
31.08.2026 06:13 18,9 °C 83 % 1013,5 hPa 0,0 l/m² 9,7 km/h (2 Bft) S-SO 157 ° 15,9 °C 17,5 °C 12,9 km/h (3 Bft) 100,00 %
31.08.2026 06:12 18,9 °C 83 % 1013,6 hPa 0,0 l/m² 6,4 km/h (2 Bft) S 180 ° 15,9 °C 18,9 °C 9,7 km/h (2 Bft) 100,00 %
31.08.2026 06:11 18,9 °C 83 % 1013,6 hPa 0,0 l/m² 8,0 km/h (2 Bft) S 180 ° 15,9 °C 18,2 °C 11,3 km/h (2 Bft) 100,00 %
31.08.2026 06:10 18,9 °C 83 % 1013,5 hPa 0,0 l/m² 9,7 km/h (2 Bft) S 180 ° 15,9 °C 17,5 °C 11,3 km/h (2 Bft) 100,00 %
31.08.2026 06:09 18,8 °C 83 % 1013,6 hPa 0,0 l/m² 8,0 km/h (2 Bft) S 180 ° 15,8 °C 18,1 °C 12,9 km/h (3 Bft) 100,00 %
31.08.2026 06:08 18,8 °C 83 % 1013,6 hPa 0,0 l/m² 8,0 km/h (2 Bft) S 180 ° 15,8 °C 18,1 °C 11,3 km/h (2 Bft) 100,00 %
31.08.2026 06:07 18,8 °C 83 % 1013,6 hPa 0,0 l/m² 6,4 km/h (2 Bft) S 180 ° 15,8 °C 18,8 °C 11,3 km/h (2 Bft) 100,00 %
31.08.2026 06:06 18,8 °C 83 % 1013,5 hPa 0,0 l/m² 9,7 km/h (2 Bft) S 180 ° 15,8 °C 17,4 °C 11,3 km/h (2 Bft) 100,00 %
31.08.2026 06:05 18,8 °C 83 % 1013,5 hPa 0,0 l/m² 8,0 km/h (2 Bft) S 180 ° 15,8 °C 18,1 °C 12,9 km/h (3 Bft) 100,00 %
31.08.2026 06:04 18,8 °C 84 % 1013,5 hPa 0,0 l/m² 6,4 km/h (2 Bft) S 180 ° 16,0 °C 18,8 °C 9,7 km/h (2 Bft) 100,00 %
31.08.2026 06:03 18,8 °C 84 % 1013,5 hPa 0,0 l/m² 6,4 km/h (2 Bft) S-SO 157 ° 16,0 °C 18,8 °C 11,3 km/h (2 Bft) 100,00 %
31.08.2026 06:02 18,8 °C 84 % 1013,5 hPa 0,0 l/m² 6,4 km/h (2 Bft) S 180 ° 16,0 °C 18,8 °C 8,0 km/h (2 Bft) 100,00 %
31.08.2026 06:01 18,8 °C 84 % 1013,5 hPa 0,0 l/m² 8,0 km/h (2 Bft) S 180 ° 16,0 °C 18,1 °C 11,3 km/h (2 Bft) 95,65 %
31.08.2026 06:00 18,8 °C 84 % 1013,6 hPa 0,0 l/m² 8,0 km/h (2 Bft) S-SO 157 ° 16,0 °C 18,1 °C 11,3 km/h (2 Bft) 100,00 %
31.08.2026 05:59 18,8 °C 84 % 1013,5 hPa 0,0 l/m² 6,4 km/h (2 Bft) S-SO 157 ° 16,0 °C 18,8 °C 8,0 km/h (2 Bft) 100,00 %
31.08.2026 05:58 18,8 °C 84 % 1013,5 hPa 0,0 l/m² 8,0 km/h (2 Bft) S-SO 157 ° 16,0 °C 18,1 °C 11,3 km/h (2 Bft) 100,00 %
31.08.2026 05:57 18,8 °C 84 % 1013,5 hPa 0,0 l/m² 6,4 km/h (2 Bft) S-SO 157 ° 16,0 °C 18,8 °C 9,7 km/h (2 Bft) 100,00 %
31.08.2026 05:56 18,8 °C 84 % 1013,5 hPa 0,0 l/m² 9,7 km/h (2 Bft) S-SO 157 ° 16,0 °C 17,4 °C 16,1 km/h (3 Bft) 100,00 %
31.08.2026 05:55 18,8 °C 84 % 1013,5 hPa 0,0 l/m² 6,4 km/h (2 Bft) S-SO 157 ° 16,0 °C 18,8 °C 8,0 km/h (2 Bft) 100,00 %
31.08.2026 05:54 18,8 °C 84 % 1013,5 hPa 0,0 l/m² 4,8 km/h (1 Bft) S-SO 157 ° 16,0 °C 18,8 °C 8,0 km/h (2 Bft) 100,00 %
31.08.2026 05:53 18,8 °C 84 % 1013,5 hPa 0,0 l/m² 4,8 km/h (1 Bft) SO 135 ° 16,0 °C 18,8 °C 6,4 km/h (2 Bft) 100,00 %
31.08.2026 05:52 18,8 °C 83 % 1013,5 hPa 0,0 l/m² 6,4 km/h (2 Bft) SO 135 ° 15,8 °C 18,8 °C 11,3 km/h (2 Bft) 100,00 %
31.08.2026 05:51 18,8 °C 83 % 1013,5 hPa 0,0 l/m² 9,7 km/h (2 Bft) S-SO 157 ° 15,8 °C 17,4 °C 12,9 km/h (3 Bft) 100,00 %
31.08.2026 05:50 18,8 °C 83 % 1013,6 hPa 0,0 l/m² 8,0 km/h (2 Bft) S 180 ° 15,8 °C 18,1 °C 12,9 km/h (3 Bft) 100,00 %
31.08.2026 05:49 18,8 °C 83 % 1013,6 hPa 0,0 l/m² 9,7 km/h (2 Bft) S 180 ° 15,8 °C 17,4 °C 11,3 km/h (2 Bft) 95,65 %
31.08.2026 05:48 18,8 °C 83 % 1013,6 hPa 0,0 l/m² 8,0 km/h (2 Bft) S 180 ° 15,8 °C 18,1 °C 11,3 km/h (2 Bft) 100,00 %
31.08.2026 05:47 18,8 °C 84 % 1013,7 hPa 0,0 l/m² 6,4 km/h (2 Bft) S 180 ° 16,0 °C 18,8 °C 8,0 km/h (2 Bft) 100,00 %
31.08.2026 05:46 18,8 °C 83 % 1013,7 hPa 0,0 l/m² 6,4 km/h (2 Bft) S-SW 202 ° 15,8 °C 18,8 °C 9,7 km/h (2 Bft) 95,65 %
31.08.2026 05:45 18,8 °C 83 % 1013,7 hPa 0,0 l/m² 6,4 km/h (2 Bft) S-SW 202 ° 15,8 °C 18,8 °C 11,3 km/h (2 Bft) 100,00 %
31.08.2026 05:44 18,8 °C 83 % 1013,7 hPa 0,0 l/m² 9,7 km/h (2 Bft) S-SW 202 ° 15,8 °C 17,4 °C 12,9 km/h (3 Bft) 100,00 %
31.08.2026 05:43 18,8 °C 83 % 1013,8 hPa 0,0 l/m² 9,7 km/h (2 Bft) S-SW 202 ° 15,8 °C 17,4 °C 11,3 km/h (2 Bft) 95,65 %
31.08.2026 05:42 18,8 °C 83 % 1013,6 hPa 0,0 l/m² 9,7 km/h (2 Bft) S-SW 202 ° 15,8 °C 17,4 °C 12,9 km/h (3 Bft) 100,00 %
31.08.2026 05:41 18,8 °C 83 % 1013,6 hPa 0,0 l/m² 8,0 km/h (2 Bft) S 180 ° 15,8 °C 18,1 °C 11,3 km/h (2 Bft) 95,65 %
31.08.2026 05:40 18,8 °C 83 % 1013,6 hPa 0,0 l/m² 6,4 km/h (2 Bft) S 180 ° 15,8 °C 18,8 °C 11,3 km/h (2 Bft) 100,00 %
31.08.2026 05:39 18,8 °C 83 % 1013,6 hPa 0,0 l/m² 9,7 km/h (2 Bft) S 180 ° 15,8 °C 17,4 °C 11,3 km/h (2 Bft) 95,65 %
31.08.2026 05:38 18,8 °C 83 % 1013,5 hPa 0,0 l/m² 9,7 km/h (2 Bft) S 180 ° 15,8 °C 17,4 °C 14,5 km/h (3 Bft) 100,00 %
31.08.2026 05:37 18,8 °C 83 % 1013,5 hPa 0,0 l/m² 11,3 km/h (2 Bft) S-SO 157 ° 15,8 °C 16,9 °C 19,3 km/h (3 Bft) 95,65 %
31.08.2026 05:36 18,8 °C 83 % 1013,5 hPa 0,0 l/m² 11,3 km/h (2 Bft) S 180 ° 15,8 °C 16,9 °C 16,1 km/h (3 Bft) 100,00 %
31.08.2026 05:35 18,8 °C 83 % 1013,6 hPa 0,0 l/m² 12,9 km/h (3 Bft) S 180 ° 15,8 °C 16,4 °C 19,3 km/h (3 Bft) 100,00 %
31.08.2026 05:34 18,8 °C 83 % 1013,6 hPa 0,0 l/m² 11,3 km/h (2 Bft) S 180 ° 15,8 °C 16,9 °C 17,7 km/h (3 Bft) 100,00 %
31.08.2026 05:33 18,7 °C 83 % 1013,6 hPa 0,0 l/m² 11,3 km/h (2 Bft) S 180 ° 15,8 °C 16,8 °C 16,1 km/h (3 Bft) 100,00 %
31.08.2026 05:32 18,7 °C 83 % 1013,7 hPa 0,0 l/m² 11,3 km/h (2 Bft) S 180 ° 15,8 °C 16,8 °C 14,5 km/h (3 Bft) 100,00 %
31.08.2026 05:31 18,7 °C 83 % 1013,7 hPa 0,2 l/m² 12,9 km/h (3 Bft) S 180 ° 15,8 °C 16,3 °C 19,3 km/h (3 Bft) 100,00 %
31.08.2026 05:30 18,7 °C 83 % 1013,7 hPa 0,0 l/m² 9,7 km/h (2 Bft) S 180 ° 15,8 °C 17,3 °C 14,5 km/h (3 Bft) 100,00 %
31.08.2026 05:29 18,7 °C 83 % 1013,7 hPa 0,0 l/m² 9,7 km/h (2 Bft) S 180 ° 15,8 °C 17,3 °C 12,9 km/h (3 Bft) 100,00 %
31.08.2026 05:28 18,7 °C 83 % 1013,7 hPa 0,0 l/m² 11,3 km/h (2 Bft) S-SW 202 ° 15,8 °C 16,8 °C 14,5 km/h (3 Bft) 100,00 %
31.08.2026 05:27 18,7 °C 83 % 1013,7 hPa 0,0 l/m² 9,7 km/h (2 Bft) S-SW 202 ° 15,8 °C 17,3 °C 12,9 km/h (3 Bft) 100,00 %
31.08.2026 05:26 18,7 °C 83 % 1013,7 hPa 0,0 l/m² 6,4 km/h (2 Bft) S 180 ° 15,8 °C 18,7 °C 9,7 km/h (2 Bft) 100,00 %
31.08.2026 05:25 18,7 °C 83 % 1013,7 hPa 0,0 l/m² 8,0 km/h (2 Bft) S 180 ° 15,8 °C 18,0 °C 9,7 km/h (2 Bft) 100,00 %
31.08.2026 05:24 18,6 °C 83 % 1013,7 hPa 0,0 l/m² 8,0 km/h (2 Bft) S 180 ° 15,7 °C 17,9 °C 11,3 km/h (2 Bft) 100,00 %
31.08.2026 05:23 18,7 °C 83 % 1013,6 hPa 0,0 l/m² 8,0 km/h (2 Bft) S 180 ° 15,8 °C 18,0 °C 11,3 km/h (2 Bft) 100,00 %
31.08.2026 05:22 18,6 °C 83 % 1013,7 hPa 0,0 l/m² 6,4 km/h (2 Bft) S 180 ° 15,7 °C 18,6 °C 9,7 km/h (2 Bft) 100,00 %
31.08.2026 05:21 18,6 °C 84 % 1013,7 hPa 0,0 l/m² 6,4 km/h (2 Bft) S 180 ° 15,8 °C 18,6 °C 12,9 km/h (3 Bft) 100,00 %
31.08.2026 05:20 18,6 °C 84 % 1013,6 hPa 0,0 l/m² 4,8 km/h (1 Bft) S 180 ° 15,8 °C 18,6 °C 8,0 km/h (2 Bft) 100,00 %
31.08.2026 05:19 18,6 °C 84 % 1013,7 hPa 0,0 l/m² 3,2 km/h (1 Bft) S-SO 157 ° 15,8 °C 18,6 °C 6,4 km/h (2 Bft) 100,00 %
31.08.2026 05:18 18,6 °C 84 % 1013,6 hPa 0,0 l/m² 4,8 km/h (1 Bft) S-SO 157 ° 15,8 °C 18,6 °C 6,4 km/h (2 Bft) 100,00 %
31.08.2026 05:17 18,6 °C 84 % 1013,6 hPa 0,0 l/m² 4,8 km/h (1 Bft) S-SO 157 ° 15,8 °C 18,6 °C 8,0 km/h (2 Bft) 95,65 %
31.08.2026 05:16 18,6 °C 84 % 1013,6 hPa 0,0 l/m² 6,4 km/h (2 Bft) S-SO 157 ° 15,8 °C 18,6 °C 9,7 km/h (2 Bft) 100,00 %
31.08.2026 05:15 18,6 °C 84 % 1013,6 hPa 0,0 l/m² 6,4 km/h (2 Bft) S-SO 157 ° 15,8 °C 18,6 °C 11,3 km/h (2 Bft) 100,00 %
31.08.2026 05:14 18,6 °C 84 % 1013,6 hPa 0,0 l/m² 9,7 km/h (2 Bft) S-SO 157 ° 15,8 °C 17,2 °C 14,5 km/h (3 Bft) 95,65 %
31.08.2026 05:13 18,6 °C 84 % 1013,7 hPa 0,0 l/m² 9,7 km/h (2 Bft) S-SO 157 ° 15,8 °C 17,2 °C 11,3 km/h (2 Bft) 100,00 %
31.08.2026 05:12 18,5 °C 84 % 1013,6 hPa 0,0 l/m² 8,0 km/h (2 Bft) S-SO 157 ° 15,7 °C 17,8 °C 12,9 km/h (3 Bft) 95,65 %
31.08.2026 05:11 18,5 °C 84 % 1013,6 hPa 0,0 l/m² 8,0 km/h (2 Bft) SO 135 ° 15,7 °C 17,8 °C 14,5 km/h (3 Bft) 100,00 %
31.08.2026 05:10 18,5 °C 84 % 1013,6 hPa 0,0 l/m² 9,7 km/h (2 Bft) S-SO 157 ° 15,7 °C 17,1 °C 12,9 km/h (3 Bft) 100,00 %
31.08.2026 05:09 18,4 °C 84 % 1013,6 hPa 0,0 l/m² 9,7 km/h (2 Bft) S-SO 157 ° 15,6 °C 17,0 °C 11,3 km/h (2 Bft) 95,65 %
31.08.2026 05:08 18,4 °C 84 % 1013,6 hPa 0,0 l/m² 9,7 km/h (2 Bft) S-SO 157 ° 15,6 °C 17,0 °C 12,9 km/h (3 Bft) 100,00 %
31.08.2026 05:07 18,4 °C 84 % 1013,7 hPa 0,0 l/m² 8,0 km/h (2 Bft) SO 135 ° 15,6 °C 17,7 °C 11,3 km/h (2 Bft) 100,00 %
31.08.2026 05:06 18,4 °C 84 % 1013,7 hPa 0,0 l/m² 6,4 km/h (2 Bft) SO 135 ° 15,6 °C 18,4 °C 9,7 km/h (2 Bft) 100,00 %
31.08.2026 05:05 18,4 °C 84 % 1013,7 hPa 0,0 l/m² 8,0 km/h (2 Bft) SO 135 ° 15,6 °C 17,7 °C 12,9 km/h (3 Bft) 100,00 %
31.08.2026 05:04 18,4 °C 85 % 1013,8 hPa 0,0 l/m² 6,4 km/h (2 Bft) S-SO 157 ° 15,8 °C 18,4 °C 12,9 km/h (3 Bft) 100,00 %
31.08.2026 05:03 18,4 °C 85 % 1013,7 hPa 0,0 l/m² 3,2 km/h (1 Bft) S-SO 157 ° 15,8 °C 18,4 °C 4,8 km/h (1 Bft) 95,65 %
31.08.2026 05:02 18,4 °C 85 % 1013,8 hPa 0,0 l/m² 4,8 km/h (1 Bft) SO 135 ° 15,8 °C 18,4 °C 6,4 km/h (2 Bft) 100,00 %
31.08.2026 05:01 18,3 °C 85 % 1013,7 hPa 0,0 l/m² 6,4 km/h (2 Bft) SO 135 ° 15,7 °C 18,3 °C 8,0 km/h (2 Bft) 100,00 %
31.08.2026 05:00 18,3 °C 85 % 1013,8 hPa 0,0 l/m² 6,4 km/h (2 Bft) O-SO 112 ° 15,7 °C 18,3 °C 9,7 km/h (2 Bft) 100,00 %
31.08.2026 04:59 18,3 °C 85 % 1013,8 hPa 0,0 l/m² 6,4 km/h (2 Bft) O-SO 112 ° 15,7 °C 18,3 °C 9,7 km/h (2 Bft) 100,00 %
31.08.2026 04:58 18,3 °C 85 % 1013,8 hPa 0,0 l/m² 4,8 km/h (1 Bft) O-SO 112 ° 15,7 °C 18,3 °C 9,7 km/h (2 Bft) 100,00 %
31.08.2026 04:57 18,3 °C 85 % 1013,9 hPa 0,0 l/m² 4,8 km/h (1 Bft) SO 135 ° 15,7 °C 18,3 °C 6,4 km/h (2 Bft) 100,00 %
31.08.2026 04:56 18,2 °C 85 % 1013,9 hPa 0,0 l/m² 8,0 km/h (2 Bft) S-SO 157 ° 15,6 °C 17,5 °C 11,3 km/h (2 Bft) 100,00 %
31.08.2026 04:55 18,2 °C 86 % 1013,9 hPa 0,0 l/m² 8,0 km/h (2 Bft) S-SO 157 ° 15,8 °C 17,5 °C 12,9 km/h (3 Bft) 100,00 %
31.08.2026 04:54 18,2 °C 86 % 1013,9 hPa 0,0 l/m² 9,7 km/h (2 Bft) S-SO 157 ° 15,8 °C 16,8 °C 12,9 km/h (3 Bft) 100,00 %
31.08.2026 04:53 18,2 °C 86 % 1014,0 hPa 0,0 l/m² 6,4 km/h (2 Bft) S-SO 157 ° 15,8 °C 18,2 °C 9,7 km/h (2 Bft) 100,00 %
31.08.2026 04:52 18,2 °C 86 % 1014,0 hPa 0,0 l/m² 6,4 km/h (2 Bft) S-SO 157 ° 15,8 °C 18,2 °C 8,0 km/h (2 Bft) 100,00 %
31.08.2026 04:51 18,2 °C 86 % 1014,0 hPa 0,0 l/m² 6,4 km/h (2 Bft) S-SO 157 ° 15,8 °C 18,2 °C 8,0 km/h (2 Bft) 100,00 %
31.08.2026 04:50 18,2 °C 86 % 1014,1 hPa 0,0 l/m² 6,4 km/h (2 Bft) S-SO 157 ° 15,8 °C 18,2 °C 8,0 km/h (2 Bft) 95,65 %
31.08.2026 04:49 18,2 °C 86 % 1014,2 hPa 0,0 l/m² 6,4 km/h (2 Bft) S 180 ° 15,8 °C 18,2 °C 8,0 km/h (2 Bft) 100,00 %
31.08.2026 04:48 18,2 °C 86 % 1014,0 hPa 0,0 l/m² 6,4 km/h (2 Bft) S 180 ° 15,8 °C 18,2 °C 8,0 km/h (2 Bft) 100,00 %
31.08.2026 04:47 18,2 °C 86 % 1014,1 hPa 0,0 l/m² 8,0 km/h (2 Bft) S 180 ° 15,8 °C 17,5 °C 9,7 km/h (2 Bft) 100,00 %
31.08.2026 04:46 18,2 °C 86 % 1014,0 hPa 0,0 l/m² 6,4 km/h (2 Bft) S 180 ° 15,8 °C 18,2 °C 8,0 km/h (2 Bft) 91,30 %
31.08.2026 04:45 18,2 °C 86 % 1014,1 hPa 0,0 l/m² 6,4 km/h (2 Bft) S 180 ° 15,8 °C 18,2 °C 9,7 km/h (2 Bft) 100,00 %
31.08.2026 04:44 18,2 °C 86 % 1014,2 hPa 0,0 l/m² 6,4 km/h (2 Bft) S 180 ° 15,8 °C 18,2 °C 8,0 km/h (2 Bft) 100,00 %
31.08.2026 04:43 18,3 °C 86 % 1014,2 hPa 0,0 l/m² 6,4 km/h (2 Bft) S 180 ° 15,9 °C 18,3 °C 8,0 km/h (2 Bft) 100,00 %
31.08.2026 04:42 18,3 °C 86 % 1014,3 hPa 0,0 l/m² 6,4 km/h (2 Bft) S 180 ° 15,9 °C 18,3 °C 8,0 km/h (2 Bft) 100,00 %
31.08.2026 04:41 18,3 °C 86 % 1014,3 hPa 0,0 l/m² 6,4 km/h (2 Bft) S 180 ° 15,9 °C 18,3 °C 8,0 km/h (2 Bft) 100,00 %
31.08.2026 04:40 18,3 °C 87 % 1014,3 hPa 0,0 l/m² 6,4 km/h (2 Bft) S 180 ° 16,1 °C 18,3 °C 8,0 km/h (2 Bft) 100,00 %
31.08.2026 04:39 18,3 °C 87 % 1014,3 hPa 0,0 l/m² 6,4 km/h (2 Bft) S 180 ° 16,1 °C 18,3 °C 8,0 km/h (2 Bft) 100,00 %
31.08.2026 04:38 18,3 °C 87 % 1014,3 hPa 0,0 l/m² 8,0 km/h (2 Bft) S 180 ° 16,1 °C 17,6 °C 9,7 km/h (2 Bft) 100,00 %
31.08.2026 04:37 18,3 °C 87 % 1014,3 hPa 0,0 l/m² 8,0 km/h (2 Bft) S-SW 202 ° 16,1 °C 17,6 °C 9,7 km/h (2 Bft) 100,00 %
31.08.2026 04:36 18,3 °C 87 % 1014,3 hPa 0,0 l/m² 8,0 km/h (2 Bft) S 180 ° 16,1 °C 17,6 °C 11,3 km/h (2 Bft) 95,65 %
31.08.2026 04:35 18,3 °C 87 % 1014,3 hPa 0,0 l/m² 6,4 km/h (2 Bft) S 180 ° 16,1 °C 18,3 °C 8,0 km/h (2 Bft) 100,00 %
31.08.2026 04:34 18,3 °C 87 % 1014,3 hPa 0,0 l/m² 6,4 km/h (2 Bft) S 180 ° 16,1 °C 18,3 °C 9,7 km/h (2 Bft) 95,65 %
31.08.2026 04:33 18,4 °C 87 % 1014,3 hPa 0,0 l/m² 4,8 km/h (1 Bft) S 180 ° 16,2 °C 18,4 °C 6,4 km/h (2 Bft) 100,00 %
31.08.2026 04:32 18,4 °C 87 % 1014,3 hPa 0,0 l/m² 4,8 km/h (1 Bft) S 180 ° 16,2 °C 18,4 °C 6,4 km/h (2 Bft) 100,00 %
31.08.2026 04:31 18,4 °C 86 % 1014,2 hPa 0,0 l/m² 6,4 km/h (2 Bft) S 180 ° 16,0 °C 18,4 °C 8,0 km/h (2 Bft) 100,00 %
31.08.2026 04:30 18,4 °C 86 % 1014,3 hPa 0,0 l/m² 8,0 km/h (2 Bft) S 180 ° 16,0 °C 17,7 °C 9,7 km/h (2 Bft) 100,00 %
31.08.2026 04:29 18,4 °C 86 % 1014,2 hPa 0,0 l/m² 6,4 km/h (2 Bft) S 180 ° 16,0 °C 18,4 °C 8,0 km/h (2 Bft) 100,00 %
31.08.2026 04:28 18,4 °C 86 % 1014,2 hPa 0,0 l/m² 8,0 km/h (2 Bft) S 180 ° 16,0 °C 17,7 °C 9,7 km/h (2 Bft) 100,00 %
31.08.2026 04:27 18,5 °C 86 % 1014,3 hPa 0,0 l/m² 3,2 km/h (1 Bft) SO 135 ° 16,1 °C 18,5 °C 8,0 km/h (2 Bft) 100,00 %
31.08.2026 04:26 18,5 °C 86 % 1014,4 hPa 0,0 l/m² 0,0 km/h (0 Bft) N 0 ° 16,1 °C 18,5 °C 0,0 km/h (0 Bft) 95,65 %
31.08.2026 04:25 18,5 °C 86 % 1014,5 hPa 0,0 l/m² 0,0 km/h (0 Bft) N 0 ° 16,1 °C 18,5 °C 0,0 km/h (0 Bft) 100,00 %
31.08.2026 04:24 18,5 °C 86 % 1014,5 hPa 0,0 l/m² 0,0 km/h (0 Bft) S-SW 202 ° 16,1 °C 18,5 °C 1,6 km/h (1 Bft) 91,30 %
31.08.2026 04:23 18,5 °C 86 % 1014,5 hPa 0,0 l/m² 1,6 km/h (1 Bft) S-SW 202 ° 16,1 °C 18,5 °C 4,8 km/h (1 Bft) 100,00 %
31.08.2026 04:22 18,6 °C 86 % 1014,5 hPa 0,0 l/m² 4,8 km/h (1 Bft) S-SW 202 ° 16,2 °C 18,6 °C 6,4 km/h (2 Bft) 100,00 %
31.08.2026 04:21 18,6 °C 86 % 1014,5 hPa 0,0 l/m² 4,8 km/h (1 Bft) S-SW 202 ° 16,2 °C 18,6 °C 6,4 km/h (2 Bft) 95,65 %
31.08.2026 04:20 18,6 °C 86 % 1014,5 hPa 0,0 l/m² 6,4 km/h (2 Bft) S-SW 202 ° 16,2 °C 18,6 °C 8,0 km/h (2 Bft) 100,00 %
31.08.2026 04:19 18,6 °C 86 % 1014,5 hPa 0,0 l/m² 6,4 km/h (2 Bft) S-SW 202 ° 16,2 °C 18,6 °C 8,0 km/h (2 Bft) 100,00 %
31.08.2026 04:18 18,6 °C 86 % 1014,5 hPa 0,0 l/m² 4,8 km/h (1 Bft) S-SW 202 ° 16,2 °C 18,6 °C 6,4 km/h (2 Bft) 100,00 %
31.08.2026 04:17 18,6 °C 86 % 1014,6 hPa 0,0 l/m² 4,8 km/h (1 Bft) S-SW 202 ° 16,2 °C 18,6 °C 6,4 km/h (2 Bft) 100,00 %
31.08.2026 04:16 18,6 °C 85 % 1014,5 hPa 0,0 l/m² 4,8 km/h (1 Bft) S-SW 202 ° 16,0 °C 18,6 °C 6,4 km/h (2 Bft) 100,00 %
31.08.2026 04:15 18,7 °C 85 % 1014,5 hPa 0,0 l/m² 3,2 km/h (1 Bft) W-SW 247 ° 16,1 °C 18,7 °C 4,8 km/h (1 Bft) 100,00 %
31.08.2026 04:14 18,7 °C 85 % 1014,6 hPa 0,0 l/m² 1,6 km/h (1 Bft) W-SW 247 ° 16,1 °C 18,7 °C 3,2 km/h (1 Bft) 95,65 %
31.08.2026 04:13 18,7 °C 85 % 1014,6 hPa 0,0 l/m² 3,2 km/h (1 Bft) W-SW 247 ° 16,1 °C 18,7 °C 6,4 km/h (2 Bft) 100,00 %
31.08.2026 04:12 18,7 °C 85 % 1014,6 hPa 0,0 l/m² 4,8 km/h (1 Bft) W 270 ° 16,1 °C 18,7 °C 6,4 km/h (2 Bft) 95,65 %
31.08.2026 04:11 18,8 °C 85 % 1014,6 hPa 0,2 l/m² 4,8 km/h (1 Bft) W-SW 247 ° 16,2 °C 18,8 °C 8,0 km/h (2 Bft) 100,00 %
31.08.2026 04:10 18,8 °C 85 % 1014,6 hPa 0,2 l/m² 4,8 km/h (1 Bft) W 270 ° 16,2 °C 18,8 °C 9,7 km/h (2 Bft) 100,00 %
31.08.2026 04:09 18,8 °C 84 % 1014,7 hPa 0,4 l/m² 4,8 km/h (1 Bft) W-SW 247 ° 16,0 °C 18,8 °C 6,4 km/h (2 Bft) 100,00 %
31.08.2026 04:08 18,9 °C 84 % 1014,7 hPa 0,0 l/m² 3,2 km/h (1 Bft) W-NW 292 ° 16,1 °C 18,9 °C 6,4 km/h (2 Bft) 100,00 %
31.08.2026 04:07 18,9 °C 84 % 1014,6 hPa 0,2 l/m² 0,0 km/h (0 Bft) W-NW 292 ° 16,1 °C 18,9 °C 1,6 km/h (1 Bft) 100,00 %
31.08.2026 04:06 18,9 °C 85 % 1014,6 hPa 0,0 l/m² 4,8 km/h (1 Bft) W-NW 292 ° 16,3 °C 18,9 °C 6,4 km/h (2 Bft) 100,00 %
31.08.2026 04:05 19,0 °C 85 % 1014,7 hPa 0,0 l/m² 3,2 km/h (1 Bft) W-NW 292 ° 16,4 °C 19,0 °C 6,4 km/h (2 Bft) 95,65 %
31.08.2026 04:04 19,0 °C 85 % 1014,7 hPa 0,2 l/m² 1,6 km/h (1 Bft) W 270 ° 16,4 °C 19,0 °C 3,2 km/h (1 Bft) 100,00 %
31.08.2026 04:03 19,0 °C 84 % 1014,8 hPa 0,4 l/m² 4,8 km/h (1 Bft) W-NW 292 ° 16,2 °C 19,0 °C 6,4 km/h (2 Bft) 100,00 %
31.08.2026 04:02 19,0 °C 84 % 1014,9 hPa 0,2 l/m² 9,7 km/h (2 Bft) W-SW 247 ° 16,2 °C 17,6 °C 12,9 km/h (3 Bft) 95,65 %
31.08.2026 04:01 18,9 °C 84 % 1014,8 hPa 0,0 l/m² 9,7 km/h (2 Bft) W 270 ° 16,1 °C 17,5 °C 16,1 km/h (3 Bft) 100,00 %
31.08.2026 04:00 18,9 °C 83 % 1014,9 hPa 0,0 l/m² 6,4 km/h (2 Bft) W 270 ° 15,9 °C 18,9 °C 14,5 km/h (3 Bft) 100,00 %
31.08.2026 03:59 18,9 °C 83 % 1015,0 hPa 0,0 l/m² 9,7 km/h (2 Bft) W 270 ° 15,9 °C 17,5 °C 17,7 km/h (3 Bft) 100,00 %
31.08.2026 03:58 18,9 °C 83 % 1014,9 hPa 0,0 l/m² 11,3 km/h (2 Bft) W 270 ° 15,9 °C 17,0 °C 17,7 km/h (3 Bft) 100,00 %
31.08.2026 03:57 18,9 °C 84 % 1014,9 hPa 0,0 l/m² 6,4 km/h (2 Bft) W 270 ° 16,1 °C 18,9 °C 12,9 km/h (3 Bft) 95,65 %
31.08.2026 03:56 18,9 °C 84 % 1014,9 hPa 0,0 l/m² 4,8 km/h (1 Bft) W 270 ° 16,1 °C 18,9 °C 6,4 km/h (2 Bft) 100,00 %
31.08.2026 03:55 18,9 °C 84 % 1014,9 hPa 0,0 l/m² 6,4 km/h (2 Bft) SW 225 ° 16,1 °C 18,9 °C 11,3 km/h (2 Bft) 100,00 %
31.08.2026 03:54 18,8 °C 84 % 1014,8 hPa 0,0 l/m² 6,4 km/h (2 Bft) W-SW 247 ° 16,0 °C 18,8 °C 11,3 km/h (2 Bft) 100,00 %
31.08.2026 03:53 18,8 °C 84 % 1014,9 hPa 0,0 l/m² 6,4 km/h (2 Bft) W 270 ° 16,0 °C 18,8 °C 12,9 km/h (3 Bft) 100,00 %
31.08.2026 03:52 18,8 °C 84 % 1014,9 hPa 0,0 l/m² 6,4 km/h (2 Bft) W 270 ° 16,0 °C 18,8 °C 6,4 km/h (2 Bft) 100,00 %
31.08.2026 03:51 18,8 °C 84 % 1014,9 hPa 0,0 l/m² 8,0 km/h (2 Bft) W-SW 247 ° 16,0 °C 18,1 °C 12,9 km/h (3 Bft) 100,00 %
31.08.2026 03:50 18,8 °C 84 % 1014,9 hPa 0,0 l/m² 6,4 km/h (2 Bft) W-SW 247 ° 16,0 °C 18,8 °C 11,3 km/h (2 Bft) 100,00 %
31.08.2026 03:49 18,8 °C 84 % 1014,8 hPa 0,0 l/m² 6,4 km/h (2 Bft) W 270 ° 16,0 °C 18,8 °C 9,7 km/h (2 Bft) 100,00 %
31.08.2026 03:48 18,7 °C 85 % 1014,8 hPa 0,0 l/m² 4,8 km/h (1 Bft) W 270 ° 16,1 °C 18,7 °C 9,7 km/h (2 Bft) 100,00 %
31.08.2026 03:47 18,7 °C 85 % 1014,8 hPa 0,0 l/m² 4,8 km/h (1 Bft) W-SW 247 ° 16,1 °C 18,7 °C 9,7 km/h (2 Bft) 100,00 %
31.08.2026 03:46 18,7 °C 85 % 1014,8 hPa 0,0 l/m² 4,8 km/h (1 Bft) W 270 ° 16,1 °C 18,7 °C 9,7 km/h (2 Bft) 100,00 %
31.08.2026 03:45 18,7 °C 85 % 1014,8 hPa 0,0 l/m² 4,8 km/h (1 Bft) SW 225 ° 16,1 °C 18,7 °C 11,3 km/h (2 Bft) 95,65 %
31.08.2026 03:44 18,7 °C 85 % 1014,8 hPa 0,0 l/m² 4,8 km/h (1 Bft) SW 225 ° 16,1 °C 18,7 °C 6,4 km/h (2 Bft) 100,00 %
31.08.2026 03:43 18,7 °C 85 % 1014,8 hPa 0,0 l/m² 3,2 km/h (1 Bft) SW 225 ° 16,1 °C 18,7 °C 6,4 km/h (2 Bft) 95,65 %
31.08.2026 03:42 18,7 °C 85 % 1014,8 hPa 0,0 l/m² 3,2 km/h (1 Bft) SW 225 ° 16,1 °C 18,7 °C 6,4 km/h (2 Bft) 100,00 %
31.08.2026 03:41 18,7 °C 85 % 1014,8 hPa 0,0 l/m² 3,2 km/h (1 Bft) SW 225 ° 16,1 °C 18,7 °C 4,8 km/h (1 Bft) 100,00 %
31.08.2026 03:40 18,7 °C 85 % 1014,8 hPa 0,0 l/m² 4,8 km/h (1 Bft) SW 225 ° 16,1 °C 18,7 °C 8,0 km/h (2 Bft) 100,00 %
31.08.2026 03:39 18,7 °C 85 % 1014,8 hPa 0,0 l/m² 4,8 km/h (1 Bft) SW 225 ° 16,1 °C 18,7 °C 6,4 km/h (2 Bft) 100,00 %
31.08.2026 03:38 18,7 °C 85 % 1014,8 hPa 0,0 l/m² 8,0 km/h (2 Bft) SW 225 ° 16,1 °C 18,0 °C 9,7 km/h (2 Bft) 95,65 %
31.08.2026 03:37 18,7 °C 86 % 1014,7 hPa 0,0 l/m² 8,0 km/h (2 Bft) SW 225 ° 16,3 °C 18,0 °C 9,7 km/h (2 Bft) 100,00 %
31.08.2026 03:36 18,7 °C 86 % 1014,7 hPa 0,0 l/m² 8,0 km/h (2 Bft) SW 225 ° 16,3 °C 18,0 °C 11,3 km/h (2 Bft) 95,65 %
31.08.2026 03:35 18,7 °C 86 % 1014,7 hPa 0,0 l/m² 8,0 km/h (2 Bft) S-SW 202 ° 16,3 °C 18,0 °C 9,7 km/h (2 Bft) 100,00 %
31.08.2026 03:34 18,7 °C 86 % 1014,7 hPa 0,0 l/m² 6,4 km/h (2 Bft) S-SW 202 ° 16,3 °C 18,7 °C 8,0 km/h (2 Bft) 95,65 %
31.08.2026 03:33 18,7 °C 85 % 1014,6 hPa 0,0 l/m² 6,4 km/h (2 Bft) S-SW 202 ° 16,1 °C 18,7 °C 6,4 km/h (2 Bft) 100,00 %
31.08.2026 03:32 18,7 °C 85 % 1014,6 hPa 0,0 l/m² 6,4 km/h (2 Bft) SW 225 ° 16,1 °C 18,7 °C 8,0 km/h (2 Bft) 100,00 %
31.08.2026 03:31 18,7 °C 85 % 1014,6 hPa 0,0 l/m² 4,8 km/h (1 Bft) SW 225 ° 16,1 °C 18,7 °C 8,0 km/h (2 Bft) 100,00 %
31.08.2026 03:30 18,7 °C 85 % 1014,7 hPa 0,0 l/m² 1,6 km/h (1 Bft) SW 225 ° 16,1 °C 18,7 °C 4,8 km/h (1 Bft) 100,00 %
31.08.2026 03:29 18,7 °C 85 % 1014,7 hPa 0,0 l/m² 4,8 km/h (1 Bft) SW 225 ° 16,1 °C 18,7 °C 8,0 km/h (2 Bft) 95,65 %
31.08.2026 03:28 18,7 °C 85 % 1014,7 hPa 0,0 l/m² 4,8 km/h (1 Bft) SW 225 ° 16,1 °C 18,7 °C 8,0 km/h (2 Bft) 100,00 %
31.08.2026 03:27 18,7 °C 85 % 1014,6 hPa 0,0 l/m² 3,2 km/h (1 Bft) SW 225 ° 16,1 °C 18,7 °C 4,8 km/h (1 Bft) 95,65 %
31.08.2026 03:26 18,7 °C 85 % 1014,6 hPa 0,0 l/m² 4,8 km/h (1 Bft) SW 225 ° 16,1 °C 18,7 °C 8,0 km/h (2 Bft) 100,00 %
31.08.2026 03:25 18,7 °C 85 % 1014,6 hPa 0,0 l/m² 6,4 km/h (2 Bft) SW 225 ° 16,1 °C 18,7 °C 8,0 km/h (2 Bft) 100,00 %
31.08.2026 03:24 18,7 °C 85 % 1014,6 hPa 0,0 l/m² 6,4 km/h (2 Bft) SW 225 ° 16,1 °C 18,7 °C 8,0 km/h (2 Bft) 100,00 %
31.08.2026 03:23 18,7 °C 85 % 1014,7 hPa 0,0 l/m² 6,4 km/h (2 Bft) S-SW 202 ° 16,1 °C 18,7 °C 8,0 km/h (2 Bft) 100,00 %
31.08.2026 03:22 18,7 °C 85 % 1014,7 hPa 0,0 l/m² 8,0 km/h (2 Bft) S-SW 202 ° 16,1 °C 18,0 °C 9,7 km/h (2 Bft) 100,00 %
31.08.2026 03:21 18,7 °C 85 % 1014,7 hPa 0,0 l/m² 8,0 km/h (2 Bft) S-SW 202 ° 16,1 °C 18,0 °C 9,7 km/h (2 Bft) 100,00 %
31.08.2026 03:20 18,7 °C 85 % 1014,7 hPa 0,0 l/m² 6,4 km/h (2 Bft) S-SW 202 ° 16,1 °C 18,7 °C 9,7 km/h (2 Bft) 100,00 %
31.08.2026 03:19 18,7 °C 85 % 1014,7 hPa 0,0 l/m² 8,0 km/h (2 Bft) S-SW 202 ° 16,1 °C 18,0 °C 11,3 km/h (2 Bft) 100,00 %
31.08.2026 03:18 18,7 °C 85 % 1014,7 hPa 0,0 l/m² 8,0 km/h (2 Bft) S-SW 202 ° 16,1 °C 18,0 °C 11,3 km/h (2 Bft) 100,00 %
31.08.2026 03:17 18,7 °C 85 % 1014,7 hPa 0,0 l/m² 8,0 km/h (2 Bft) S-SW 202 ° 16,1 °C 18,0 °C 11,3 km/h (2 Bft) 95,65 %
31.08.2026 03:16 18,7 °C 85 % 1014,6 hPa 0,0 l/m² 8,0 km/h (2 Bft) S-SW 202 ° 16,1 °C 18,0 °C 11,3 km/h (2 Bft) 100,00 %
31.08.2026 03:15 18,7 °C 85 % 1014,6 hPa 0,0 l/m² 8,0 km/h (2 Bft) SW 225 ° 16,1 °C 18,0 °C 11,3 km/h (2 Bft) 100,00 %
31.08.2026 03:14 18,7 °C 85 % 1014,6 hPa 0,0 l/m² 8,0 km/h (2 Bft) SW 225 ° 16,1 °C 18,0 °C 11,3 km/h (2 Bft) 95,65 %
31.08.2026 03:13 18,7 °C 85 % 1014,6 hPa 0,0 l/m² 8,0 km/h (2 Bft) SW 225 ° 16,1 °C 18,0 °C 12,9 km/h (3 Bft) 100,00 %
31.08.2026 03:12 18,7 °C 85 % 1014,6 hPa 0,0 l/m² 4,8 km/h (1 Bft) S-SW 202 ° 16,1 °C 18,7 °C 8,0 km/h (2 Bft) 100,00 %
31.08.2026 03:11 18,7 °C 85 % 1014,7 hPa 0,0 l/m² 6,4 km/h (2 Bft) SW 225 ° 16,1 °C 18,7 °C 11,3 km/h (2 Bft) 100,00 %
31.08.2026 03:10 18,7 °C 85 % 1014,6 hPa 0,0 l/m² 4,8 km/h (1 Bft) SW 225 ° 16,1 °C 18,7 °C 8,0 km/h (2 Bft) 100,00 %
31.08.2026 03:09 18,7 °C 85 % 1014,7 hPa 0,0 l/m² 4,8 km/h (1 Bft) SW 225 ° 16,1 °C 18,7 °C 9,7 km/h (2 Bft) 100,00 %
31.08.2026 03:08 18,7 °C 85 % 1014,8 hPa 0,0 l/m² 3,2 km/h (1 Bft) W-SW 247 ° 16,1 °C 18,7 °C 6,4 km/h (2 Bft) 100,00 %
31.08.2026 03:07 18,7 °C 85 % 1014,7 hPa 0,0 l/m² 3,2 km/h (1 Bft) W 270 ° 16,1 °C 18,7 °C 6,4 km/h (2 Bft) 100,00 %
31.08.2026 03:06 18,6 °C 85 % 1014,7 hPa 0,0 l/m² 3,2 km/h (1 Bft) W 270 ° 16,0 °C 18,6 °C 6,4 km/h (2 Bft) 100,00 %
31.08.2026 03:05 18,6 °C 85 % 1014,6 hPa 0,0 l/m² 3,2 km/h (1 Bft) W 270 ° 16,0 °C 18,6 °C 4,8 km/h (1 Bft) 100,00 %
31.08.2026 03:04 18,6 °C 85 % 1014,6 hPa 0,0 l/m² 3,2 km/h (1 Bft) SW 225 ° 16,0 °C 18,6 °C 4,8 km/h (1 Bft) 100,00 %
31.08.2026 03:03 18,6 °C 85 % 1014,5 hPa 0,0 l/m² 3,2 km/h (1 Bft) SW 225 ° 16,0 °C 18,6 °C 8,0 km/h (2 Bft) 100,00 %
31.08.2026 03:02 18,6 °C 85 % 1014,6 hPa 0,0 l/m² 6,4 km/h (2 Bft) SW 225 ° 16,0 °C 18,6 °C 9,7 km/h (2 Bft) 95,65 %
31.08.2026 03:01 18,6 °C 85 % 1014,5 hPa 0,0 l/m² 6,4 km/h (2 Bft) SW 225 ° 16,0 °C 18,6 °C 9,7 km/h (2 Bft) 100,00 %
31.08.2026 03:00 18,6 °C 85 % 1014,5 hPa 0,0 l/m² 6,4 km/h (2 Bft) SW 225 ° 16,0 °C 18,6 °C 9,7 km/h (2 Bft) 100,00 %
31.08.2026 02:59 18,5 °C 85 % 1014,5 hPa 0,0 l/m² 4,8 km/h (1 Bft) SW 225 ° 15,9 °C 18,5 °C 9,7 km/h (2 Bft) 100,00 %
31.08.2026 02:58 18,5 °C 85 % 1014,5 hPa 0,0 l/m² 4,8 km/h (1 Bft) S-SW 202 ° 15,9 °C 18,5 °C 9,7 km/h (2 Bft) 100,00 %
31.08.2026 02:57 18,5 °C 85 % 1014,4 hPa 0,0 l/m² 4,8 km/h (1 Bft) SW 225 ° 15,9 °C 18,5 °C 8,0 km/h (2 Bft) 100,00 %
31.08.2026 02:56 18,5 °C 85 % 1014,4 hPa 0,0 l/m² 6,4 km/h (2 Bft) SW 225 ° 15,9 °C 18,5 °C 9,7 km/h (2 Bft) 100,00 %
31.08.2026 02:55 18,4 °C 85 % 1014,4 hPa 0,0 l/m² 6,4 km/h (2 Bft) SW 225 ° 15,8 °C 18,4 °C 8,0 km/h (2 Bft) 100,00 %
31.08.2026 02:54 18,5 °C 85 % 1014,4 hPa 0,0 l/m² 6,4 km/h (2 Bft) SW 225 ° 15,9 °C 18,5 °C 8,0 km/h (2 Bft) 100,00 %
31.08.2026 02:53 18,4 °C 85 % 1014,4 hPa 0,0 l/m² 4,8 km/h (1 Bft) SW 225 ° 15,8 °C 18,4 °C 8,0 km/h (2 Bft) 95,65 %
31.08.2026 02:52 18,4 °C 85 % 1014,4 hPa 0,0 l/m² 8,0 km/h (2 Bft) SW 225 ° 15,8 °C 17,7 °C 9,7 km/h (2 Bft) 95,65 %
31.08.2026 02:51 18,5 °C 85 % 1014,4 hPa 0,0 l/m² 8,0 km/h (2 Bft) S-SW 202 ° 15,9 °C 17,8 °C 9,7 km/h (2 Bft) 100,00 %
31.08.2026 02:50 18,5 °C 85 % 1014,4 hPa 0,0 l/m² 6,4 km/h (2 Bft) S-SW 202 ° 15,9 °C 18,5 °C 8,0 km/h (2 Bft) 100,00 %
31.08.2026 02:49 18,6 °C 84 % 1014,3 hPa 0,0 l/m² 6,4 km/h (2 Bft) S-SW 202 ° 15,8 °C 18,6 °C 8,0 km/h (2 Bft) 100,00 %
31.08.2026 02:48 18,6 °C 84 % 1014,4 hPa 0,0 l/m² 6,4 km/h (2 Bft) S-SW 202 ° 15,8 °C 18,6 °C 9,7 km/h (2 Bft) 100,00 %
31.08.2026 02:47 18,6 °C 85 % 1014,3 hPa 0,0 l/m² 4,8 km/h (1 Bft) S-SW 202 ° 16,0 °C 18,6 °C 8,0 km/h (2 Bft) 100,00 %
31.08.2026 02:46 18,6 °C 84 % 1014,4 hPa 0,0 l/m² 6,4 km/h (2 Bft) SW 225 ° 15,8 °C 18,6 °C 8,0 km/h (2 Bft) 100,00 %
31.08.2026 02:45 18,6 °C 84 % 1014,4 hPa 0,0 l/m² 4,8 km/h (1 Bft) S-SW 202 ° 15,8 °C 18,6 °C 6,4 km/h (2 Bft) 95,65 %
31.08.2026 02:44 18,6 °C 84 % 1014,4 hPa 0,0 l/m² 6,4 km/h (2 Bft) S-SW 202 ° 15,8 °C 18,6 °C 8,0 km/h (2 Bft) 100,00 %
31.08.2026 02:43 18,6 °C 84 % 1014,4 hPa 0,0 l/m² 6,4 km/h (2 Bft) S-SW 202 ° 15,8 °C 18,6 °C 6,4 km/h (2 Bft) 100,00 %
31.08.2026 02:42 18,6 °C 84 % 1014,4 hPa 0,0 l/m² 8,0 km/h (2 Bft) SW 225 ° 15,8 °C 17,9 °C 11,3 km/h (2 Bft) 100,00 %
31.08.2026 02:41 18,6 °C 84 % 1014,4 hPa 0,0 l/m² 6,4 km/h (2 Bft) S-SW 202 ° 15,8 °C 18,6 °C 8,0 km/h (2 Bft) 95,65 %
31.08.2026 02:40 18,6 °C 84 % 1014,3 hPa 0,0 l/m² 8,0 km/h (2 Bft) S-SW 202 ° 15,8 °C 17,9 °C 8,0 km/h (2 Bft) 100,00 %
31.08.2026 02:39 18,6 °C 84 % 1014,3 hPa 0,0 l/m² 4,8 km/h (1 Bft) SW 225 ° 15,8 °C 18,6 °C 6,4 km/h (2 Bft) 100,00 %
31.08.2026 02:38 18,6 °C 84 % 1014,3 hPa 0,0 l/m² 6,4 km/h (2 Bft) SW 225 ° 15,8 °C 18,6 °C 8,0 km/h (2 Bft) 100,00 %
31.08.2026 02:37 18,6 °C 84 % 1014,3 hPa 0,0 l/m² 4,8 km/h (1 Bft) S-SW 202 ° 15,8 °C 18,6 °C 8,0 km/h (2 Bft) 100,00 %
31.08.2026 02:36 18,6 °C 84 % 1014,4 hPa 0,0 l/m² 4,8 km/h (1 Bft) SW 225 ° 15,8 °C 18,6 °C 6,4 km/h (2 Bft) 100,00 %
31.08.2026 02:35 18,6 °C 84 % 1014,3 hPa 0,0 l/m² 4,8 km/h (1 Bft) SW 225 ° 15,8 °C 18,6 °C 9,7 km/h (2 Bft) 100,00 %
31.08.2026 02:34 18,6 °C 84 % 1014,4 hPa 0,0 l/m² 4,8 km/h (1 Bft) SW 225 ° 15,8 °C 18,6 °C 6,4 km/h (2 Bft) 100,00 %
31.08.2026 02:33 18,6 °C 84 % 1014,4 hPa 0,0 l/m² 6,4 km/h (2 Bft) SW 225 ° 15,8 °C 18,6 °C 8,0 km/h (2 Bft) 95,65 %
31.08.2026 02:32 18,6 °C 84 % 1014,4 hPa 0,0 l/m² 6,4 km/h (2 Bft) SW 225 ° 15,8 °C 18,6 °C 8,0 km/h (2 Bft) 100,00 %
31.08.2026 02:31 18,6 °C 84 % 1014,3 hPa 0,0 l/m² 6,4 km/h (2 Bft) SW 225 ° 15,8 °C 18,6 °C 9,7 km/h (2 Bft) 95,65 %
31.08.2026 02:30 18,6 °C 84 % 1014,3 hPa 0,0 l/m² 3,2 km/h (1 Bft) SW 225 ° 15,8 °C 18,6 °C 4,8 km/h (1 Bft) 100,00 %
31.08.2026 02:29 18,6 °C 84 % 1014,3 hPa 0,0 l/m² 3,2 km/h (1 Bft) SW 225 ° 15,8 °C 18,6 °C 6,4 km/h (2 Bft) 100,00 %
31.08.2026 02:28 18,6 °C 83 % 1014,4 hPa 0,0 l/m² 4,8 km/h (1 Bft) SW 225 ° 15,7 °C 18,6 °C 8,0 km/h (2 Bft) 100,00 %
31.08.2026 02:27 18,6 °C 83 % 1014,3 hPa 0,0 l/m² 4,8 km/h (1 Bft) SW 225 ° 15,7 °C 18,6 °C 6,4 km/h (2 Bft) 100,00 %
31.08.2026 02:26 18,6 °C 83 % 1014,4 hPa 0,0 l/m² 3,2 km/h (1 Bft) S-SW 202 ° 15,7 °C 18,6 °C 4,8 km/h (1 Bft) 100,00 %
31.08.2026 02:25 18,6 °C 83 % 1014,4 hPa 0,0 l/m² 4,8 km/h (1 Bft) W 270 ° 15,7 °C 18,6 °C 11,3 km/h (2 Bft) 100,00 %
31.08.2026 02:24 18,6 °C 83 % 1014,4 hPa 0,0 l/m² 4,8 km/h (1 Bft) W 270 ° 15,7 °C 18,6 °C 9,7 km/h (2 Bft) 95,65 %
31.08.2026 02:23 18,6 °C 83 % 1014,4 hPa 0,0 l/m² 3,2 km/h (1 Bft) W 270 ° 15,7 °C 18,6 °C 6,4 km/h (2 Bft) 95,65 %
31.08.2026 02:22 18,6 °C 83 % 1014,4 hPa 0,0 l/m² 1,6 km/h (1 Bft) W 270 ° 15,7 °C 18,6 °C 3,2 km/h (1 Bft) 100,00 %
31.08.2026 02:21 18,7 °C 83 % 1014,4 hPa 0,0 l/m² 3,2 km/h (1 Bft) W-SW 247 ° 15,8 °C 18,7 °C 6,4 km/h (2 Bft) 95,65 %
31.08.2026 02:20 18,6 °C 83 % 1014,4 hPa 0,0 l/m² 3,2 km/h (1 Bft) SW 225 ° 15,7 °C 18,6 °C 9,7 km/h (2 Bft) 100,00 %
31.08.2026 02:19 18,6 °C 83 % 1014,4 hPa 0,0 l/m² 3,2 km/h (1 Bft) W 270 ° 15,7 °C 18,6 °C 4,8 km/h (1 Bft) 100,00 %
31.08.2026 02:18 18,7 °C 82 % 1014,3 hPa 0,0 l/m² 4,8 km/h (1 Bft) W 270 ° 15,6 °C 18,7 °C 9,7 km/h (2 Bft) 95,65 %
31.08.2026 02:17 18,7 °C 83 % 1014,3 hPa 0,0 l/m² 6,4 km/h (2 Bft) W-SW 247 ° 15,8 °C 18,7 °C 11,3 km/h (2 Bft) 100,00 %
31.08.2026 02:16 18,6 °C 82 % 1014,4 hPa 0,0 l/m² 4,8 km/h (1 Bft) W-SW 247 ° 15,5 °C 18,6 °C 8,0 km/h (2 Bft) 100,00 %
31.08.2026 02:15 18,7 °C 82 % 1014,3 hPa 0,0 l/m² 4,8 km/h (1 Bft) W-SW 247 ° 15,6 °C 18,7 °C 11,3 km/h (2 Bft) 100,00 %
31.08.2026 02:14 18,6 °C 82 % 1014,3 hPa 0,0 l/m² 6,4 km/h (2 Bft) W-SW 247 ° 15,5 °C 18,6 °C 11,3 km/h (2 Bft) 100,00 %
31.08.2026 02:13 18,7 °C 83 % 1014,4 hPa 0,0 l/m² 8,0 km/h (2 Bft) W 270 ° 15,8 °C 18,0 °C 11,3 km/h (2 Bft) 100,00 %
31.08.2026 02:12 18,6 °C 83 % 1014,4 hPa 0,0 l/m² 8,0 km/h (2 Bft) W 270 ° 15,7 °C 17,9 °C 11,3 km/h (2 Bft) 95,65 %
31.08.2026 02:11 18,7 °C 83 % 1014,4 hPa 0,0 l/m² 6,4 km/h (2 Bft) W 270 ° 15,8 °C 18,7 °C 9,7 km/h (2 Bft) 100,00 %
31.08.2026 02:10 18,7 °C 83 % 1014,5 hPa 0,0 l/m² 6,4 km/h (2 Bft) W 270 ° 15,8 °C 18,7 °C 9,7 km/h (2 Bft) 100,00 %
31.08.2026 02:09 18,7 °C 83 % 1014,5 hPa 0,0 l/m² 4,8 km/h (1 Bft) W 270 ° 15,8 °C 18,7 °C 6,4 km/h (2 Bft) 100,00 %
31.08.2026 02:08 18,7 °C 83 % 1014,4 hPa 0,0 l/m² 1,6 km/h (1 Bft) W-SW 247 ° 15,8 °C 18,7 °C 8,0 km/h (2 Bft) 95,65 %
31.08.2026 02:07 18,7 °C 83 % 1014,4 hPa 0,0 l/m² 1,6 km/h (1 Bft) W 270 ° 15,8 °C 18,7 °C 3,2 km/h (1 Bft) 100,00 %
31.08.2026 02:06 18,7 °C 83 % 1014,4 hPa 0,0 l/m² 3,2 km/h (1 Bft) W 270 ° 15,8 °C 18,7 °C 3,2 km/h (1 Bft) 100,00 %
31.08.2026 02:05 18,7 °C 83 % 1014,4 hPa 0,0 l/m² 1,6 km/h (1 Bft) W-SW 247 ° 15,8 °C 18,7 °C 3,2 km/h (1 Bft) 100,00 %
31.08.2026 02:04 18,7 °C 83 % 1014,3 hPa 0,0 l/m² 1,6 km/h (1 Bft) W-SW 247 ° 15,8 °C 18,7 °C 4,8 km/h (1 Bft) 100,00 %
31.08.2026 02:03 18,7 °C 83 % 1014,4 hPa 0,0 l/m² 3,2 km/h (1 Bft) W-SW 247 ° 15,8 °C 18,7 °C 6,4 km/h (2 Bft) 95,65 %
31.08.2026 02:02 18,7 °C 83 % 1014,4 hPa 0,0 l/m² 3,2 km/h (1 Bft) W 270 ° 15,8 °C 18,7 °C 4,8 km/h (1 Bft) 100,00 %
31.08.2026 02:01 18,8 °C 83 % 1014,4 hPa 0,0 l/m² 1,6 km/h (1 Bft) W 270 ° 15,8 °C 18,8 °C 3,2 km/h (1 Bft) 100,00 %
31.08.2026 02:00 18,8 °C 83 % 1014,3 hPa 0,0 l/m² 1,6 km/h (1 Bft) W 270 ° 15,8 °C 18,8 °C 3,2 km/h (1 Bft) 100,00 %
31.08.2026 01:59 18,8 °C 83 % 1014,3 hPa 0,0 l/m² 0,0 km/h (0 Bft) W 270 ° 15,8 °C 18,8 °C 1,6 km/h (1 Bft) 100,00 %
31.08.2026 01:58 18,8 °C 83 % 1014,4 hPa 0,0 l/m² 1,6 km/h (1 Bft) W 270 ° 15,8 °C 18,8 °C 3,2 km/h (1 Bft) 100,00 %
31.08.2026 01:57 18,8 °C 83 % 1014,3 hPa 0,0 l/m² 1,6 km/h (1 Bft) W 270 ° 15,8 °C 18,8 °C 3,2 km/h (1 Bft) 95,65 %
31.08.2026 01:56 18,8 °C 83 % 1014,3 hPa 0,0 l/m² 3,2 km/h (1 Bft) W 270 ° 15,8 °C 18,8 °C 6,4 km/h (2 Bft) 100,00 %
31.08.2026 01:55 18,8 °C 83 % 1014,4 hPa 0,0 l/m² 3,2 km/h (1 Bft) W-SW 247 ° 15,8 °C 18,8 °C 6,4 km/h (2 Bft) 100,00 %
31.08.2026 01:54 18,8 °C 83 % 1014,3 hPa 0,0 l/m² 3,2 km/h (1 Bft) SW 225 ° 15,8 °C 18,8 °C 4,8 km/h (1 Bft) 100,00 %
31.08.2026 01:53 18,8 °C 83 % 1014,4 hPa 0,0 l/m² 4,8 km/h (1 Bft) SW 225 ° 15,8 °C 18,8 °C 6,4 km/h (2 Bft) 95,65 %
31.08.2026 01:52 18,8 °C 83 % 1014,3 hPa 0,0 l/m² 3,2 km/h (1 Bft) SW 225 ° 15,8 °C 18,8 °C 4,8 km/h (1 Bft) 95,65 %
31.08.2026 01:51 18,8 °C 82 % 1014,4 hPa 0,0 l/m² 4,8 km/h (1 Bft) SW 225 ° 15,7 °C 18,8 °C 6,4 km/h (2 Bft) 100,00 %
31.08.2026 01:50 18,8 °C 82 % 1014,3 hPa 0,0 l/m² 3,2 km/h (1 Bft) W 270 ° 15,7 °C 18,8 °C 4,8 km/h (1 Bft) 91,30 %
31.08.2026 01:49 18,8 °C 82 % 1014,3 hPa 0,0 l/m² 1,6 km/h (1 Bft) W 270 ° 15,7 °C 18,8 °C 3,2 km/h (1 Bft) 100,00 %
31.08.2026 01:48 18,8 °C 83 % 1014,3 hPa 0,0 l/m² 0,0 km/h (0 Bft) W 270 ° 15,8 °C 18,8 °C 1,6 km/h (1 Bft) 100,00 %
31.08.2026 01:47 18,9 °C 83 % 1014,3 hPa 0,0 l/m² 1,6 km/h (1 Bft) W 270 ° 15,9 °C 18,9 °C 3,2 km/h (1 Bft) 95,65 %
31.08.2026 01:46 18,9 °C 83 % 1014,3 hPa 0,0 l/m² 1,6 km/h (1 Bft) W 270 ° 15,9 °C 18,9 °C 3,2 km/h (1 Bft) 100,00 %
31.08.2026 01:45 18,9 °C 83 % 1014,3 hPa 0,0 l/m² 1,6 km/h (1 Bft) W 270 ° 15,9 °C 18,9 °C 3,2 km/h (1 Bft) 95,65 %
31.08.2026 01:44 18,9 °C 83 % 1014,3 hPa 0,0 l/m² 0,0 km/h (0 Bft) W 270 ° 15,9 °C 18,9 °C 1,6 km/h (1 Bft) 100,00 %
31.08.2026 01:43 18,9 °C 83 % 1014,3 hPa 0,0 l/m² 1,6 km/h (1 Bft) W 270 ° 15,9 °C 18,9 °C 3,2 km/h (1 Bft) 100,00 %
31.08.2026 01:42 18,9 °C 83 % 1014,3 hPa 0,0 l/m² 3,2 km/h (1 Bft) W 270 ° 15,9 °C 18,9 °C 3,2 km/h (1 Bft) 100,00 %
31.08.2026 01:41 18,9 °C 83 % 1014,4 hPa 0,0 l/m² 3,2 km/h (1 Bft) W 270 ° 15,9 °C 18,9 °C 3,2 km/h (1 Bft) 100,00 %
31.08.2026 01:40 18,9 °C 83 % 1014,4 hPa 0,0 l/m² 3,2 km/h (1 Bft) W 270 ° 15,9 °C 18,9 °C 4,8 km/h (1 Bft) 100,00 %
31.08.2026 01:39 18,9 °C 83 % 1014,4 hPa 0,0 l/m² 1,6 km/h (1 Bft) W 270 ° 15,9 °C 18,9 °C 3,2 km/h (1 Bft) 100,00 %
31.08.2026 01:38 18,9 °C 83 % 1014,4 hPa 0,0 l/m² 3,2 km/h (1 Bft) W 270 ° 15,9 °C 18,9 °C 4,8 km/h (1 Bft) 100,00 %
31.08.2026 01:37 18,9 °C 83 % 1014,4 hPa 0,0 l/m² 1,6 km/h (1 Bft) W-SW 247 ° 15,9 °C 18,9 °C 3,2 km/h (1 Bft) 100,00 %
31.08.2026 01:36 18,9 °C 82 % 1014,4 hPa 0,0 l/m² 4,8 km/h (1 Bft) W-SW 247 ° 15,8 °C 18,9 °C 4,8 km/h (1 Bft) 95,65 %
31.08.2026 01:35 18,9 °C 82 % 1014,4 hPa 0,0 l/m² 3,2 km/h (1 Bft) W-SW 247 ° 15,8 °C 18,9 °C 4,8 km/h (1 Bft) 95,65 %
31.08.2026 01:34 19,0 °C 82 % 1014,3 hPa 0,0 l/m² 4,8 km/h (1 Bft) W 270 ° 15,9 °C 19,0 °C 4,8 km/h (1 Bft) 100,00 %
31.08.2026 01:33 19,1 °C 82 % 1014,4 hPa 0,0 l/m² 3,2 km/h (1 Bft) NW 315 ° 16,0 °C 19,1 °C 6,4 km/h (2 Bft) 100,00 %
31.08.2026 01:32 19,1 °C 82 % 1014,4 hPa 0,0 l/m² 4,8 km/h (1 Bft) W-NW 292 ° 16,0 °C 19,1 °C 9,7 km/h (2 Bft) 100,00 %
31.08.2026 01:31 19,1 °C 82 % 1014,4 hPa 0,0 l/m² 4,8 km/h (1 Bft) W 270 ° 16,0 °C 19,1 °C 6,4 km/h (2 Bft) 86,96 %
31.08.2026 01:30 19,1 °C 83 % 1014,4 hPa 0,0 l/m² 0,0 km/h (0 Bft) N 0 ° 16,1 °C 19,1 °C 0,0 km/h (0 Bft) 100,00 %
31.08.2026 01:29 19,1 °C 83 % 1014,4 hPa 0,0 l/m² 0,0 km/h (0 Bft) N 0 ° 16,1 °C 19,1 °C 0,0 km/h (0 Bft) 95,65 %
31.08.2026 01:28 19,2 °C 82 % 1014,4 hPa 0,0 l/m² 0,0 km/h (0 Bft) N 0 ° 16,0 °C 19,2 °C 0,0 km/h (0 Bft) 100,00 %
31.08.2026 01:27 19,2 °C 82 % 1014,3 hPa 0,0 l/m² 0,0 km/h (0 Bft) N 0 ° 16,0 °C 19,2 °C 0,0 km/h (0 Bft) 100,00 %
31.08.2026 01:26 19,2 °C 82 % 1014,3 hPa 0,0 l/m² 0,0 km/h (0 Bft) N 0 ° 16,0 °C 19,2 °C 0,0 km/h (0 Bft) 95,65 %
31.08.2026 01:25 19,2 °C 82 % 1014,3 hPa 0,0 l/m² 0,0 km/h (0 Bft) N 0 ° 16,0 °C 19,2 °C 0,0 km/h (0 Bft) 100,00 %
31.08.2026 01:24 19,2 °C 82 % 1014,4 hPa 0,0 l/m² 0,0 km/h (0 Bft) N 0 ° 16,0 °C 19,2 °C 0,0 km/h (0 Bft) 100,00 %
31.08.2026 01:23 19,2 °C 82 % 1014,3 hPa 0,0 l/m² 0,0 km/h (0 Bft) N 0 ° 16,0 °C 19,2 °C 0,0 km/h (0 Bft) 100,00 %
31.08.2026 01:22 19,2 °C 82 % 1014,4 hPa 0,0 l/m² 0,0 km/h (0 Bft) N 0 ° 16,0 °C 19,2 °C 0,0 km/h (0 Bft) 100,00 %
31.08.2026 01:21 19,2 °C 82 % 1014,4 hPa 0,0 l/m² 0,0 km/h (0 Bft) N 0 ° 16,0 °C 19,2 °C 0,0 km/h (0 Bft) 100,00 %
31.08.2026 01:20 19,2 °C 82 % 1014,4 hPa 0,0 l/m² 0,0 km/h (0 Bft) N 0 ° 16,0 °C 19,2 °C 0,0 km/h (0 Bft) 100,00 %
31.08.2026 01:19 19,3 °C 82 % 1014,5 hPa 0,0 l/m² 0,0 km/h (0 Bft) N 0 ° 16,1 °C 19,3 °C 0,0 km/h (0 Bft) 100,00 %
31.08.2026 01:18 19,3 °C 82 % 1014,4 hPa 0,0 l/m² 0,0 km/h (0 Bft) S-SO 157 ° 16,1 °C 19,3 °C 1,6 km/h (1 Bft) 100,00 %
31.08.2026 01:17 19,3 °C 82 % 1014,4 hPa 0,0 l/m² 1,6 km/h (1 Bft) S-SO 157 ° 16,1 °C 19,3 °C 1,6 km/h (1 Bft) 95,65 %
31.08.2026 01:16 19,3 °C 82 % 1014,5 hPa 0,0 l/m² 1,6 km/h (1 Bft) S-SO 157 ° 16,1 °C 19,3 °C 3,2 km/h (1 Bft) 100,00 %
31.08.2026 01:15 19,3 °C 82 % 1014,6 hPa 0,0 l/m² 1,6 km/h (1 Bft) S-SO 157 ° 16,1 °C 19,3 °C 3,2 km/h (1 Bft) 100,00 %
31.08.2026 01:14 19,3 °C 81 % 1014,6 hPa 0,0 l/m² 3,2 km/h (1 Bft) S-SO 157 ° 16,0 °C 19,3 °C 6,4 km/h (2 Bft) 100,00 %
31.08.2026 01:13 19,4 °C 81 % 1014,7 hPa 0,0 l/m² 3,2 km/h (1 Bft) S-SO 157 ° 16,1 °C 19,4 °C 3,2 km/h (1 Bft) 100,00 %
31.08.2026 01:12 19,3 °C 81 % 1014,7 hPa 0,0 l/m² 3,2 km/h (1 Bft) S-SO 157 ° 16,0 °C 19,3 °C 6,4 km/h (2 Bft) 95,65 %
31.08.2026 01:11 19,4 °C 81 % 1014,7 hPa 0,0 l/m² 3,2 km/h (1 Bft) S-SO 157 ° 16,1 °C 19,4 °C 3,2 km/h (1 Bft) 100,00 %
31.08.2026 01:10 19,4 °C 81 % 1014,7 hPa 0,0 l/m² 3,2 km/h (1 Bft) S-SO 157 ° 16,1 °C 19,4 °C 3,2 km/h (1 Bft) 100,00 %
31.08.2026 01:09 19,4 °C 81 % 1014,6 hPa 0,0 l/m² 3,2 km/h (1 Bft) S-SO 157 ° 16,1 °C 19,4 °C 6,4 km/h (2 Bft) 100,00 %
31.08.2026 01:08 19,4 °C 81 % 1014,7 hPa 0,0 l/m² 3,2 km/h (1 Bft) S-SO 157 ° 16,1 °C 19,4 °C 3,2 km/h (1 Bft) 100,00 %
31.08.2026 01:07 19,4 °C 81 % 1014,5 hPa 0,0 l/m² 3,2 km/h (1 Bft) S-SO 157 ° 16,1 °C 19,4 °C 6,4 km/h (2 Bft) 100,00 %
31.08.2026 01:06 19,4 °C 81 % 1014,6 hPa 0,0 l/m² 3,2 km/h (1 Bft) S-SO 157 ° 16,1 °C 19,4 °C 6,4 km/h (2 Bft) 100,00 %
31.08.2026 01:05 19,4 °C 80 % 1014,6 hPa 0,0 l/m² 4,8 km/h (1 Bft) S-SO 157 ° 15,9 °C 19,4 °C 4,8 km/h (1 Bft) 100,00 %
31.08.2026 01:04 19,4 °C 79 % 1014,6 hPa 0,0 l/m² 3,2 km/h (1 Bft) S-SO 157 ° 15,7 °C 19,4 °C 4,8 km/h (1 Bft) 100,00 %
31.08.2026 01:03 19,4 °C 80 % 1014,6 hPa 0,0 l/m² 1,6 km/h (1 Bft) W 270 ° 15,9 °C 19,4 °C 3,2 km/h (1 Bft) 100,00 %
31.08.2026 01:02 19,4 °C 80 % 1014,7 hPa 0,0 l/m² 1,6 km/h (1 Bft) W 270 ° 15,9 °C 19,4 °C 3,2 km/h (1 Bft) 95,65 %
31.08.2026 01:01 19,4 °C 80 % 1014,7 hPa 0,0 l/m² 3,2 km/h (1 Bft) W 270 ° 15,9 °C 19,4 °C 3,2 km/h (1 Bft) 100,00 %
31.08.2026 01:00 19,4 °C 80 % 1014,7 hPa 0,0 l/m² 3,2 km/h (1 Bft) W 270 ° 15,9 °C 19,4 °C 3,2 km/h (1 Bft) 95,65 %
_ Min-Zeit 00:15 16:09 05:36 - 01:18 - - 21:08 07:17 01:19 01:31
Minimum _ 17,1 °C 49 % 1013,5 hPa - 0,0 km/h (0 Bft) - - 12,7 °C 13,7 °C 0,0 km/h (0 Bft) 86,96 %
_ Max-Zeit 15:48 07:09 00:15 04:03 07:17 - - 15:42 15:52 07:17 01:01
Maximum _ 27,2 °C 88 % 1019,2 hPa 0,4 l/m² 20,9 km/h
W (4 Bft)
- - 17,4 °C 27,2 °C 33,8 km/h
W-NW (5 Bft)
100,00 %
Durchschnitt _ 21,2 °C 70 % 1015,8 hPa #2,0 l/m² 5,5 km/h (1 Bft) W - 15,3 °C 20,9 °C 8,7 km/h (2 Bft) 99,06 %